Provisional Data: West Branch Owego Creek near Speedsville, NY


Please select a monitoring station.
Please select start date.
Please select start date.

Toggle Unit: C/F Toggle Unit: C/F
Sample Time Temperature (C) Temperature (F) Specific Conductivity (mS/cm) pH   Turbidity (NTU+) DO (mg/L)
10/20/2020 12:00:00 AM 10.5 50.9 0.183 6.45 4.33 1.14
10/20/2020 12:15:00 AM 10.51 50.918 0.181 6.45 4.42 1.16
10/20/2020 12:30:00 AM 10.51 50.918 0.183 6.45 4.94 1.07
10/20/2020 12:45:00 AM 10.51 50.918 0.182 6.46 4.68 1.14
10/20/2020 1:00:00 AM 10.51 50.918 0.18 6.46 4.67 1.24
10/20/2020 1:15:00 AM 10.5 50.9 0.182 6.46 4.41 1.31
10/20/2020 1:30:00 AM 10.52 50.936 0.182 6.45 4.41 1.35
10/20/2020 1:45:00 AM 10.53 50.954 0.181 6.46 4.46 1.34
10/20/2020 2:00:00 AM 10.54 50.972 0.18 6.46 4.46 1.31
10/20/2020 2:15:00 AM 10.55 50.99 0.18 6.47 4.27 1.28
10/20/2020 2:30:00 AM 10.55 50.99 0.18 6.47 4.33 1.26
10/20/2020 2:45:00 AM 10.56 51.008 0.181 6.46 4.39 1.21
10/20/2020 3:00:00 AM 10.56 51.008 0.181 6.46 4.32 1.3
10/20/2020 3:15:00 AM 10.56 51.008 0.18 6.46 4.36 1.37
10/20/2020 3:30:00 AM 10.57 51.026 0.18 6.46 4.34 1.45
10/20/2020 3:45:00 AM 10.58 51.044 0.18 6.46 4.39 1.41
10/20/2020 4:00:00 AM 10.58 51.044 0.18 6.46 4.33 1.4
10/20/2020 4:15:00 AM 10.58 51.044 0.181 6.47 4.42 1.35
10/20/2020 4:30:00 AM 10.59 51.062 0.18 6.47 4.39 1.32
10/20/2020 4:45:00 AM 10.6 51.08 0.179 6.47 4.25 1.29
10/20/2020 5:00:00 AM 10.61 51.098 0.179 6.46 4.26 1.19
10/20/2020 5:15:00 AM 10.61 51.098 0.181 6.46 4.36 1.05
10/20/2020 5:30:00 AM 10.61 51.098 0.181 6.46 4.6 1.21
10/20/2020 5:45:00 AM 10.62 51.116 0.18 6.46 4.41 1.2
10/20/2020 6:00:00 AM 10.63 51.134 0.18 6.46 4.34 1.15
10/20/2020 6:15:00 AM 10.64 51.152 0.181 6.46 4.65 1.11
10/20/2020 6:30:00 AM 10.65 51.17 0.18 6.46 4.38 1.33
10/20/2020 6:45:00 AM 10.66 51.188 0.18 6.47 4.52 1.24
10/20/2020 7:00:00 AM 10.65 51.17 0.18 6.47 4.69 1.11
10/20/2020 7:15:00 AM 10.65 51.17 0.181 6.47 4.53 1.18
10/20/2020 7:30:00 AM 10.66 51.188 0.182 6.47 4.33 1.11
10/20/2020 7:45:00 AM 10.66 51.188 0.183 6.47 4.65 1.03
10/20/2020 8:00:00 AM 10.67 51.206 0.184 6.47 4.63 0.95
10/20/2020 8:15:00 AM 10.68 51.224 0.183 6.47 4.77 1.03
10/20/2020 8:30:00 AM 10.69 51.242 0.182 6.48 4.74 1.19
10/20/2020 8:45:00 AM 10.7 51.26 0.182 6.48 4.69 1.2
10/20/2020 9:00:00 AM 10.71 51.278 0.184 6.48 5.13 1.15
10/20/2020 9:15:00 AM 10.72 51.296 0.183 6.49 5.21 1.14
10/20/2020 9:30:00 AM 10.73 51.314 0.183 6.49 4.66 1.11
10/20/2020 9:45:00 AM 10.74 51.332 0.183 6.49 4.83 1.05
10/20/2020 10:00:00 AM 10.74 51.332 0.183 6.48 4.61 1.03
10/20/2020 10:15:00 AM 10.76 51.368 0.183 6.48 5 1.05
10/20/2020 10:30:00 AM 10.77 51.386 0.183 6.48 4.58 1.01
10/20/2020 10:45:00 AM 10.79 51.422 0.182 6.48 4.56 1.06
10/20/2020 11:00:00 AM 10.8 51.44 0.182 6.49 4.73 1.15
10/20/2020 11:15:00 AM 10.81 51.458 0.183 6.49 4.56 1.05
10/20/2020 11:30:00 AM 10.83 51.494 0.183 6.49 4.78 1.01
10/20/2020 11:45:00 AM 10.82 51.476 0.184 6.48 5 0.89
10/20/2020 12:00:00 PM 10.85 51.53 0.183 6.49 4.67 0.99
10/20/2020 12:15:00 PM 10.9 51.62 0.182 6.49 4.67 0.96
10/20/2020 12:30:00 PM 10.9 51.62 0.184 6.49 5.07 0.83
10/20/2020 12:45:00 PM 10.93 51.674 0.183 6.49 5.22 0.84
10/20/2020 1:00:00 PM 10.96 51.728 0.184 6.48 5.23 0.82
10/20/2020 1:15:00 PM 10.98 51.764 0.184 6.49 4.84 0.83
10/20/2020 1:30:00 PM 11.01 51.818 0.183 6.48 5 0.79
10/20/2020 1:45:00 PM 11.02 51.836 0.185 6.48 5.28 0.75
10/20/2020 2:00:00 PM 11.02 51.836 0.185 6.49 5.16 0.67
10/20/2020 2:15:00 PM 11.05 51.89 0.185 6.49 5.16 0.66
10/20/2020 2:30:00 PM 11.06 51.908 0.186 6.49 5.26 0.61
10/20/2020 2:45:00 PM 11.07 51.926 0.186 6.49 5.32 0.56
10/20/2020 3:00:00 PM 11.08 51.944 0.187 6.49 5.09 0.5
10/20/2020 3:15:00 PM 11.12 52.016 0.187 6.48 5.48 0.63
10/20/2020 3:30:00 PM 11.15 52.07 0.187 6.49 5.32 0.64
10/20/2020 3:45:00 PM 11.15 52.07 0.187 6.51 5.15 0.55
10/20/2020 4:00:00 PM 11.14 52.052 0.189 6.49 5.2 0.52
10/20/2020 4:15:00 PM 11.16 52.088 0.189 6.5 5.23 0.45
10/20/2020 4:30:00 PM 11.19 52.142 0.189 6.5 5.34 0.48
10/20/2020 4:45:00 PM 11.2 52.16 0.191 6.49 5.44 0.52
10/20/2020 5:00:00 PM 11.21 52.178 0.19 6.5 5.13 0.47
10/20/2020 5:15:00 PM 11.21 52.178 0.191 6.5 5.29 0.41
10/20/2020 5:30:00 PM 11.23 52.214 0.191 6.5 5 0.4
10/20/2020 5:45:00 PM 11.23 52.214 0.191 6.5 5.23 0.34
10/20/2020 6:00:00 PM 11.23 52.214 0.192 6.5 5.05 0.35
10/20/2020 6:15:00 PM 11.25 52.25 0.19 6.5 5.11 0.56
10/20/2020 6:30:00 PM 11.25 52.25 0.191 6.5 5.54 0.46
10/20/2020 6:45:00 PM 11.25 52.25 0.191 6.5 5.13 0.41
10/20/2020 7:00:00 PM 11.24 52.232 0.191 6.51 4.95 0.44
10/20/2020 7:15:00 PM 11.25 52.25 0.19 6.51 5.12 0.42
10/20/2020 7:30:00 PM 11.26 52.268 0.189 6.5 4.83 0.42
10/20/2020 7:45:00 PM 11.26 52.268 0.189 6.51 4.77 0.4
10/20/2020 8:00:00 PM 11.24 52.232 0.193 6.51 5.21 0.35
10/20/2020 8:15:00 PM 11.24 52.232 0.193 6.51 5.19 0.32
10/20/2020 8:30:00 PM 11.25 52.25 0.192 6.51 4.9 0.3
10/20/2020 8:45:00 PM 11.24 52.232 0.192 6.51 4.86 0.3
10/20/2020 9:00:00 PM 11.24 52.232 0.193 6.51 4.89 0.3
10/20/2020 9:15:00 PM 11.24 52.232 0.191 6.51 4.69 0.4
10/20/2020 9:30:00 PM 11.23 52.214 0.194 6.51 4.82 0.39
10/20/2020 9:45:00 PM 11.23 52.214 0.194 6.51 4.77 0.37
10/20/2020 10:00:00 PM 11.22 52.196 0.194 6.52 4.83 0.33
10/20/2020 10:15:00 PM 11.22 52.196 0.194 6.52 4.87 0.37
10/20/2020 10:30:00 PM 11.21 52.178 0.195 6.52 4.9 0.37
10/20/2020 10:45:00 PM 11.2 52.16 0.195 6.52 4.76 0.39
10/20/2020 11:00:00 PM 11.19 52.142 0.195 6.52 4.76 0.44
10/20/2020 11:15:00 PM 11.19 52.142 0.194 6.52 4.84 0.47
10/20/2020 11:30:00 PM 11.18 52.124 0.194 6.52 4.84 0.42
10/20/2020 11:45:00 PM 11.17 52.106 0.194 6.52 4.82 0.39
10/21/2020 12:00:00 AM 11.17 52.106 0.196 6.52 4.91 0.35
10/21/2020 12:15:00 AM 11.16 52.088 0.197 6.53 5.16 0.32
10/21/2020 12:30:00 AM 11.16 52.088 0.197 6.53 4.9 0.31
10/21/2020 12:45:00 AM 11.15 52.07 0.197 6.53 5.07 0.38
10/21/2020 1:00:00 AM 11.15 52.07 0.198 6.53 5.15 0.35
10/21/2020 1:15:00 AM 11.14 52.052 0.198 6.53 5.12 0.34
10/21/2020 1:30:00 AM 11.13 52.034 0.197 6.53 5 0.33
10/21/2020 1:45:00 AM 11.09 51.962 0.191 6.52 4.44 0.98
10/21/2020 2:00:00 AM 11.07 51.926 0.187 6.52 4.51 1.25
10/21/2020 2:15:00 AM 11.07 51.926 0.19 6.53 4.75 1.02
10/21/2020 2:30:00 AM 11.07 51.926 0.191 6.52 4.9 0.86
10/21/2020 2:45:00 AM 11.08 51.944 0.192 6.53 4.9 0.79
10/21/2020 3:00:00 AM 11.08 51.944 0.193 6.53 5.11 0.64
10/21/2020 3:15:00 AM 11.06 51.908 0.192 6.53 4.85 0.74
10/21/2020 3:30:00 AM 11.05 51.89 0.19 6.53 4.79 0.81
10/21/2020 3:45:00 AM 11.04 51.872 0.188 6.53 4.62 0.83
10/21/2020 4:00:00 AM 11.03 51.854 0.189 6.53 4.59 0.96
10/21/2020 4:15:00 AM 11.02 51.836 0.189 6.53 4.76 1.11
10/21/2020 4:30:00 AM 11.01 51.818 0.187 6.53 4.67 1.45
10/21/2020 4:45:00 AM 10.99 51.782 0.184 6.54 4.52 1.45
10/21/2020 5:00:00 AM 10.98 51.764 0.185 6.53 4.45 1.51
10/21/2020 5:15:00 AM 10.98 51.764 0.185 6.53 4.5 1.61
10/21/2020 5:30:00 AM 10.97 51.746 0.183 6.53 4.38 1.63
10/21/2020 5:45:00 AM 10.96 51.728 0.182 6.53 4.56 1.68
10/21/2020 6:00:00 AM 10.96 51.728 0.182 6.52 4.34 1.67
10/21/2020 6:15:00 AM 10.96 51.728 0.183 6.51 4.56 1.53
10/21/2020 6:30:00 AM 10.96 51.728 0.183 6.52 4.45 1.41
10/21/2020 6:45:00 AM 10.97 51.746 0.184 6.51 4.63 1.36
10/21/2020 7:00:00 AM 10.97 51.746 0.186 6.51 4.65 1.43
10/21/2020 7:15:00 AM 10.98 51.764 0.189 6.52 5.62 1.25
10/21/2020 7:30:00 AM 10.98 51.764 0.193 6.53 5.31 1.11
10/21/2020 7:45:00 AM 10.98 51.764 0.191 6.53 5 1.05
10/21/2020 8:00:00 AM 10.97 51.746 0.19 6.54 4.97 1.19
10/21/2020 8:15:00 AM 10.96 51.728 0.188 6.54 4.79 1.21
10/21/2020 8:30:00 AM 10.95 51.71 0.186 6.54 5.82 1.23
10/21/2020 8:45:00 AM 10.96 51.728 0.187 6.53 5.27 1.14
10/21/2020 9:00:00 AM 10.97 51.746 0.187 6.52 5.22 1.08
10/21/2020 9:15:00 AM 10.97 51.746 0.187 6.52 4.91 1.07
10/21/2020 9:30:00 AM 10.98 51.764 0.187 6.51 5.04 1.07
10/21/2020 9:45:00 AM 10.99 51.782 0.187 6.52 4.78 1.06
10/21/2020 10:00:00 AM 11.01 51.818 0.187 6.51 5.11 1.05
10/21/2020 10:15:00 AM 11.04 51.872 0.186 6.49 5.1 1.25
10/21/2020 10:30:00 AM 11.07 51.926 0.184 6.48 4.98 1.4
10/21/2020 10:45:00 AM 11.09 51.962 0.184 6.49 5.16 1.46
10/21/2020 11:00:00 AM 11.12 52.016 0.182 6.49 4.74 1.46
10/21/2020 11:15:00 AM 11.15 52.07 0.186 6.49 6.35 1.4
10/21/2020 11:30:00 AM 11.2 52.16 0.185 6.48 5.13 1.47
10/21/2020 11:45:00 AM 11.25 52.25 0.186 6.49 4.67 1.46
10/21/2020 12:00:00 PM 11.27 52.286 0.188 6.5 5.18 1.42
10/21/2020 12:15:00 PM 11.35 52.43 0.189 6.51 5.35 1.48
10/21/2020 12:30:00 PM 11.39 52.502 0.19 6.51 4.93 1.48
10/21/2020 12:45:00 PM 11.48 52.664 0.19 6.51 5.13 1.47
10/21/2020 1:00:00 PM 11.55 52.79 0.19 6.5 5.87 1.49
10/21/2020 1:15:00 PM 11.7 53.06 0.19 6.52 5.59 1.71
10/21/2020 1:30:00 PM 11.74 53.132 0.188 6.51 5.36 1.7
10/21/2020 1:45:00 PM 11.79 53.222 0.188 6.5 5.05 1.62
10/21/2020 2:00:00 PM 11.87 53.366 0.187 6.51 4.89 1.72
10/21/2020 2:15:00 PM 11.87 53.366 0.188 6.49 4.77 1.64
10/21/2020 2:30:00 PM 12.01 53.618 0.187 6.5 4.92 1.71
10/21/2020 2:45:00 PM 12.11 53.798 0.188 6.5 4.63 1.75
10/21/2020 3:00:00 PM 12.21 53.978 0.187 6.5 4.63 1.74
10/21/2020 3:15:00 PM 12.24 54.032 0.188 6.49 4.8 1.75
10/21/2020 3:30:00 PM 12.26 54.068 0.189 6.49 4.59 1.89
10/21/2020 3:45:00 PM 12.34 54.212 0.189 6.49 4.73 1.88
10/21/2020 4:00:00 PM 12.37 54.266 0.189 6.49 4.57 1.87
10/21/2020 4:15:00 PM 12.34 54.212 0.189 6.47 4.46 1.82
10/21/2020 4:30:00 PM 12.39 54.302 0.189 6.47 4.86 1.78
10/21/2020 4:45:00 PM 12.39 54.302 0.189 6.47 4.23 1.76
10/21/2020 5:00:00 PM 12.43 54.374 0.188 6.47 4.5 1.69
10/21/2020 5:15:00 PM 12.4 54.32 0.188 6.46 4.42 1.65
10/21/2020 5:30:00 PM 12.43 54.374 0.188 6.46 4.32 1.58
10/21/2020 5:45:00 PM 12.44 54.392 0.188 6.46 4.34 1.56
10/21/2020 6:00:00 PM 12.39 54.302 0.188 6.45 4.48 1.6
10/21/2020 6:15:00 PM 12.44 54.392 0.188 6.46 4.33 1.54
10/21/2020 6:30:00 PM 12.41 54.338 0.188 6.45 4.22 1.45
10/21/2020 6:45:00 PM 12.41 54.338 0.188 6.45 4.49 1.42
10/21/2020 7:00:00 PM 12.4 54.32 0.189 6.45 4.24 1.38
10/21/2020 7:15:00 PM 12.39 54.302 0.189 6.45 4.43 1.34
10/21/2020 7:30:00 PM 12.42 54.356 0.189 6.46 4.14 1.4
10/21/2020 7:45:00 PM 12.39 54.302 0.189 6.45 4.12 1.29
10/21/2020 8:00:00 PM 12.4 54.32 0.189 6.44 3.88 1.17
10/21/2020 8:15:00 PM 12.36 54.248 0.189 6.44 3.9 1.13
10/21/2020 8:30:00 PM 12.39 54.302 0.189 6.44 3.96 1.1
10/21/2020 8:45:00 PM 12.37 54.266 0.189 6.45 4.15 1.09
10/21/2020 9:00:00 PM 12.36 54.248 0.189 6.45 3.95 1.09
10/21/2020 9:15:00 PM 12.35 54.23 0.189 6.44 3.8 1.06
10/21/2020 9:30:00 PM 12.36 54.248 0.188 6.43 3.61 0.99
10/21/2020 9:45:00 PM 12.33 54.194 0.188 6.43 3.67 1
10/21/2020 10:00:00 PM 12.32 54.176 0.188 6.43 3.43 0.94
10/21/2020 10:15:00 PM 12.32 54.176 0.188 6.42 3.35 0.87
10/21/2020 10:30:00 PM 12.32 54.176 0.188 6.41 3.31 0.87
10/21/2020 10:45:00 PM 12.32 54.176 0.188 6.41 3.3 0.86
10/21/2020 11:00:00 PM 12.29 54.122 0.188 6.39 3.19 0.82
10/21/2020 11:15:00 PM 12.3 54.14 0.188 6.4 3.1 0.87
10/21/2020 11:30:00 PM 12.26 54.068 0.189 6.41 3.22 0.86
10/21/2020 11:45:00 PM 12.26 54.068 0.189 6.41 3.42 0.82
10/22/2020 12:00:00 AM 12.27 54.086 0.189 6.41 3.19 0.8
10/22/2020 12:15:00 AM 12.24 54.032 0.189 6.42 3.22 0.71
10/22/2020 12:30:00 AM 12.24 54.032 0.19 6.43 3.18 0.67
10/22/2020 12:45:00 AM 12.24 54.032 0.19 6.43 3.15 0.66
10/22/2020 1:00:00 AM 12.23 54.014 0.19 6.43 3.37 0.6
10/22/2020 1:15:00 AM 12.23 54.014 0.19 6.44 3.53 0.72
10/22/2020 1:30:00 AM 12.2 53.96 0.191 6.45 3.72 0.69
10/22/2020 1:45:00 AM 12.2 53.96 0.191 6.46 3.55 0.63
10/22/2020 2:00:00 AM 12.21 53.978 0.191 6.46 3.5 0.55
10/22/2020 2:15:00 AM 12.2 53.96 0.191 6.46 3.56 0.46
10/22/2020 2:30:00 AM 12.19 53.942 0.191 6.46 3.53 0.41
10/22/2020 2:45:00 AM 12.17 53.906 0.192 6.46 3.57 0.37
10/22/2020 3:00:00 AM 12.16 53.888 0.192 6.45 3.71 0.44
10/22/2020 3:15:00 AM 12.16 53.888 0.192 6.46 3.47 0.41
10/22/2020 3:30:00 AM 12.15 53.87 0.193 6.45 3.6 0.41
10/22/2020 3:45:00 AM 12.15 53.87 0.192 6.44 3.32 0.41
10/22/2020 4:00:00 AM 12.14 53.852 0.192 6.45 3.39 0.48
10/22/2020 4:15:00 AM 12.12 53.816 0.193 6.45 3.57 0.44
10/22/2020 4:30:00 AM 12.14 53.852 0.192 6.46 3.4 0.41
10/22/2020 4:45:00 AM 12.12 53.816 0.192 6.46 3.45 0.36
10/22/2020 5:00:00 AM 12.1 53.78 0.193 6.45 3.39 0.4
10/22/2020 5:15:00 AM 12.11 53.798 0.192 6.45 3.46 0.46
10/22/2020 5:30:00 AM 12.09 53.762 0.193 6.45 3.13 0.43
10/22/2020 5:45:00 AM 12.1 53.78 0.193 6.45 3.2 0.54
10/22/2020 6:00:00 AM 12.1 53.78 0.192 6.45 3.2 0.47
10/22/2020 6:15:00 AM 12.08 53.744 0.193 6.45 3.08 0.38
10/22/2020 6:30:00 AM 12.09 53.762 0.193 6.45 3.08 0.46
10/22/2020 6:45:00 AM 12.06 53.708 0.194 6.44 3.15 0.47
10/22/2020 7:00:00 AM 12.07 53.726 0.194 6.45 2.9 0.47
10/22/2020 7:15:00 AM 12.06 53.708 0.194 6.44 2.93 0.56
10/22/2020 7:30:00 AM 12.06 53.708 0.194 6.45 3 0.53
10/22/2020 7:45:00 AM 12.06 53.708 0.193 6.45 3.01 0.49
10/22/2020 8:00:00 AM 12.06 53.708 0.193 6.45 2.95 0.46
10/22/2020 8:15:00 AM 12.05 53.69 0.195 6.45 3.07 0.47
10/22/2020 8:30:00 AM 12.06 53.708 0.195 6.47 4.39 0.46
10/22/2020 8:45:00 AM 12.08 53.744 0.195 6.48 3.6 0.5
10/22/2020 9:00:00 AM 12.07 53.726 0.197 6.48 3.76 0.48
10/22/2020 9:15:00 AM 12.08 53.744 0.197 6.49 3.58 0.43
10/22/2020 9:30:00 AM 12.08 53.744 0.196 6.49 3.62 0.4
10/22/2020 9:45:00 AM 12.1 53.78 0.196 6.49 3.72 0.37
10/22/2020 10:00:00 AM 12.11 53.798 0.195 6.49 3.77 0.42
10/22/2020 10:15:00 AM 12.11 53.798 0.196 6.49 3.73 0.36
10/22/2020 10:30:00 AM 12.13 53.834 0.196 6.48 3.92 0.36
10/22/2020 10:45:00 AM 12.11 53.798 0.196 6.49 3.79 0.34
10/22/2020 11:00:00 AM 12.15 53.87 0.195 6.49 3.77 0.36
10/22/2020 11:15:00 AM 12.17 53.906 0.195 6.49 3.84 0.41
10/22/2020 11:30:00 AM 12.19 53.942 0.194 6.49 3.9 0.43
10/22/2020 11:45:00 AM 12.22 53.996 0.194 6.49 3.95 0.44
10/22/2020 12:00:00 PM 12.26 54.068 0.193 6.49 4.14 0.57
10/22/2020 12:15:00 PM 12.26 54.068 0.194 6.49 4.07 0.59
10/22/2020 12:30:00 PM 12.3 54.14 0.191 6.49 4.07 0.64
10/22/2020 12:45:00 PM 12.33 54.194 0.192 6.49 4.3 0.78
10/22/2020 1:00:00 PM 12.37 54.266 0.191 6.49 4.24 0.73
10/22/2020 1:15:00 PM 12.39 54.302 0.191 6.49 4.1 0.75
10/22/2020 1:30:00 PM 12.42 54.356 0.191 6.49 4.12 0.98
10/22/2020 1:45:00 PM 12.46 54.428 0.191 6.49 4.08 1.01
10/22/2020 2:00:00 PM 12.49 54.482 0.189 6.48 3.97 1.02
10/22/2020 2:15:00 PM 12.52 54.536 0.189 6.46 3.73 1.17
10/22/2020 2:30:00 PM 12.54 54.572 0.189 6.46 3.62 1.14
10/22/2020 2:45:00 PM 12.58 54.644 0.188 6.45 3.59 1.16
10/22/2020 3:00:00 PM 12.61 54.698 0.189 6.44 3.66 1.23
10/22/2020 3:15:00 PM 12.66 54.788 0.187 6.45 3.53 1.21
10/22/2020 3:30:00 PM 12.7 54.86 0.188 6.44 3.61 1.28
10/22/2020 3:45:00 PM 12.68 54.824 0.189 6.43 3.55 1.35
10/22/2020 4:00:00 PM 12.72 54.896 0.188 6.44 3.73 1.36
10/22/2020 4:15:00 PM 12.72 54.896 0.188 6.42 3.53 1.43
10/22/2020 4:30:00 PM 12.72 54.896 0.188 6.42 3.42 1.41
10/22/2020 4:45:00 PM 12.73 54.914 0.187 6.42 4.21 1.45
10/22/2020 5:00:00 PM 12.73 54.914 0.187 6.42 3.92 1.4
10/22/2020 5:15:00 PM 12.73 54.914 0.187 6.41 4.04 1.34
10/22/2020 5:30:00 PM 12.74 54.932 0.188 6.41 4.15 1.39
10/22/2020 5:45:00 PM 12.76 54.968 0.189 6.42 4.14 1.41
10/22/2020 6:00:00 PM 12.74 54.932 0.19 6.43 3.94 1.41
10/22/2020 6:15:00 PM 12.74 54.932 0.19 6.43 4.2 1.36
10/22/2020 6:30:00 PM 12.7 54.86 0.191 6.44 4.49 1.36
10/22/2020 6:45:00 PM 12.7 54.86 0.192 6.44 4.64 1.3
10/22/2020 7:00:00 PM 12.68 54.824 0.192 6.44 4.39 1.22
10/22/2020 7:15:00 PM 12.7 54.86 0.192 6.43 4.19 1.13
10/22/2020 7:30:00 PM 12.68 54.824 0.193 6.43 4.9 1.08
10/22/2020 7:45:00 PM 12.67 54.806 0.193 6.44 4.56 1.05
10/22/2020 8:00:00 PM 12.7 54.86 0.192 6.44 4.99 1.05
10/22/2020 8:15:00 PM 12.65 54.77 0.193 6.43 4.44 1.03
10/22/2020 8:30:00 PM 12.64 54.752 0.193 6.43 4.51 0.98
10/22/2020 8:45:00 PM 12.62 54.716 0.193 6.42 4.48 0.92
10/22/2020 9:00:00 PM 12.6 54.68 0.193 6.42 4.27 0.9
10/22/2020 9:15:00 PM 12.59 54.662 0.193 6.42 3.97 0.88
10/22/2020 9:30:00 PM 12.59 54.662 0.193 6.42 4.75 0.85
10/22/2020 9:45:00 PM 12.59 54.662 0.193 6.42 4.26 0.85
10/22/2020 10:00:00 PM 12.56 54.608 0.193 6.42 4.1 0.78
10/22/2020 10:15:00 PM 12.55 54.59 0.193 6.42 4.14 0.8
10/22/2020 10:30:00 PM 12.56 54.608 0.194 6.42 4.25 0.83
10/22/2020 10:45:00 PM 12.52 54.536 0.194 6.42 4.37 0.82
10/22/2020 11:00:00 PM 12.51 54.518 0.195 6.42 4.72 0.84
10/22/2020 11:15:00 PM 12.5 54.5 0.194 6.42 4.36 0.78
10/22/2020 11:30:00 PM 12.49 54.482 0.194 6.42 4.52 0.8
10/22/2020 11:45:00 PM 12.47 54.446 0.195 6.42 4.57 0.84
10/23/2020 12:00:00 AM 12.43 54.374 0.195 6.41 4.17 0.86
10/23/2020 12:15:00 AM 12.44 54.392 0.193 6.41 4.18 0.96
10/23/2020 12:30:00 AM 12.42 54.356 0.195 6.41 4.25 0.89
10/23/2020 12:45:00 AM 12.39 54.302 0.194 6.41 4.25 0.9
10/23/2020 1:00:00 AM 12.36 54.248 0.195 6.41 4.23 0.92
10/23/2020 1:15:00 AM 12.34 54.212 0.194 6.41 4.49 0.9
10/23/2020 1:30:00 AM 12.34 54.212 0.197 6.42 4.53 0.84
10/23/2020 1:45:00 AM 12.33 54.194 0.196 6.42 4.38 0.75
10/23/2020 2:00:00 AM 12.32 54.176 0.197 6.43 4.74 0.73
10/23/2020 2:15:00 AM 12.31 54.158 0.198 6.42 4.6 0.65
10/23/2020 2:30:00 AM 12.29 54.122 0.197 6.42 4.46 0.62
10/23/2020 2:45:00 AM 12.27 54.086 0.197 6.42 4.43 0.55
10/23/2020 3:00:00 AM 12.26 54.068 0.199 6.43 4.83 0.61
10/23/2020 3:15:00 AM 12.25 54.05 0.198 6.43 4.45 0.66
10/23/2020 3:30:00 AM 12.25 54.05 0.197 6.43 4.52 0.69
10/23/2020 3:45:00 AM 12.22 53.996 0.2 6.45 4.82 0.69
10/23/2020 4:00:00 AM 12.21 53.978 0.2 6.45 4.67 0.63
10/23/2020 4:15:00 AM 12.19 53.942 0.2 6.45 4.58 0.55
10/23/2020 4:30:00 AM 12.16 53.888 0.201 6.44 4.54 0.47
10/23/2020 4:45:00 AM 12.15 53.87 0.2 6.44 4.42 0.54
10/23/2020 5:00:00 AM 12.12 53.816 0.201 6.44 4.62 0.58
10/23/2020 5:15:00 AM 12.1 53.78 0.203 6.45 4.58 0.55
10/23/2020 5:30:00 AM 12.09 53.762 0.203 6.46 4.69 0.5
10/23/2020 5:45:00 AM 12.07 53.726 0.204 6.47 4.63 0.42
10/23/2020 6:00:00 AM 12.05 53.69 0.203 6.46 4.85 0.38
10/23/2020 6:15:00 AM 12.03 53.654 0.203 6.45 4.62 0.35
10/23/2020 6:30:00 AM 12.01 53.618 0.203 6.46 5.51 0.4
10/23/2020 6:45:00 AM 11.98 53.564 0.203 6.46 4.95 0.39
10/23/2020 7:00:00 AM 11.96 53.528 0.204 6.46 5.22 0.39
10/23/2020 7:15:00 AM 11.94 53.492 0.205 6.47 5.42 0.37
10/23/2020 7:30:00 AM 11.91 53.438 0.204 6.47 5.57 0.46
10/23/2020 7:45:00 AM 11.89 53.402 0.204 6.49 5.37 0.61
10/23/2020 8:00:00 AM 11.88 53.384 0.204 6.49 6.12 0.58
10/23/2020 8:15:00 AM 11.87 53.366 0.204 6.5 5.87 0.55
10/23/2020 8:30:00 AM 11.86 53.348 0.204 6.49 5.66 0.55
10/23/2020 8:45:00 AM 11.86 53.348 0.203 6.5 5.77 0.5
10/23/2020 9:00:00 AM 11.85 53.33 0.203 6.49 6.31 0.47
10/23/2020 9:15:00 AM 11.86 53.348 0.202 6.48 5.9 0.42
10/23/2020 9:30:00 AM 11.86 53.348 0.201 6.49 5.93 0.42
10/23/2020 9:45:00 AM 11.86 53.348 0.199 6.47 5.46 0.7
10/23/2020 10:00:00 AM 11.87 53.366 0.196 6.47 6.62 0.87
10/23/2020 10:15:00 AM 11.89 53.402 0.193 6.46 4.92 1.18
10/23/2020 10:30:00 AM 11.91 53.438 0.191 6.46 4.77 1.36
10/23/2020 10:45:00 AM 11.97 53.546 0.191 6.45 5.04 1.5
10/23/2020 11:00:00 AM 12.02 53.636 0.191 6.46 5.24 1.5
10/23/2020 11:15:00 AM 12.06 53.708 0.191 6.45 5.55 1.48
10/23/2020 11:30:00 AM 12.11 53.798 0.191 6.46 5.26 1.45
10/23/2020 11:45:00 AM 12.17 53.906 0.191 6.46 6.21 1.48
10/23/2020 12:00:00 PM 12.24 54.032 0.194 6.47 6.07 1.52
10/23/2020 12:15:00 PM 12.3 54.14 0.195 6.48 6.47 1.5
10/23/2020 12:30:00 PM 12.37 54.266 0.195 6.48 6.11 1.49
10/23/2020 12:45:00 PM 12.43 54.374 0.194 6.48 5.7 1.53
10/23/2020 1:00:00 PM 12.52 54.536 0.193 6.49 5.75 1.74
10/23/2020 1:15:00 PM 12.64 54.752 0.192 6.5 5.38 1.91
10/23/2020 1:30:00 PM 12.76 54.968 0.191 6.5 6.91 2.03
10/23/2020 1:45:00 PM 12.97 55.346 0.19 6.51 5.27 2.06
10/23/2020 2:00:00 PM 12.96 55.328 0.19 6.5 5.29 2.12
10/23/2020 2:15:00 PM 13.04 55.472 0.19 6.5 5.12 2.07
10/23/2020 2:30:00 PM 13.14 55.652 0.191 6.5 6.5 2
10/23/2020 2:45:00 PM 13.27 55.886 0.191 6.51 5.53 2.15
10/23/2020 3:00:00 PM 13.38 56.084 0.191 6.51 5.3 2.23
10/23/2020 3:15:00 PM 13.43 56.174 0.19 6.5 5.24 2.23
10/23/2020 3:30:00 PM 13.45 56.21 0.191 6.49 5.53 2.31
10/23/2020 3:45:00 PM 13.47 56.246 0.191 6.5 5.45 2.29
10/23/2020 4:00:00 PM 13.46 56.228 0.191 6.49 5.59 2.24
10/23/2020 4:15:00 PM 13.46 56.228 0.191 6.49 5.26 2.33
10/23/2020 4:30:00 PM 13.53 56.354 0.191 6.5 5.37 2.28
10/23/2020 4:45:00 PM 13.43 56.174 0.191 6.49 5.3 2.26
10/23/2020 5:00:00 PM 13.51 56.318 0.191 6.51 5.44 2.3
10/23/2020 5:15:00 PM 13.51 56.318 0.191 6.52 5.45 2.23
10/23/2020 5:30:00 PM 13.49 56.282 0.191 6.51 5.17 2.12
10/23/2020 5:45:00 PM 13.5 56.3 0.191 6.51 5.35 2.07
10/23/2020 6:00:00 PM 13.49 56.282 0.192 6.5 5.25 2.01
10/23/2020 6:15:00 PM 13.48 56.264 0.191 6.5 4.99 1.91
10/23/2020 6:30:00 PM 13.48 56.264 0.191 6.5 5.19 1.88
10/23/2020 6:45:00 PM 13.42 56.156 0.191 6.49 4.98 1.81
10/23/2020 7:00:00 PM 13.42 56.156 0.191 6.5 4.77 1.74
10/23/2020 7:15:00 PM 13.4 56.12 0.192 6.49 5.14 1.65
10/23/2020 7:30:00 PM 13.39 56.102 0.192 6.5 5.08 1.65
10/23/2020 7:45:00 PM 13.38 56.084 0.192 6.49 4.98 1.66
10/23/2020 8:00:00 PM 13.37 56.066 0.192 6.5 4.94 1.6
10/23/2020 8:15:00 PM 13.34 56.012 0.192 6.49 5.01 1.53
10/23/2020 8:30:00 PM 13.34 56.012 0.192 6.49 5.06 1.49
10/23/2020 8:45:00 PM 13.27 55.886 0.192 6.48 5.52 1.35
10/23/2020 9:00:00 PM 13.26 55.868 0.192 6.47 5.4 1.47
10/23/2020 9:15:00 PM 13.26 55.868 0.192 6.48 5.19 1.47
10/23/2020 9:30:00 PM 13.23 55.814 0.192 6.48 4.98 1.31
10/23/2020 9:45:00 PM 13.22 55.796 0.192 6.47 4.81 1.24
10/23/2020 10:00:00 PM 13.2 55.76 0.192 6.48 5.26 1.27
10/23/2020 10:15:00 PM 13.16 55.688 0.192 6.48 5.04 1.23
10/23/2020 10:30:00 PM 13.14 55.652 0.193 6.48 4.88 1.24
10/23/2020 10:45:00 PM 13.13 55.634 0.193 6.49 4.93 1.25
10/23/2020 11:00:00 PM 13.1 55.58 0.193 6.48 4.62 1.16
10/23/2020 11:15:00 PM 13.07 55.526 0.194 6.48 4.99 1.12
10/23/2020 11:30:00 PM 13.06 55.508 0.193 6.49 5.14 1.14
10/23/2020 11:45:00 PM 13.05 55.49 0.193 6.48 4.84 1.14
10/24/2020 12:00:00 AM 13.04 55.472 0.194 6.48 4.91 1.15
10/24/2020 12:15:00 AM 13.01 55.418 0.194 6.48 4.76 1.14
10/24/2020 12:30:00 AM 12.98 55.364 0.193 6.48 4.76 1.12
10/24/2020 12:45:00 AM 12.98 55.364 0.193 6.48 4.95 1.05
10/24/2020 1:00:00 AM 12.95 55.31 0.194 6.47 5.14 1.04
10/24/2020 1:15:00 AM 12.93 55.274 0.192 6.46 4.68 1.16
10/24/2020 1:30:00 AM 12.89 55.202 0.19 6.45 4.38 1.2
10/24/2020 1:45:00 AM 12.86 55.148 0.191 6.44 4.4 1.11
10/24/2020 2:00:00 AM 12.84 55.112 0.191 6.44 4.63 1.06
10/24/2020 2:15:00 AM 12.83 55.094 0.192 6.44 4.66 0.97
10/24/2020 2:30:00 AM 12.8 55.04 0.192 6.44 4.92 0.84
10/24/2020 2:45:00 AM 12.82 55.076 0.192 6.44 4.7 0.79
10/24/2020 3:00:00 AM 12.8 55.04 0.193 6.44 4.82 0.78
10/24/2020 3:15:00 AM 12.81 55.058 0.193 6.45 5.27 0.82
10/24/2020 3:30:00 AM 12.79 55.022 0.193 6.44 4.86 0.82
10/24/2020 3:45:00 AM 12.78 55.004 0.193 6.45 5.31 0.73
10/24/2020 4:00:00 AM 12.77 54.986 0.193 6.44 5.28 0.69
10/24/2020 4:15:00 AM 12.76 54.968 0.193 6.45 5.07 0.63
10/24/2020 4:30:00 AM 12.74 54.932 0.194 6.45 5.13 0.58
10/24/2020 4:45:00 AM 12.74 54.932 0.194 6.44 5.66 0.58
10/24/2020 5:00:00 AM 12.72 54.896 0.194 6.45 5.42 0.59
10/24/2020 5:15:00 AM 12.75 54.95 0.193 6.45 5.5 0.63
10/24/2020 5:30:00 AM 12.68 54.824 0.194 6.44 5.54 0.55
10/24/2020 5:45:00 AM 12.68 54.824 0.192 6.43 5.38 0.61
10/24/2020 6:00:00 AM 12.68 54.824 0.192 6.42 5.47 0.59
10/24/2020 6:15:00 AM 12.66 54.788 0.193 6.43 5.45 0.54
10/24/2020 6:30:00 AM 12.66 54.788 0.193 6.43 6.02 0.55
10/24/2020 6:45:00 AM 12.62 54.716 0.192 6.41 6.28 0.7
10/24/2020 7:00:00 AM 12.6 54.68 0.192 6.41 6.07 0.71
10/24/2020 7:15:00 AM 12.56 54.608 0.192 6.41 6.31 0.78
10/24/2020 7:30:00 AM 12.56 54.608 0.19 6.4 5.78 0.86
10/24/2020 7:45:00 AM 12.55 54.59 0.188 6.39 5.76 0.94
10/24/2020 8:00:00 AM 12.51 54.518 0.187 6.38 4.14 1.11
10/24/2020 8:15:00 AM 12.5 54.5 0.186 6.37 4.11 1.23
10/24/2020 8:30:00 AM 12.46 54.428 0.186 6.36 4.15 1.34
10/24/2020 8:45:00 AM 12.42 54.356 0.186 6.36 3.97 1.32
10/24/2020 9:00:00 AM 12.41 54.338 0.188 6.36 4 1.23
10/24/2020 9:15:00 AM 12.41 54.338 0.186 6.37 4.2 1.34
10/24/2020 9:30:00 AM 12.39 54.302 0.186 6.37 3.86 1.42
10/24/2020 9:45:00 AM 12.37 54.266 0.186 6.37 4.38 1.43
10/24/2020 10:00:00 AM 12.36 54.248 0.185 6.37 4.38 1.59
10/24/2020 10:15:00 AM 12.35 54.23 0.186 6.38 3.97 1.53
10/24/2020 10:30:00 AM 12.35 54.23 0.186 6.38 4.22 1.52
10/24/2020 10:45:00 AM 12.35 54.23 0.186 6.39 3.91 1.6
10/24/2020 11:00:00 AM 12.38 54.284 0.186 6.4 5.33 1.63
10/24/2020 11:15:00 AM 12.36 54.248 0.185 6.42 4.46 1.96
10/24/2020 11:30:00 AM 12.37 54.266 0.185 6.42 4.26 1.9
10/24/2020 11:45:00 AM 12.39 54.302 0.186 6.44 4.79 2.13
10/24/2020 12:00:00 PM 12.43 54.374 0.187 6.45 4.55 2.01
10/24/2020 12:15:00 PM 12.44 54.392 0.188 6.46 5.44 2.09
10/24/2020 12:30:00 PM 12.43 54.374 0.188 6.46 4.75 2.21
10/24/2020 12:45:00 PM 12.44 54.392 0.188 6.47 5.02 2.4
10/24/2020 1:00:00 PM 12.5 54.5 0.188 6.48 5.45 2.37
10/24/2020 1:15:00 PM 12.52 54.536 0.188 6.49 5.21 2.32
10/24/2020 1:30:00 PM 12.51 54.518 0.188 6.49 5.24 2.41
10/24/2020 1:45:00 PM 12.52 54.536 0.188 6.49 5.62 2.44
10/24/2020 2:00:00 PM 12.53 54.554 0.188 6.5 5.02 2.5
10/24/2020 2:15:00 PM 12.55 54.59 0.188 6.5 5.2 2.55
10/24/2020 2:30:00 PM 12.6 54.68 0.188 6.51 5.16 2.59
10/24/2020 2:45:00 PM 12.63 54.734 0.188 6.51 5.16 2.65
10/24/2020 3:00:00 PM 12.64 54.752 0.188 6.51 5.19 2.69
10/24/2020 3:15:00 PM 12.65 54.77 0.188 6.51 5.17 2.69
10/24/2020 3:30:00 PM 12.65 54.77 0.188 6.51 4.88 2.69
10/24/2020 3:45:00 PM 12.59 54.662 0.188 6.5 4.99 2.73
10/24/2020 4:00:00 PM 12.56 54.608 0.187 6.5 4.43 2.85
10/24/2020 4:15:00 PM 12.53 54.554 0.188 6.49 4.75 2.82
10/24/2020 4:30:00 PM 12.5 54.5 0.187 6.49 4.42 2.82
10/24/2020 4:45:00 PM 12.46 54.428 0.187 6.49 5.31 2.85
10/24/2020 5:00:00 PM 12.43 54.374 0.187 6.48 4.68 2.87
10/24/2020 5:15:00 PM 12.38 54.284 0.187 6.48 4.43 2.84
10/24/2020 5:30:00 PM 12.32 54.176 0.187 6.47 4.55 2.72
10/24/2020 5:45:00 PM 12.27 54.086 0.187 6.45 3.9 2.5
10/24/2020 6:00:00 PM 12.23 54.014 0.187 6.46 4.25 2.61
10/24/2020 6:15:00 PM 12.15 53.87 0.186 6.45 3.84 2.65
10/24/2020 6:30:00 PM 12.1 53.78 0.186 6.44 4.84 2.63
10/24/2020 6:45:00 PM 12.05 53.69 0.186 6.44 3.97 2.47
10/24/2020 7:00:00 PM 11.98 53.564 0.186 6.42 4.03 2.64
10/24/2020 7:15:00 PM 11.94 53.492 0.186 6.42 3.95 2.4
10/24/2020 7:30:00 PM 11.88 53.384 0.185 6.44 5.08 2.65
10/24/2020 7:45:00 PM 11.81 53.258 0.185 6.41 3.71 2.45
10/24/2020 8:00:00 PM 11.76 53.168 0.185 6.4 4 2.51
10/24/2020 8:15:00 PM 11.69 53.042 0.185 6.41 4.2 2.71
10/24/2020 8:30:00 PM 11.61 52.898 0.184 6.36 3.44 2.34
10/24/2020 8:45:00 PM 11.54 52.772 0.183 6.36 3.15 2.33
10/24/2020 9:00:00 PM 11.48 52.664 0.183 6.35 2.93 2.34
10/24/2020 9:15:00 PM 11.45 52.61 0.184 6.39 3.69 2.61
10/24/2020 9:30:00 PM 11.41 52.538 0.186 6.46 4.57 3.02
10/24/2020 9:45:00 PM 11.36 52.448 0.187 6.49 4.56 3.13
10/24/2020 10:00:00 PM 11.3 52.34 0.187 6.49 4.68 3.15
10/24/2020 10:15:00 PM 11.21 52.178 0.187 6.49 5.08 3.13
10/24/2020 10:30:00 PM 11.15 52.07 0.187 6.49 5.75 3.04
10/24/2020 10:45:00 PM 11.09 51.962 0.187 6.49 4.56 3.07
10/24/2020 11:00:00 PM 11.03 51.854 0.187 6.49 4.66 3.03
10/24/2020 11:15:00 PM 10.94 51.692 0.186 6.49 4.6 3.07
10/24/2020 11:30:00 PM 10.9 51.62 0.187 6.49 4.73 3.03
10/24/2020 11:45:00 PM 10.82 51.476 0.187 6.49 4.66 3.05
10/25/2020 12:00:00 AM 10.76 51.368 0.187 6.48 4.66 3.07
10/25/2020 12:15:00 AM 10.68 51.224 0.187 6.49 4.76 3.12
10/25/2020 12:30:00 AM 10.62 51.116 0.186 6.48 4.73 3.13
10/25/2020 12:45:00 AM 10.54 50.972 0.186 6.48 4.47 3.17
10/25/2020 1:00:00 AM 10.51 50.918 0.186 6.48 4.49 3.12
10/25/2020 1:15:00 AM 10.44 50.792 0.186 6.49 4.55 3.26
10/25/2020 1:30:00 AM 10.38 50.684 0.186 6.48 4.49 3.24
10/25/2020 1:45:00 AM 10.31 50.558 0.186 6.49 4.49 3.31
10/25/2020 2:00:00 AM 10.24 50.432 0.186 6.48 4.43 3.36
10/25/2020 2:15:00 AM 10.18 50.324 0.186 6.49 4.45 3.37
10/25/2020 2:30:00 AM 10.1 50.18 0.186 6.49 4.48 3.38
10/25/2020 2:45:00 AM 10.02 50.036 0.186 6.51 4.37 3.4
10/25/2020 3:00:00 AM 9.98 49.964 0.186 6.5 4.5 3.42
10/25/2020 3:15:00 AM 9.95 49.91 0.186 6.49 4.42 3.4
10/25/2020 3:30:00 AM 9.88 49.784 0.186 6.51 4.29 3.44
10/25/2020 3:45:00 AM 9.82 49.676 0.186 6.52 4.42 3.42
10/25/2020 4:00:00 AM 9.75 49.55 0.186 6.52 4.26 3.49
10/25/2020 4:15:00 AM 9.69 49.442 0.186 6.51 4.4 3.52
10/25/2020 4:30:00 AM 9.64 49.352 0.186 6.51 4.28 3.42
10/25/2020 4:45:00 AM 9.57 49.226 0.186 6.52 4.25 3.46
10/25/2020 5:00:00 AM 9.53 49.154 0.186 6.51 4.28 3.52
10/25/2020 5:15:00 AM 9.51 49.118 0.186 6.52 4.4 3.55
10/25/2020 5:30:00 AM 9.47 49.046 0.186 6.51 4.42 3.7
10/25/2020 5:45:00 AM 9.42 48.956 0.185 6.51 4.47 3.6
10/25/2020 6:00:00 AM 9.37 48.866 0.185 6.52 4.29 3.47
10/25/2020 6:15:00 AM 9.31 48.758 0.185 6.51 4.13 3.5
10/25/2020 6:30:00 AM 9.28 48.704 0.185 6.52 4.21 3.43
10/25/2020 6:45:00 AM 9.24 48.632 0.185 6.52 4.24 3.44
10/25/2020 7:00:00 AM 9.22 48.596 0.185 6.51 4.26 3.52
10/25/2020 7:15:00 AM 9.21 48.578 0.185 6.51 4.6 3.49
10/25/2020 7:30:00 AM 9.18 48.524 0.185 6.51 4.25 3.5
10/25/2020 7:45:00 AM 9.16 48.488 0.185 6.51 4.26 3.5
10/25/2020 8:00:00 AM 9.11 48.398 0.185 6.51 4.22 3.55
10/25/2020 8:15:00 AM 9.06 48.308 0.186 6.51 4.25 3.66
10/25/2020 8:30:00 AM 8.98 48.164 0.185 6.5 4.22 3.76
10/25/2020 8:45:00 AM 8.96 48.128 0.185 6.51 4.3 3.8
10/25/2020 9:00:00 AM 8.94 48.092 0.185 6.51 4.25 3.85
10/25/2020 9:15:00 AM 8.94 48.092 0.185 6.51 4.33 3.79
10/25/2020 9:30:00 AM 8.96 48.128 0.185 6.51 4.22 3.9
10/25/2020 9:45:00 AM 8.96 48.128 0.185 6.5 4.22 4.02
10/25/2020 10:00:00 AM 8.97 48.146 0.185 6.5 4.17 4.05
10/25/2020 10:15:00 AM 8.98 48.164 0.185 6.5 4.12 4.08
10/25/2020 10:30:00 AM 9.01 48.218 0.185 6.5 4.21 3.97
10/25/2020 10:45:00 AM 9.03 48.254 0.185 6.5 4.31 3.84
10/25/2020 11:00:00 AM 9.06 48.308 0.185 6.5 4.22 3.8
10/25/2020 11:15:00 AM 9.09 48.362 0.185 6.5 4.39 3.8
10/25/2020 11:30:00 AM 9.13 48.434 0.185 6.5 4.17 3.86
10/25/2020 11:45:00 AM 9.18 48.524 0.185 6.5 4.29 3.82
10/25/2020 12:00:00 PM 9.24 48.632 0.185 6.51 4.53 3.82
10/25/2020 12:15:00 PM 9.29 48.722 0.185 6.5 4.94 3.82
10/25/2020 12:30:00 PM 9.35 48.83 0.185 6.51 4.91 3.97
10/25/2020 12:45:00 PM 9.43 48.974 0.185 6.51 4.22 4.14
10/25/2020 1:00:00 PM 9.52 49.136 0.184 6.52 4.43 4.25
10/25/2020 1:15:00 PM 9.67 49.406 0.185 6.52 4.3 4.3
10/25/2020 1:30:00 PM 9.82 49.676 0.184 6.51 4.51 4.21
10/25/2020 1:45:00 PM 9.97 49.946 0.185 6.52 4.14 4.16
10/25/2020 2:00:00 PM 10.15 50.27 0.185 6.52 3.88 3.93
10/25/2020 2:15:00 PM 10.26 50.468 0.185 6.52 3.88 4.14
10/25/2020 2:30:00 PM 10.43 50.774 0.185 6.51 3.67 4.05
10/25/2020 2:45:00 PM 10.62 51.116 0.185 6.5 3.79 3.91
10/25/2020 3:00:00 PM 10.69 51.242 0.185 6.52 3.86 4.07
10/25/2020 3:15:00 PM 10.69 51.242 0.185 6.52 3.91 4.24
10/25/2020 3:30:00 PM 10.76 51.368 0.185 6.51 3.79 4.17
10/25/2020 3:45:00 PM 10.83 51.494 0.185 6.51 3.89 3.92
10/25/2020 4:00:00 PM 10.88 51.584 0.185 6.51 3.85 4.02
10/25/2020 4:15:00 PM 10.9 51.62 0.185 6.5 4.04 4.01
10/25/2020 4:30:00 PM 10.93 51.674 0.185 6.5 4.03 3.85
10/25/2020 4:45:00 PM 10.96 51.728 0.185 6.5 4.4 3.84
10/25/2020 5:00:00 PM 10.93 51.674 0.185 6.49 3.9 3.9
10/25/2020 5:15:00 PM 10.97 51.746 0.185 6.5 3.96 3.85
10/25/2020 5:30:00 PM 10.96 51.728 0.185 6.49 4.14 4.06
10/25/2020 5:45:00 PM 10.95 51.71 0.185 6.5 4 4.05
10/25/2020 6:00:00 PM 10.96 51.728 0.185 6.5 4.09 3.96
10/25/2020 6:15:00 PM 10.97 51.746 0.184 6.51 4.26 4.39
10/25/2020 6:30:00 PM 10.95 51.71 0.185 6.51 4.78 4.32
10/25/2020 6:45:00 PM 10.94 51.692 0.185 6.52 4.29 4.34
10/25/2020 7:00:00 PM 10.92 51.656 0.186 6.51 4.23 4.19
10/25/2020 7:15:00 PM 10.9 51.62 0.186 6.51 4.4 4.07
10/25/2020 7:30:00 PM 10.87 51.566 0.185 6.5 4.14 4.14
10/25/2020 7:45:00 PM 10.86 51.548 0.187 6.5 4.34 3.68
10/25/2020 8:00:00 PM 10.83 51.494 0.187 6.51 4.09 3.76
10/25/2020 8:15:00 PM 10.81 51.458 0.186 6.51 4.03 3.86
10/25/2020 8:30:00 PM 10.79 51.422 0.186 6.5 3.98 3.84
10/25/2020 8:45:00 PM 10.78 51.404 0.186 6.5 4.06 3.84
10/25/2020 9:00:00 PM 10.74 51.332 0.185 6.5 4.14 4.05
10/25/2020 9:15:00 PM 10.72 51.296 0.186 6.49 4.06 3.86
10/25/2020 9:30:00 PM 10.68 51.224 0.185 6.49 3.92 3.83
10/25/2020 9:45:00 PM 10.62 51.116 0.184 6.49 4.02 4
10/25/2020 10:00:00 PM 10.59 51.062 0.185 6.49 4.3 3.95
10/25/2020 10:15:00 PM 10.56 51.008 0.185 6.49 4.17 3.97
10/25/2020 10:30:00 PM 10.55 50.99 0.185 6.49 4.18 3.94
10/25/2020 10:45:00 PM 10.52 50.936 0.185 6.49 4.17 3.86
10/25/2020 11:00:00 PM 10.5 50.9 0.185 6.49 4.29 3.91
10/25/2020 11:15:00 PM 10.49 50.882 0.185 6.49 4.2 3.85
10/25/2020 11:30:00 PM 10.49 50.882 0.185 6.49 4.18 3.83
10/25/2020 11:45:00 PM 10.49 50.882 0.186 6.49 4.28 3.73
10/26/2020 12:00:00 AM 10.44 50.792 0.186 6.51 3.89 3.58
10/26/2020 12:15:00 AM 10.38 50.684 0.185 6.52 3.83 3.61
10/26/2020 12:30:00 AM 10.31 50.558 0.184 6.52 3.73 3.66
10/26/2020 12:45:00 AM 10.23 50.414 0.184 6.52 3.48 3.64
10/26/2020 1:00:00 AM 10.16 50.288 0.184 6.52 3.52 3.69
10/26/2020 1:15:00 AM 10.09 50.162 0.183 6.52 3.58 3.71
10/26/2020 1:30:00 AM 10 50 0.183 6.54 3.48 3.83
10/26/2020 1:45:00 AM 9.93 49.874 0.182 6.54 3.52 3.91
10/26/2020 2:00:00 AM 9.87 49.766 0.182 6.56 3.43 4.01
10/26/2020 2:15:00 AM 9.81 49.658 0.181 6.57 3.61 4.08
10/26/2020 2:30:00 AM 9.76 49.568 0.181 6.57 3.27 4.16
10/26/2020 2:45:00 AM 9.74 49.532 0.181 6.58 3.34 4.14
10/26/2020 3:00:00 AM 9.71 49.478 0.182 6.58 3.26 4.16
10/26/2020 3:15:00 AM 9.68 49.424 0.182 6.58 3.21 4.16
10/26/2020 3:30:00 AM 9.67 49.406 0.182 6.58 3.24 4.14
10/26/2020 3:45:00 AM 9.67 49.406 0.183 6.58 3.43 4.08
10/26/2020 4:00:00 AM 9.66 49.388 0.183 6.58 3.53 4.12
10/26/2020 4:15:00 AM 9.67 49.406 0.184 6.58 3.31 4.06
10/26/2020 4:30:00 AM 9.64 49.352 0.184 6.57 3.28 4.08
10/26/2020 4:45:00 AM 9.62 49.316 0.185 6.58 3.42 4.13
10/26/2020 5:00:00 AM 9.61 49.298 0.186 6.58 3.4 4.19
10/26/2020 5:15:00 AM 9.6 49.28 0.187 6.59 3.55 4.2
10/26/2020 5:30:00 AM 9.59 49.262 0.188 6.59 3.66 4.23
10/26/2020 5:45:00 AM 9.58 49.244 0.189 6.59 3.4 4.23
10/26/2020 6:00:00 AM 9.59 49.262 0.19 6.59 3.63 4.21
10/26/2020 6:15:00 AM 9.58 49.244 0.19 6.59 3.6 4.22
10/26/2020 6:30:00 AM 9.58 49.244 0.191 6.59 3.34 4.25
10/26/2020 6:45:00 AM 9.58 49.244 0.192 6.6 3.31 4.31
10/26/2020 7:00:00 AM 9.57 49.226 0.193 6.6 3.48 4.32
10/26/2020 7:15:00 AM 9.57 49.226 0.195 6.61 3.15 4.36
10/26/2020 7:30:00 AM 9.56 49.208 0.195 6.61 3.05 4.39
10/26/2020 7:45:00 AM 9.56 49.208 0.195 6.61 3.19 4.37
10/26/2020 8:00:00 AM 9.57 49.226 0.196 6.62 3.5 4.36
10/26/2020 8:15:00 AM 9.56 49.208 0.195 6.62 3.4 4.33
10/26/2020 8:30:00 AM 9.57 49.226 0.197 6.62 3.24 4.35
10/26/2020 8:45:00 AM 9.57 49.226 0.198 6.62 3.17 4.31
10/26/2020 9:00:00 AM 9.58 49.244 0.195 6.61 3.61 4.21
10/26/2020 9:15:00 AM 9.59 49.262 0.195 6.61 3.98 4.25
10/26/2020 9:30:00 AM 9.59 49.262 0.195 6.61 3.37 4.33
10/26/2020 9:45:00 AM 9.59 49.262 0.194 6.61 3.42 4.29
10/26/2020 10:00:00 AM 9.6 49.28 0.195 6.6 3.56 4.24
10/26/2020 10:15:00 AM 9.61 49.298 0.193 6.61 3.55 4.16
10/26/2020 10:30:00 AM 9.62 49.316 0.197 6.6 3.71 4.07
10/26/2020 10:45:00 AM 9.64 49.352 0.195 6.6 3.49 4.09
10/26/2020 11:00:00 AM 9.65 49.37 0.192 6.59 3.66 3.94
10/26/2020 11:15:00 AM 9.68 49.424 0.194 6.59 3.58 3.93
10/26/2020 11:30:00 AM 9.71 49.478 0.196 6.6 3.46 4.05
10/26/2020 11:45:00 AM 9.73 49.514 0.197 6.61 3.5 4.1
10/26/2020 12:00:00 PM 9.76 49.568 0.199 6.62 3.57 4.13
10/26/2020 12:15:00 PM 9.78 49.604 0.199 6.62 3.56 4.16
10/26/2020 12:30:00 PM 9.81 49.658 0.199 6.62 3.33 4.18
10/26/2020 12:45:00 PM 9.84 49.712 0.2 6.63 3.5 4.26
10/26/2020 1:00:00 PM 9.88 49.784 0.201 6.62 3.37 4.34
10/26/2020 1:15:00 PM 9.9 49.82 0.199 6.63 3.35 4.33
10/26/2020 1:30:00 PM 9.93 49.874 0.199 6.62 3.26 4.31
10/26/2020 1:45:00 PM 9.94 49.892 0.199 6.63 3.54 4.27
10/26/2020 2:00:00 PM 9.97 49.946 0.2 6.63 3.41 4.28
10/26/2020 2:15:00 PM 9.98 49.964 0.199 6.64 3.36 4.19
10/26/2020 2:30:00 PM 10.03 50.054 0.199 6.63 3.46 4.21
10/26/2020 2:45:00 PM 10.05 50.09 0.2 6.64 3.5 4.26
10/26/2020 3:00:00 PM 10.07 50.126 0.2 6.63 3.57 4.25
10/26/2020 3:15:00 PM 10.09 50.162 0.199 6.63 3.36 4.23
10/26/2020 3:30:00 PM 10.11 50.198 0.199 6.63 3.42 4.22
10/26/2020 3:45:00 PM 10.15 50.27 0.199 6.63 3.41 4.23
10/26/2020 4:00:00 PM 10.17 50.306 0.2 6.63 3.31 4.14
10/26/2020 4:15:00 PM 10.17 50.306 0.199 6.63 3.44 4.1
10/26/2020 4:30:00 PM 10.19 50.342 0.199 6.62 3.5 4.06
10/26/2020 4:45:00 PM 10.21 50.378 0.199 6.63 3.43 4.01
10/26/2020 5:00:00 PM 10.23 50.414 0.199 6.62 3.66 4
10/26/2020 5:15:00 PM 10.23 50.414 0.199 6.62 3.43 3.96
10/26/2020 5:30:00 PM 10.25 50.45 0.199 6.62 3.46 3.96
10/26/2020 5:45:00 PM 10.25 50.45 0.199 6.62 3.52 3.92
10/26/2020 6:00:00 PM 10.26 50.468 0.199 6.62 3.38 3.83
10/26/2020 6:15:00 PM 10.3 50.54 0.199 6.62 3.54 3.87
10/26/2020 6:30:00 PM 10.29 50.522 0.199 6.61 3.71 3.81
10/26/2020 6:45:00 PM 10.3 50.54 0.199 6.61 3.4 3.69
10/26/2020 7:00:00 PM 10.31 50.558 0.2 6.61 3.97 3.61
10/26/2020 7:15:00 PM 10.34 50.612 0.199 6.61 3.72 3.53
10/26/2020 7:30:00 PM 10.35 50.63 0.199 6.61 3.73 3.46
10/26/2020 7:45:00 PM 10.36 50.648 0.199 6.61 3.61 3.41
10/26/2020 8:00:00 PM 10.37 50.666 0.199 6.61 3.48 3.33
10/26/2020 8:15:00 PM 10.36 50.648 0.2 6.61 3.55 3.31
10/26/2020 8:30:00 PM 10.39 50.702 0.199 6.61 3.49 3.24
10/26/2020 8:45:00 PM 10.39 50.702 0.199 6.6 3.82 3.22
10/26/2020 9:00:00 PM 10.41 50.738 0.199 6.6 3.51 3.26
10/26/2020 9:15:00 PM 10.42 50.756 0.199 6.6 3.76 3.32
10/26/2020 9:30:00 PM 10.42 50.756 0.2 6.61 3.88 3.32
10/26/2020 9:45:00 PM 10.43 50.774 0.2 6.61 3.52 3.29
10/26/2020 10:00:00 PM 10.43 50.774 0.201 6.61 3.53 3.32
10/26/2020 10:15:00 PM 10.44 50.792 0.2 6.61 3.38 3.37
10/26/2020 10:30:00 PM 10.44 50.792 0.201 6.61 3.44 3.56
10/26/2020 10:45:00 PM 10.44 50.792 0.201 6.6 3.47 3.31
10/26/2020 11:00:00 PM 10.43 50.774 0.201 6.61 3.57 3.5
10/26/2020 11:15:00 PM 10.43 50.774 0.201 6.61 4.64 3.37
10/26/2020 11:30:00 PM 10.43 50.774 0.2 6.6 3.43 3.3
10/26/2020 11:45:00 PM 10.43 50.774 0.2 6.6 3.4 3.23
10/27/2020 12:00:00 AM 10.42 50.756 0.202 6.61 3.56 3.25
10/27/2020 12:15:00 AM 10.41 50.738 0.201 6.62 3.09 3.43
10/27/2020 12:30:00 AM 10.39 50.702 0.2 6.62 3.1 3.58
10/27/2020 12:45:00 AM 10.37 50.666 0.2 6.62 2.92 3.72
10/27/2020 1:00:00 AM 10.37 50.666 0.2 6.61 3.03 3.62
10/27/2020 1:15:00 AM 10.35 50.63 0.2 6.61 2.91 3.69
10/27/2020 1:30:00 AM 10.33 50.594 0.199 6.61 2.91 3.64
10/27/2020 1:45:00 AM 10.32 50.576 0.199 6.6 3.08 3.6
10/27/2020 2:00:00 AM 10.3 50.54 0.197 6.59 3.16 3.62
10/27/2020 2:15:00 AM 10.29 50.522 0.196 6.59 3.19 3.57
10/27/2020 2:30:00 AM 10.28 50.504 0.199 6.59 3.1 3.62
10/27/2020 2:45:00 AM 10.26 50.468 0.197 6.59 3.1 3.54
10/27/2020 3:00:00 AM 10.25 50.45 0.197 6.59 3.2 3.5
10/27/2020 3:15:00 AM 10.23 50.414 0.197 6.58 3.23 3.52
10/27/2020 3:30:00 AM 10.22 50.396 0.197 6.57 3.24 3.5
10/27/2020 3:45:00 AM 10.21 50.378 0.197 6.58 3.15 3.51
10/27/2020 4:00:00 AM 10.19 50.342 0.198 6.58 3.16 3.47
10/27/2020 4:15:00 AM 10.18 50.324 0.198 6.58 3.3 3.58
10/27/2020 4:30:00 AM 10.15 50.27 0.196 6.58 3.28 3.5
10/27/2020 4:45:00 AM 10.14 50.252 0.196 6.57 3.28 3.53
10/27/2020 5:00:00 AM 10.13 50.234 0.198 6.58 3.12 3.48
10/27/2020 5:15:00 AM 10.12 50.216 0.196 6.58 3.37 3.42
10/27/2020 5:30:00 AM 10.12 50.216 0.196 6.56 3.34 3.3
10/27/2020 5:45:00 AM 10.09 50.162 0.196 6.56 3.3 3.41
10/27/2020 6:00:00 AM 10.07 50.126 0.196 6.56 3.2 3.39
10/27/2020 6:15:00 AM 10.06 50.108 0.196 6.56 3.29 3.48
10/27/2020 6:30:00 AM 10.03 50.054 0.196 6.56 3.41 3.41
10/27/2020 6:45:00 AM 10.03 50.054 0.196 6.54 3.35 3.44
10/27/2020 7:00:00 AM 10.01 50.018 0.197 6.56 3.28 3.46
10/27/2020 7:15:00 AM 10 50 0.196 6.57 3.35 3.45
10/27/2020 7:30:00 AM 9.99 49.982 0.197 6.56 3.37 3.42
10/27/2020 7:45:00 AM 9.98 49.964 0.198 6.56 3.32 3.43
10/27/2020 8:00:00 AM 9.96 49.928 0.197 6.56 3.47 3.33
10/27/2020 8:15:00 AM 9.95 49.91 0.197 6.55 3.56 3.31
10/27/2020 8:30:00 AM 9.93 49.874 0.196 6.56 3.49 3.38
10/27/2020 8:45:00 AM 9.93 49.874 0.198 6.56 3.34 3.36
10/27/2020 9:00:00 AM 9.93 49.874 0.197 6.56 3.4 3.32
10/27/2020 9:15:00 AM 9.93 49.874 0.198 6.57 3.38 3.33
10/27/2020 9:30:00 AM 9.94 49.892 0.198 6.57 3.55 3.3
10/27/2020 9:45:00 AM 9.96 49.928 0.196 6.55 3.37 3.22
10/27/2020 10:00:00 AM 9.96 49.928 0.197 6.54 3.79 3.3
10/27/2020 10:15:00 AM 9.99 49.982 0.197 6.54 3.85 3.16
10/27/2020 10:30:00 AM 10.01 50.018 0.196 6.54 3.85 3.18
10/27/2020 10:45:00 AM 10.02 50.036 0.196 6.54 4.35 3.17
10/27/2020 11:00:00 AM 10.05 50.09 0.196 6.54 3.78 3.12
10/27/2020 11:15:00 AM 10.08 50.144 0.196 6.54 3.85 3.15
10/27/2020 11:30:00 AM 10.12 50.216 0.196 6.54 4.2 3.16
10/27/2020 11:45:00 AM 10.15 50.27 0.195 6.54 3.68 3.28
10/27/2020 12:00:00 PM 10.19 50.342 0.195 6.54 3.49 3.35
10/27/2020 12:15:00 PM 10.23 50.414 0.195 6.53 3.53 3.42
10/27/2020 12:30:00 PM 10.28 50.504 0.195 6.53 3.32 3.71
10/27/2020 12:45:00 PM 10.3 50.54 0.195 6.54 3.28 3.73
10/27/2020 1:00:00 PM 10.34 50.612 0.193 6.53 3.44 3.84
10/27/2020 1:15:00 PM 10.41 50.738 0.194 6.54 3.4 4.02
10/27/2020 1:30:00 PM 10.52 50.936 0.194 6.53 3.05 3.95
10/27/2020 1:45:00 PM 10.59 51.062 0.193 6.54 3.12 4.18
10/27/2020 2:00:00 PM 10.61 51.098 0.194 6.54 3.15 4.18
10/27/2020 2:15:00 PM 10.65 51.17 0.193 6.54 3.1 4.17
10/27/2020 2:30:00 PM 10.67 51.206 0.193 6.55 3.17 4.23
10/27/2020 2:45:00 PM 10.71 51.278 0.194 6.56 3.31 4.31
10/27/2020 3:00:00 PM 10.73 51.314 0.194 6.56 3.23 4.39
10/27/2020 3:15:00 PM 10.75 51.35 0.195 6.55 3.22 4.37
10/27/2020 3:30:00 PM 10.76 51.368 0.195 6.56 3.25 4.43
10/27/2020 3:45:00 PM 10.78 51.404 0.194 6.56 3.61 4.4
10/27/2020 4:00:00 PM 10.79 51.422 0.194 6.56 3.43 4.39
10/27/2020 4:15:00 PM 10.8 51.44 0.195 6.55 3.37 4.34
10/27/2020 4:30:00 PM 10.81 51.458 0.194 6.56 3.54 4.45
10/27/2020 4:45:00 PM 10.81 51.458 0.195 6.56 3.46 4.36
10/27/2020 5:00:00 PM 10.82 51.476 0.195 6.56 3.66 4.26
10/27/2020 5:15:00 PM 10.82 51.476 0.195 6.56 3.57 4.1
10/27/2020 5:30:00 PM 10.82 51.476 0.196 6.56 3.43 4.18
10/27/2020 5:45:00 PM 10.81 51.458 0.194 6.54 3.47 4.14
10/27/2020 6:00:00 PM 10.79 51.422 0.193 6.55 3.45 4.31
10/27/2020 6:15:00 PM 10.77 51.386 0.193 6.54 3.38 4.39
10/27/2020 6:30:00 PM 10.75 51.35 0.193 6.54 3.27 4.31
10/27/2020 6:45:00 PM 10.73 51.314 0.193 6.53 3.42 4.31
10/27/2020 7:00:00 PM 10.7 51.26 0.193 6.54 3.49 4.37
10/27/2020 7:15:00 PM 10.68 51.224 0.193 6.53 3.48 4.32
10/27/2020 7:30:00 PM 10.65 51.17 0.193 6.53 3.45 4.21
10/27/2020 7:45:00 PM 10.64 51.152 0.193 6.53 3.57 4.18
10/27/2020 8:00:00 PM 10.62 51.116 0.193 6.53 3.45 4.18
10/27/2020 8:15:00 PM 10.61 51.098 0.193 6.54 3.24 4.16
10/27/2020 8:30:00 PM 10.61 51.098 0.196 6.56 3.11 4.09
10/27/2020 8:45:00 PM 10.6 51.08 0.196 6.57 3.09 4.1
10/27/2020 9:00:00 PM 10.58 51.044 0.195 6.55 3.27 3.96
10/27/2020 9:15:00 PM 10.55 50.99 0.196 6.55 2.98 3.82
10/27/2020 9:30:00 PM 10.51 50.918 0.194 6.55 3.13 3.94
10/27/2020 9:45:00 PM 10.49 50.882 0.194 6.54 3.13 3.91
10/27/2020 10:00:00 PM 10.48 50.864 0.196 6.54 3.06 3.74
10/27/2020 10:15:00 PM 10.47 50.846 0.197 6.54 2.77 3.53
10/27/2020 10:30:00 PM 10.45 50.81 0.196 6.55 3.02 3.52
10/27/2020 10:45:00 PM 10.43 50.774 0.196 6.55 2.69 3.51
10/27/2020 11:00:00 PM 10.41 50.738 0.196 6.55 2.7 3.51
10/27/2020 11:15:00 PM 10.39 50.702 0.196 6.55 2.74 3.49
10/27/2020 11:30:00 PM 10.37 50.666 0.197 6.55 2.77 3.48
10/27/2020 11:45:00 PM 10.36 50.648 0.197 6.55 2.64 3.48
10/28/2020 12:00:00 AM 10.33 50.594 0.197 6.55 2.52 3.44
10/28/2020 12:15:00 AM 10.31 50.558 0.196 6.56 2.7 3.46
10/28/2020 12:30:00 AM 10.29 50.522 0.196 6.55 2.84 3.47
10/28/2020 12:45:00 AM 10.27 50.486 0.196 6.55 2.96 3.47
10/28/2020 1:00:00 AM 10.25 50.45 0.196 6.56 2.79 3.41
10/28/2020 1:15:00 AM 10.23 50.414 0.196 6.56 3.05 3.41
10/28/2020 1:30:00 AM 10.21 50.378 0.196 6.55 2.82 3.4
10/28/2020 1:45:00 AM 10.2 50.36 0.195 6.55 3.05 3.44
10/28/2020 2:00:00 AM 10.18 50.324 0.196 6.55 2.98 3.42
10/28/2020 2:15:00 AM 10.16 50.288 0.196 6.55 2.58 3.44
10/28/2020 2:30:00 AM 10.15 50.27 0.196 6.54 2.64 3.43
10/28/2020 2:45:00 AM 10.14 50.252 0.197 6.55 2.57 3.41
10/28/2020 3:00:00 AM 10.12 50.216 0.196 6.53 3.21 3.5
10/28/2020 3:15:00 AM 10.1 50.18 0.196 6.55 3.1 3.58
10/28/2020 3:30:00 AM 10.09 50.162 0.195 6.55 3.31 3.66
10/28/2020 3:45:00 AM 10.07 50.126 0.194 6.54 3.29 3.7
10/28/2020 4:00:00 AM 10.05 50.09 0.194 6.54 3.37 3.72
10/28/2020 4:15:00 AM 10.03 50.054 0.195 6.54 3.36 3.71
10/28/2020 4:30:00 AM 10.01 50.018 0.195 6.54 3.23 3.74
10/28/2020 4:45:00 AM 9.99 49.982 0.194 6.54 3.34 3.75
10/28/2020 5:00:00 AM 9.97 49.946 0.194 6.54 3.24 3.71
10/28/2020 5:15:00 AM 9.96 49.928 0.193 6.54 3.28 3.73
10/28/2020 5:30:00 AM 9.94 49.892 0.194 6.53 3.3 3.74
10/28/2020 5:45:00 AM 9.93 49.874 0.193 6.53 3.44 3.74
10/28/2020 6:00:00 AM 9.92 49.856 0.192 6.53 3.56 3.76
10/28/2020 6:15:00 AM 9.9 49.82 0.191 6.52 3.62 3.88
10/28/2020 6:30:00 AM 9.89 49.802 0.192 6.52 3.66 3.88
10/28/2020 6:45:00 AM 9.87 49.766 0.191 6.52 3.34 3.85
10/28/2020 7:00:00 AM 9.84 49.712 0.191 6.53 3.61 4.03
10/28/2020 7:15:00 AM 9.83 49.694 0.191 6.53 3.53 4.13
10/28/2020 7:30:00 AM 9.82 49.676 0.191 6.53 3.45 4.08
10/28/2020 7:45:00 AM 9.81 49.658 0.192 6.53 3.43 4.02
10/28/2020 8:00:00 AM 9.8 49.64 0.192 6.53 3.24 3.97
10/28/2020 8:15:00 AM 9.79 49.622 0.192 6.54 3.53 3.93
10/28/2020 8:30:00 AM 9.77 49.586 0.192 6.55 3.35 3.96
10/28/2020 8:45:00 AM 9.75 49.55 0.192 6.54 3.39 3.97
10/28/2020 9:00:00 AM 9.75 49.55 0.192 6.55 3.39 3.96
10/28/2020 9:15:00 AM 9.75 49.55 0.191 6.54 3.46 3.96
10/28/2020 9:30:00 AM 9.76 49.568 0.19 6.54 3.59 3.94
10/28/2020 9:45:00 AM 9.77 49.586 0.189 6.53 3.96 3.92
10/28/2020 10:00:00 AM 9.78 49.604 0.189 6.52 3.63 3.92
10/28/2020 10:15:00 AM 9.78 49.604 0.189 6.52 3.68 3.91
10/28/2020 10:30:00 AM 9.79 49.622 0.189 6.52 4.03 3.91
10/28/2020 10:45:00 AM 9.79 49.622 0.19 6.52 3.79 3.91
10/28/2020 11:00:00 AM 9.81 49.658 0.189 6.52 3.8 3.88
10/28/2020 11:15:00 AM 9.82 49.676 0.19 6.52 3.75 3.86
10/28/2020 11:30:00 AM 9.84 49.712 0.19 6.52 3.69 3.86
10/28/2020 11:45:00 AM 9.87 49.766 0.19 6.52 3.9 3.84
10/28/2020 12:00:00 PM 9.92 49.856 0.19 6.51 4.28 3.82
10/28/2020 12:15:00 PM 9.96 49.928 0.19 6.52 3.55 3.79
10/28/2020 12:30:00 PM 10.03 50.054 0.19 6.51 3.56 3.77
10/28/2020 12:45:00 PM 10.07 50.126 0.19 6.51 3.65 3.8
10/28/2020 1:00:00 PM 10.1 50.18 0.19 6.51 3.7 3.82
10/28/2020 1:15:00 PM 10.13 50.234 0.19 6.52 3.62 3.99
10/28/2020 1:30:00 PM 10.16 50.288 0.19 6.51 3.62 4.04
10/28/2020 1:45:00 PM 10.19 50.342 0.19 6.51 3.35 3.97
10/28/2020 2:00:00 PM 10.26 50.468 0.189 6.51 3.18 3.93
10/28/2020 2:15:00 PM 10.34 50.612 0.189 6.5 3.3 3.95
10/28/2020 2:30:00 PM 10.38 50.684 0.189 6.5 3.25 3.99
10/28/2020 2:45:00 PM 10.43 50.774 0.19 6.51 3.13 4.05
10/28/2020 3:00:00 PM 10.51 50.918 0.189 6.5 3.16 3.98
10/28/2020 3:15:00 PM 10.5 50.9 0.19 6.5 3.26 4.01
10/28/2020 3:30:00 PM 10.53 50.954 0.19 6.52 3.24 4.09
10/28/2020 3:45:00 PM 10.58 51.044 0.19 6.52 3.18 4.17
10/28/2020 4:00:00 PM 10.62 51.116 0.19 6.51 3.18 4.15
10/28/2020 4:15:00 PM 10.67 51.206 0.19 6.51 3.1 4.11
10/28/2020 4:30:00 PM 10.67 51.206 0.191 6.52 3.2 4.22
10/28/2020 4:45:00 PM 10.69 51.242 0.19 6.51 3.24 4.18
10/28/2020 5:00:00 PM 10.73 51.314 0.19 6.51 3.24 4.15
10/28/2020 5:15:00 PM 10.74 51.332 0.191 6.52 3.17 4.19
10/28/2020 5:30:00 PM 10.74 51.332 0.19 6.52 3.22 4.19
10/28/2020 5:45:00 PM 10.76 51.368 0.191 6.52 3.2 4.13
10/28/2020 6:00:00 PM 10.76 51.368 0.191 6.52 3.2 4.22
10/28/2020 6:15:00 PM 10.75 51.35 0.191 6.52 3.4 4.23
10/28/2020 6:30:00 PM 10.75 51.35 0.192 6.52 3.48 4.37
10/28/2020 6:45:00 PM 10.74 51.332 0.192 6.53 3.52 4.35
10/28/2020 7:00:00 PM 10.72 51.296 0.195 6.53 3.55 4.03
10/28/2020 7:15:00 PM 10.7 51.26 0.196 6.54 3.56 3.74
10/28/2020 7:30:00 PM 10.6 51.08 0.19 6.51 3.15 4.29
10/28/2020 7:45:00 PM 10.55 50.99 0.19 6.5 3.09 4.41
10/28/2020 8:00:00 PM 10.52 50.936 0.19 6.49 3.08 4.34
10/28/2020 8:15:00 PM 10.48 50.864 0.191 6.5 2.99 4.32
10/28/2020 8:30:00 PM 10.42 50.756 0.192 6.53 3.01 4.34
10/28/2020 8:45:00 PM 10.37 50.666 0.192 6.54 2.98 4.34
10/28/2020 9:00:00 PM 10.31 50.558 0.191 6.52 3.08 4.36
10/28/2020 9:15:00 PM 10.26 50.468 0.192 6.53 3.14 4.3
10/28/2020 9:30:00 PM 10.21 50.378 0.192 6.5 2.82 4.09
10/28/2020 9:45:00 PM 10.16 50.288 0.192 6.52 2.76 4.08
10/28/2020 10:00:00 PM 10.1 50.18 0.192 6.53 3.01 4.26
10/28/2020 10:15:00 PM 10.07 50.126 0.192 6.52 2.83 4.16
10/28/2020 10:30:00 PM 10.04 50.072 0.192 6.53 2.8 4.17
10/28/2020 10:45:00 PM 9.99 49.982 0.192 6.54 2.88 4.22
10/28/2020 11:00:00 PM 9.95 49.91 0.192 6.55 2.87 4.27
10/28/2020 11:15:00 PM 9.92 49.856 0.192 6.54 2.91 4.25
10/28/2020 11:30:00 PM 9.9 49.82 0.192 6.53 2.67 4.1
10/28/2020 11:45:00 PM 9.87 49.766 0.192 6.54 2.74 4.06
10/29/2020 12:00:00 AM 9.81 49.658 0.191 6.55 2.95 4.22
10/29/2020 12:15:00 AM 9.78 49.604 0.191 6.54 2.86 4.24
10/29/2020 12:30:00 AM 9.74 49.532 0.192 6.54 2.85 4.2
10/29/2020 12:45:00 AM 9.72 49.496 0.191 6.54 2.91 4.18
10/29/2020 1:00:00 AM 9.69 49.442 0.191 6.53 2.96 4.25
10/29/2020 1:15:00 AM 9.64 49.352 0.191 6.53 2.86 4.25
10/29/2020 1:30:00 AM 9.59 49.262 0.191 6.52 2.95 4.22
10/29/2020 1:45:00 AM 9.55 49.19 0.191 6.53 2.9 4.23
10/29/2020 2:00:00 AM 9.52 49.136 0.191 6.53 2.72 4.14
10/29/2020 2:15:00 AM 9.5 49.1 0.191 6.54 2.78 4.1
10/29/2020 2:30:00 AM 9.47 49.046 0.191 6.54 2.81 4.06
10/29/2020 2:45:00 AM 9.44 48.992 0.191 6.52 2.83 4.05
10/29/2020 3:00:00 AM 9.41 48.938 0.191 6.52 3.03 4.07
10/29/2020 3:15:00 AM 9.38 48.884 0.192 6.52 2.78 4.02
10/29/2020 3:30:00 AM 9.36 48.848 0.191 6.53 2.79 4.03
10/29/2020 3:45:00 AM 9.35 48.83 0.192 6.53 2.75 3.99
10/29/2020 4:00:00 AM 9.34 48.812 0.191 6.53 2.76 3.96
10/29/2020 4:15:00 AM 9.31 48.758 0.191 6.54 2.9 3.96
10/29/2020 4:30:00 AM 9.26 48.668 0.191 6.52 2.87 4.11
10/29/2020 4:45:00 AM 9.25 48.65 0.19 6.51 2.84 4.19
10/29/2020 5:00:00 AM 9.25 48.65 0.19 6.51 3.02 4.19
10/29/2020 5:15:00 AM 9.22 48.596 0.19 6.52 2.99 4.17
10/29/2020 5:30:00 AM 9.22 48.596 0.19 6.51 3.09 4.17
10/29/2020 5:45:00 AM 9.2 48.56 0.19 6.51 3.12 4.14
10/29/2020 6:00:00 AM 9.18 48.524 0.19 6.51 3.03 4.17
10/29/2020 6:15:00 AM 9.17 48.506 0.19 6.51 3.1 4.11
10/29/2020 6:30:00 AM 9.16 48.488 0.19 6.51 3.04 4.08
10/29/2020 6:45:00 AM 9.14 48.452 0.191 6.51 3.02 4.02
10/29/2020 7:00:00 AM 9.12 48.416 0.191 6.52 2.9 4
10/29/2020 7:15:00 AM 9.1 48.38 0.191 6.52 3.23 4.02
10/29/2020 7:30:00 AM 9.09 48.362 0.191 6.52 3.05 4.06
10/29/2020 7:45:00 AM 9.09 48.362 0.19 6.51 3.09 4.12
10/29/2020 8:00:00 AM 9.09 48.362 0.19 6.51 3.13 4.09
10/29/2020 8:15:00 AM 9.08 48.344 0.19 6.51 3.21 4.01
10/29/2020 8:30:00 AM 9.06 48.308 0.191 6.51 3.13 3.94
10/29/2020 8:45:00 AM 9.07 48.326 0.191 6.5 3.12 3.85
10/29/2020 9:00:00 AM 9.07 48.326 0.19 6.5 3.2 3.92
10/29/2020 9:15:00 AM 9.07 48.326 0.19 6.5 3.09 3.91
10/29/2020 9:30:00 AM 9.08 48.344 0.19 6.5 3.2 3.92
10/29/2020 9:45:00 AM 9.08 48.344 0.19 6.5 3.18 3.94
10/29/2020 10:00:00 AM 9.09 48.362 0.189 6.5 3.22 4.04
10/29/2020 10:15:00 AM 9.1 48.38 0.189 6.5 3.22 4.01
10/29/2020 10:30:00 AM 9.1 48.38 0.189 6.5 3.19 4.02
10/29/2020 10:45:00 AM 9.12 48.416 0.189 6.5 3.23 3.99
10/29/2020 11:00:00 AM 9.12 48.416 0.189 6.49 3.34 3.95
10/29/2020 11:15:00 AM 9.13 48.434 0.189 6.49 3.78 3.96
10/29/2020 11:30:00 AM 9.14 48.452 0.189 6.5 3.39 4
10/29/2020 11:45:00 AM 9.16 48.488 0.188 6.5 3.31 4.07
10/29/2020 12:00:00 PM 9.16 48.488 0.187 6.49 3.17 4.29
10/29/2020 12:15:00 PM 9.17 48.506 0.187 6.5 3.16 4.35
10/29/2020 12:30:00 PM 9.18 48.524 0.185 6.49 2.99 4.55
10/29/2020 12:45:00 PM 9.18 48.524 0.183 6.51 3.15 4.89
10/29/2020 1:00:00 PM 9.19 48.542 0.182 6.52 2.98 5.08
10/29/2020 1:15:00 PM 9.21 48.578 0.183 6.53 3.19 5.03
10/29/2020 1:30:00 PM 9.22 48.596 0.183 6.53 3.26 5.17
10/29/2020 1:45:00 PM 9.21 48.578 0.181 6.53 3.17 5.35
10/29/2020 2:00:00 PM 9.21 48.578 0.18 6.54 3.14 5.58
10/29/2020 2:15:00 PM 9.24 48.632 0.18 6.54 3.24 5.48
10/29/2020 2:30:00 PM 9.24 48.632 0.18 6.54 2.99 5.56
10/29/2020 2:45:00 PM 9.26 48.668 0.18 6.55 3.05 5.64
10/29/2020 3:00:00 PM 9.26 48.668 0.179 6.55 3.38 5.69
10/29/2020 3:15:00 PM 9.21 48.578 0.178 6.56 3.04 5.97
10/29/2020 3:30:00 PM 9.2 48.56 0.177 6.57 2.88 6.02
10/29/2020 3:45:00 PM 9.16 48.488 0.177 6.58 3.16 6.21
10/29/2020 4:00:00 PM 9.09 48.362 0.176 6.6 3.04 6.41
10/29/2020 4:15:00 PM 9.03 48.254 0.173 6.6 3.53 6.6
10/29/2020 4:30:00 PM 8.78 47.804 0.172 6.63 3.63 7.02
10/29/2020 4:45:00 PM 8.53 47.354 0.173 6.65 3.59 7.34
10/29/2020 5:00:00 PM 8.5 47.3 0.178 6.64 3.77 7.18
10/29/2020 5:15:00 PM 8.51 47.318 0.19 6.69 4.35 7.42
10/29/2020 5:30:00 PM 8.33 46.994 0.214 6.86 6.98 8.56
10/29/2020 5:45:00 PM 8.23 46.814 0.226 7.06 4.52 9.52
10/29/2020 6:00:00 PM 8.18 46.724 0.229 7.21 5.17 9.97
10/29/2020 6:15:00 PM 8.16 46.688 0.23 7.29 5.54 10.16
10/29/2020 6:30:00 PM 8.15 46.67 0.231 7.33 6.21 10.24
10/29/2020 6:45:00 PM 8.17 46.706 0.23 7.35 5.91 10.25
10/29/2020 7:00:00 PM 8.19 46.742 0.23 7.35 6.79 10.22
10/29/2020 7:15:00 PM 8.18 46.724 0.23 7.39 6.72 10.32
10/29/2020 7:30:00 PM 8.18 46.724 0.229 7.4 7.14 10.33
10/29/2020 7:45:00 PM 8.19 46.742 0.229 7.41 6.88 10.32
10/29/2020 8:00:00 PM 8.2 46.76 0.228 7.41 6.81 10.31
10/29/2020 8:15:00 PM 8.21 46.778 0.227 7.4 7.55 10.32
10/29/2020 8:30:00 PM 8.21 46.778 0.225 7.41 7.25 10.32
10/29/2020 8:45:00 PM 8.23 46.814 0.222 7.4 6.73 10.3
10/29/2020 9:00:00 PM 8.24 46.832 0.218 7.39 7.39 10.29
10/29/2020 9:15:00 PM 8.24 46.832 0.214 7.37 7.5 10.29
10/29/2020 9:30:00 PM 8.24 46.832 0.21 7.35 7.57 10.29
10/29/2020 9:45:00 PM 8.23 46.814 0.207 7.35 7.1 10.31
10/29/2020 10:00:00 PM 8.23 46.814 0.204 7.35 7.64 10.3
10/29/2020 10:15:00 PM 8.22 46.796 0.202 7.32 7.02 10.27
10/29/2020 10:30:00 PM 8.22 46.796 0.201 7.31 7.62 10.26
10/29/2020 10:45:00 PM 8.2 46.76 0.2 7.31 7.4 10.31
10/29/2020 11:00:00 PM 8.19 46.742 0.2 7.3 6.94 10.28
10/29/2020 11:15:00 PM 8.17 46.706 0.2 7.32 6.88 10.32
10/29/2020 11:30:00 PM 8.18 46.724 0.2 7.3 6.49 10.27
10/29/2020 11:45:00 PM 8.14 46.652 0.2 7.32 6.57 10.34
10/30/2020 12:00:00 AM 8.14 46.652 0.2 7.31 6.25 10.31
10/30/2020 12:15:00 AM 8.11 46.598 0.201 7.32 6.44 10.36
10/30/2020 12:30:00 AM 8.09 46.562 0.201 7.32 6.28 10.36
10/30/2020 12:45:00 AM 8.09 46.562 0.202 7.31 5.91 10.35
10/30/2020 1:00:00 AM 8.07 46.526 0.203 7.31 5.7 10.36
10/30/2020 1:15:00 AM 8.05 46.49 0.203 7.32 6.35 10.4
10/30/2020 1:30:00 AM 8.03 46.454 0.204 7.33 6.21 10.41
10/30/2020 1:45:00 AM 8.02 46.436 0.205 7.32 6.47 10.41
10/30/2020 2:00:00 AM 8.01 46.418 0.205 7.33 6.76 10.4
10/30/2020 2:15:00 AM 8 46.4 0.206 7.32 6.98 10.4
10/30/2020 2:30:00 AM 7.99 46.382 0.206 7.32 6.64 10.4
10/30/2020 2:45:00 AM 7.97 46.346 0.206 7.33 7.29 10.44
10/30/2020 3:00:00 AM 7.95 46.31 0.205 7.33 7.25 10.45
10/30/2020 3:15:00 AM 7.93 46.274 0.205 7.34 7.45 10.46
10/30/2020 3:30:00 AM 7.91 46.238 0.205 7.33 7.94 10.49
10/30/2020 3:45:00 AM 7.88 46.184 0.205 7.34 7.24 10.51
10/30/2020 4:00:00 AM 7.86 46.148 0.205 7.34 6.73 10.5
10/30/2020 4:15:00 AM 7.83 46.094 0.205 7.34 6.61 10.53
10/30/2020 4:30:00 AM 7.79 46.022 0.205 7.33 5.9 10.54
10/30/2020 4:45:00 AM 7.76 45.968 0.205 7.35 6.38 10.55
10/30/2020 5:00:00 AM 7.73 45.914 0.206 7.34 6.56 10.57
10/30/2020 5:15:00 AM 7.69 45.842 0.206 7.34 7.33 10.58
10/30/2020 5:30:00 AM 7.64 45.752 0.207 7.35 6.6 10.6
10/30/2020 5:45:00 AM 7.59 45.662 0.207 7.34 6.73 10.61
10/30/2020 6:00:00 AM 7.56 45.608 0.208 7.34 6.22 10.61
10/30/2020 6:15:00 AM 7.54 45.572 0.208 7.34 6.87 10.64
10/30/2020 6:30:00 AM 7.53 45.554 0.209 7.34 6.66 10.64
10/30/2020 6:45:00 AM 7.52 45.536 0.21 7.34 6.75 10.65
10/30/2020 7:00:00 AM 7.51 45.518 0.211 7.32 6.7 10.65
10/30/2020 7:15:00 AM 7.5 45.5 0.211 7.32 6.58 10.65
10/30/2020 7:30:00 AM 7.5 45.5 0.212 7.32 6.82 10.65
10/30/2020 7:45:00 AM 7.48 45.464 0.213 7.33 6.3 10.67
10/30/2020 8:00:00 AM 7.47 45.446 0.213 7.33 6.54 10.68
10/30/2020 8:15:00 AM 7.47 45.446 0.214 7.33 6.82 10.7
10/30/2020 8:30:00 AM 7.47 45.446 0.214 7.33 6.1 10.7
10/30/2020 8:45:00 AM 7.46 45.428 0.214 7.33 6.18 10.72
10/30/2020 9:00:00 AM 7.46 45.428 0.213 7.32 6.37 10.71
10/30/2020 9:15:00 AM 7.46 45.428 0.213 7.32 6.27 10.74
10/30/2020 9:30:00 AM 7.46 45.428 0.212 7.33 6.44 10.75
10/30/2020 9:45:00 AM 7.46 45.428 0.21 7.32 6.21 10.74
10/30/2020 10:00:00 AM 7.46 45.428 0.209 7.32 6.17 10.77
10/30/2020 10:15:00 AM 7.47 45.446 0.207 7.32 5.92 10.78
10/30/2020 10:30:00 AM 7.48 45.464 0.205 7.33 5.52 10.8
10/30/2020 10:45:00 AM 7.51 45.518 0.203 7.33 5.74 10.83
10/30/2020 11:00:00 AM 7.51 45.518 0.201 7.33 5.65 10.84
10/30/2020 11:15:00 AM 7.52 45.536 0.199 7.33 5.42 10.85
10/30/2020 11:30:00 AM 7.53 45.554 0.198 7.32 5.75 10.86
10/30/2020 11:45:00 AM 7.53 45.554 0.196 7.33 5.31 10.9
10/30/2020 12:00:00 PM 7.53 45.554 0.194 7.33 6.3 10.92
10/30/2020 12:15:00 PM 7.54 45.572 0.193 7.32 6.25 10.93
10/30/2020 12:30:00 PM 7.57 45.626 0.191 7.31 6.29 10.94
10/30/2020 12:45:00 PM 7.61 45.698 0.19 7.31 5.8 10.95
10/30/2020 1:00:00 PM 7.7 45.86 0.189 7.32 5.59 11
10/30/2020 1:15:00 PM 7.83 46.094 0.189 7.34 5.94 10.99
10/30/2020 1:30:00 PM 7.83 46.094 0.188 7.33 5.81 11.01
10/30/2020 1:45:00 PM 7.82 46.076 0.188 7.34 5.81 11.02
10/30/2020 2:00:00 PM 7.94 46.292 0.188 7.35 5.57 11.05
10/30/2020 2:15:00 PM 8.04 46.472 0.188 7.36 5.69 11.04
10/30/2020 2:30:00 PM 8.06 46.508 0.189 7.36 5.53 11.04
10/30/2020 2:45:00 PM 8.09 46.562 0.189 7.36 6.03 11.03
10/30/2020 3:00:00 PM 8.14 46.652 0.189 7.37 5.7 11.02
10/30/2020 3:15:00 PM 8.11 46.598 0.19 7.37 5.51 11
10/30/2020 3:30:00 PM 8.09 46.562 0.19 7.36 5.53 10.99
10/30/2020 3:45:00 PM 8.1 46.58 0.191 7.37 5.23 10.98
10/30/2020 4:00:00 PM 8.08 46.544 0.191 7.37 5.37 10.97
10/30/2020 4:15:00 PM 8.04 46.472 0.191 7.36 5.32 10.96
10/30/2020 4:30:00 PM 7.99 46.382 0.192 7.36 5.43 10.94
10/30/2020 4:45:00 PM 7.93 46.274 0.192 7.36 5.23 10.95
10/30/2020 5:00:00 PM 7.86 46.148 0.192 7.35 5.16 10.93
10/30/2020 5:15:00 PM 7.8 46.04 0.192 7.35 5.04 10.93
10/30/2020 5:30:00 PM 7.72 45.896 0.193 7.35 4.98 10.94
10/30/2020 5:45:00 PM 7.64 45.752 0.193 7.35 4.83 10.94
10/30/2020 6:00:00 PM 7.56 45.608 0.193 7.35 4.78 10.96
10/30/2020 6:15:00 PM 7.49 45.482 0.193 7.34 4.67 10.95
10/30/2020 6:30:00 PM 7.41 45.338 0.193 7.33 4.86 10.94
10/30/2020 6:45:00 PM 7.32 45.176 0.193 7.32 4.8 10.96
10/30/2020 7:00:00 PM 7.26 45.068 0.193 7.32 4.79 10.96
10/30/2020 7:15:00 PM 7.2 44.96 0.193 7.32 4.92 10.97
10/30/2020 7:30:00 PM 7.13 44.834 0.194 7.31 4.6 10.97
10/30/2020 7:45:00 PM 7.07 44.726 0.194 7.31 4.77 10.99
10/30/2020 8:00:00 PM 7.03 44.654 0.195 7.31 4.84 11
10/30/2020 8:15:00 PM 6.99 44.582 0.195 7.3 5.02 11.02
10/30/2020 8:30:00 PM 6.94 44.492 0.196 7.3 4.92 11.02
10/30/2020 8:45:00 PM 6.89 44.402 0.197 7.31 4.85 11.03
10/30/2020 9:00:00 PM 6.85 44.33 0.198 7.3 4.6 11.04
10/30/2020 9:15:00 PM 6.81 44.258 0.199 7.31 4.76 11.06
10/30/2020 9:30:00 PM 6.78 44.204 0.199 7.3 4.67 11.06
10/30/2020 9:45:00 PM 6.74 44.132 0.2 7.31 4.57 11.08
10/30/2020 10:00:00 PM 6.72 44.096 0.201 7.31 4.67 11.08
10/30/2020 10:15:00 PM 6.69 44.042 0.202 7.31 4.71 11.08
10/30/2020 10:30:00 PM 6.67 44.006 0.203 7.31 4.68 11.1
10/30/2020 10:45:00 PM 6.65 43.97 0.204 7.3 4.41 11.11
10/30/2020 11:00:00 PM 6.63 43.934 0.205 7.31 4.47 11.12
10/30/2020 11:15:00 PM 6.61 43.898 0.206 7.31 4.45 11.12
10/30/2020 11:30:00 PM 6.6 43.88 0.207 7.31 4.34 11.13
10/30/2020 11:45:00 PM 6.59 43.862 0.207 7.31 4.56 11.12
10/31/2020 12:00:00 AM 6.57 43.826 0.208 7.31 4.31 11.13
10/31/2020 12:15:00 AM 6.55 43.79 0.209 7.31 4.27 11.13
10/31/2020 12:30:00 AM 6.53 43.754 0.21 7.32 4.58 11.14
10/31/2020 12:45:00 AM 6.51 43.718 0.21 7.32 4.56 11.15
10/31/2020 1:00:00 AM 6.49 43.682 0.211 7.31 4.27 11.14
10/31/2020 1:15:00 AM 6.46 43.628 0.212 7.31 4.43 11.15
10/31/2020 1:30:00 AM 6.42 43.556 0.212 7.32 4.45 11.16
10/31/2020 1:45:00 AM 6.39 43.502 0.213 7.32 4.37 11.17
10/31/2020 2:00:00 AM 6.37 43.466 0.213 7.32 4.31 11.16
10/31/2020 2:15:00 AM 6.35 43.43 0.214 7.31 4.35 11.17
10/31/2020 2:30:00 AM 6.34 43.412 0.214 7.31 4.16 11.18
10/31/2020 2:45:00 AM 6.32 43.376 0.214 7.31 4.22 11.19
10/31/2020 3:00:00 AM 6.31 43.358 0.215 7.31 4.6 11.2
10/31/2020 3:15:00 AM 6.3 43.34 0.215 7.31 4.21 11.2
10/31/2020 3:30:00 AM 6.29 43.322 0.215 7.31 4.18 11.18
10/31/2020 3:45:00 AM 6.28 43.304 0.215 7.31 4.04 11.17
10/31/2020 4:00:00 AM 6.27 43.286 0.215 7.3 4.03 11.17
10/31/2020 4:15:00 AM 6.25 43.25 0.215 7.3 4.01 11.19
10/31/2020 4:30:00 AM 6.23 43.214 0.215 7.3 4.04 11.2
10/31/2020 4:45:00 AM 6.21 43.178 0.215 7.3 4.03 11.21
10/31/2020 5:00:00 AM 6.2 43.16 0.215 7.29 3.9 11.19
10/31/2020 5:15:00 AM 6.19 43.142 0.215 7.29 4 11.2
10/31/2020 5:30:00 AM 6.19 43.142 0.215 7.29 3.89 11.19
10/31/2020 5:45:00 AM 6.17 43.106 0.215 7.28 3.97 11.19
10/31/2020 6:00:00 AM 6.21 43.178 0.214 7.26 3.65 11.11
10/31/2020 6:15:00 AM 6.19 43.142 0.214 7.24 3.62 11.11
10/31/2020 6:30:00 AM 6.19 43.142 0.214 7.23 3.6 11.1
10/31/2020 6:45:00 AM 6.18 43.124 0.214 7.23 3.73 11.1
10/31/2020 7:00:00 AM 6.17 43.106 0.214 7.23 3.86 11.1
10/31/2020 7:15:00 AM 6.16 43.088 0.214 7.22 3.61 11.08
10/31/2020 7:30:00 AM 6.14 43.052 0.214 7.22 3.69 11.1
10/31/2020 7:45:00 AM 6.14 43.052 0.214 7.22 3.6 11.09
10/31/2020 8:00:00 AM 6.12 43.016 0.213 7.22 3.67 11.11
10/31/2020 8:15:00 AM 6.12 43.016 0.213 7.22 3.6 11.12
10/31/2020 8:30:00 AM 6.14 43.052 0.213 7.21 3.65 11.12
10/31/2020 8:45:00 AM 6.14 43.052 0.213 7.22 3.68 11.13
10/31/2020 9:00:00 AM 6.14 43.052 0.213 7.22 3.49 11.16
10/31/2020 9:15:00 AM 6.17 43.106 0.213 7.22 3.45 11.17
10/31/2020 9:30:00 AM 6.19 43.142 0.212 7.23 3.39 11.2
10/31/2020 9:45:00 AM 6.23 43.214 0.212 7.24 3.57 11.24
10/31/2020 10:00:00 AM 6.21 43.178 0.213 7.31 3.72 11.38
10/31/2020 10:15:00 AM 6.27 43.286 0.213 7.33 3.24 11.41
10/31/2020 10:30:00 AM 6.33 43.394 0.212 7.33 3.42 11.43
10/31/2020 10:45:00 AM 6.38 43.484 0.212 7.34 3.35 11.47
10/31/2020 11:00:00 AM 6.47 43.646 0.212 7.35 3.21 11.48
10/31/2020 11:15:00 AM 6.53 43.754 0.212 7.36 3.38 11.5
10/31/2020 11:30:00 AM 6.58 43.844 0.212 7.35 3.48 11.51
10/31/2020 11:45:00 AM 6.6 43.88 0.212 7.35 3.22 11.51
10/31/2020 12:00:00 PM 6.63 43.934 0.211 7.35 3.33 11.52
10/31/2020 12:15:00 PM 6.67 44.006 0.211 7.35 3.3 11.53
10/31/2020 12:30:00 PM 6.7 44.06 0.211 7.35 3.19 11.53
10/31/2020 12:45:00 PM 6.74 44.132 0.211 7.36 3.14 11.54
10/31/2020 1:00:00 PM 6.77 44.186 0.211 7.36 3.24 11.54
10/31/2020 1:15:00 PM 6.81 44.258 0.211 7.36 3.26 11.54
10/31/2020 1:30:00 PM 6.85 44.33 0.211 7.36 3.26 11.53
10/31/2020 1:45:00 PM 6.88 44.384 0.211 7.37 3.25 11.52
10/31/2020 2:00:00 PM 6.93 44.474 0.211 7.37 3.16 11.5
10/31/2020 2:15:00 PM 7 44.6 0.21 7.37 3.14 11.5
10/31/2020 2:30:00 PM 7.05 44.69 0.21 7.37 3.14 11.49
10/31/2020 2:45:00 PM 7.09 44.762 0.21 7.37 3.18 11.48
10/31/2020 3:00:00 PM 7.14 44.852 0.21 7.38 3.07 11.47
10/31/2020 3:15:00 PM 7.24 45.032 0.209 7.31 3.07 11.32
10/31/2020 3:30:00 PM 7.27 45.086 0.209 7.28 3.31 11.3
10/31/2020 3:45:00 PM 7.29 45.122 0.209 7.27 2.95 11.28
10/31/2020 4:00:00 PM 7.26 45.068 0.209 7.26 3.04 11.26
10/31/2020 4:15:00 PM 7.22 44.996 0.209 7.24 3.04 11.19
10/31/2020 4:30:00 PM 7.17 44.906 0.209 7.24 3 11.18
10/31/2020 4:45:00 PM 7.16 44.888 0.209 7.24 2.95 11.1
10/31/2020 5:00:00 PM 7.12 44.816 0.209 7.24 2.82 11.13
10/31/2020 5:15:00 PM 7.1 44.78 0.209 7.22 2.78 11.05
10/31/2020 5:30:00 PM 7.09 44.762 0.209 7.21 2.93 10.99
10/31/2020 5:45:00 PM 7.08 44.744 0.209 7.19 2.93 10.92
10/31/2020 6:00:00 PM 7.03 44.654 0.21 7.2 2.84 10.93
10/31/2020 6:15:00 PM 7 44.6 0.209 7.2 2.83 10.89
10/31/2020 6:30:00 PM 7 44.6 0.209 7.17 2.84 10.77
10/31/2020 6:45:00 PM 6.95 44.51 0.209 7.17 2.89 10.76
10/31/2020 7:00:00 PM 6.91 44.438 0.21 7.16 2.73 10.75
10/31/2020 7:15:00 PM 6.89 44.402 0.209 7.16 2.93 10.7
10/31/2020 7:30:00 PM 6.83 44.294 0.21 7.16 2.72 10.72
10/31/2020 7:45:00 PM 6.81 44.258 0.209 7.14 2.76 10.66
10/31/2020 8:00:00 PM 6.74 44.132 0.21 7.13 2.82 10.68
10/31/2020 8:15:00 PM 6.71 44.078 0.21 7.13 2.84 10.66
10/31/2020 8:30:00 PM 6.66 43.988 0.21 7.12 2.85 10.64
10/31/2020 8:45:00 PM 6.64 43.952 0.21 7.11 2.85 10.6
10/31/2020 9:00:00 PM 6.61 43.898 0.209 7.1 2.75 10.57
10/31/2020 9:15:00 PM 6.53 43.754 0.21 7.09 2.9 10.59
10/31/2020 9:30:00 PM 6.51 43.718 0.209 7.08 2.74 10.55
10/31/2020 9:45:00 PM 6.45 43.61 0.21 7.08 2.84 10.58
10/31/2020 10:00:00 PM 6.41 43.538 0.209 7.07 2.76 10.53
10/31/2020 10:15:00 PM 6.38 43.484 0.209 7.06 2.84 10.49
10/31/2020 10:30:00 PM 6.32 43.376 0.21 7.06 2.82 10.52
10/31/2020 10:45:00 PM 6.29 43.322 0.209 7.05 2.91 10.51
10/31/2020 11:00:00 PM 6.18 43.124 0.21 7.06 3.02 10.59
10/31/2020 11:15:00 PM 6.17 43.106 0.21 7.06 2.82 10.56
10/31/2020 11:30:00 PM 6.14 43.052 0.209 7.05 2.8 10.55
10/31/2020 11:45:00 PM 6.06 42.908 0.21 7.05 2.92 10.62
11/1/2020 12:00:00 AM 6.03 42.854 0.209 7.04 2.84 10.58
11/1/2020 12:15:00 AM 5.97 42.746 0.21 7.05 2.77 10.6
11/1/2020 12:30:00 AM 5.94 42.692 0.21 7.04 2.68 10.61
11/1/2020 12:45:00 AM 5.89 42.602 0.21 7.05 2.81 10.63
11/1/2020 1:00:00 AM 5.85 42.53 0.21 7.04 2.68 10.62
11/1/2020 1:15:00 AM 5.79 42.422 0.21 7.05 2.81 10.67
11/1/2020 1:30:00 AM 5.74 42.332 0.21 7.05 2.87 10.68
11/1/2020 1:45:00 AM 5.68 42.224 0.211 7.06 2.97 10.72
11/1/2020 2:00:00 AM 5.63 42.134 0.211 7.06 2.8 10.72
11/1/2020 2:15:00 AM 5.59 42.062 0.211 7.06 2.86 10.74
11/1/2020 2:30:00 AM 5.58 42.044 0.211 7.06 2.72 10.71
11/1/2020 2:45:00 AM 5.58 42.044 0.211 7.06 2.79 10.72
11/1/2020 3:00:00 AM 5.58 42.044 0.211 7.06 2.8 10.74
11/1/2020 3:15:00 AM 5.58 42.044 0.211 7.05 2.88 10.74
11/1/2020 3:30:00 AM 5.59 42.062 0.211 7.05 2.71 10.74
11/1/2020 3:45:00 AM 5.58 42.044 0.211 7.05 2.94 10.74
11/1/2020 4:00:00 AM 5.59 42.062 0.211 7.05 2.9 10.72
11/1/2020 4:15:00 AM 5.58 42.044 0.211 7.05 2.91 10.72
11/1/2020 4:30:00 AM 5.61 42.098 0.211 7.04 2.71 10.7
11/1/2020 4:45:00 AM 5.63 42.134 0.211 7.03 2.84 10.67
11/1/2020 5:00:00 AM 5.64 42.152 0.211 7.03 3.26 10.67
11/1/2020 5:15:00 AM 5.59 42.062 0.211 7.05 3.52 10.72
11/1/2020 5:30:00 AM 5.54 41.972 0.212 7.07 3.6 10.76
11/1/2020 5:45:00 AM 5.53 41.954 0.212 7.08 4.03 10.77
11/1/2020 6:00:00 AM 5.56 42.008 0.212 7.07 3.59 10.74
11/1/2020 6:15:00 AM 5.58 42.044 0.212 7.06 3.6 10.73
11/1/2020 6:30:00 AM 5.55 41.99 0.212 7.07 3.24 10.76
11/1/2020 6:45:00 AM 5.57 42.026 0.212 7.08 3.22 10.74
11/1/2020 7:00:00 AM 5.58 42.044 0.212 7.07 3.18 10.73
11/1/2020 7:15:00 AM 5.6 42.08 0.212 7.07 3.09 10.71
11/1/2020 7:30:00 AM 5.6 42.08 0.212 7.07 3.14 10.7
11/1/2020 7:45:00 AM 5.65 42.17 0.212 7.06 3.09 10.62
11/1/2020 8:00:00 AM 5.7 42.26 0.212 7.04 2.93 10.58
11/1/2020 8:15:00 AM 5.73 42.314 0.212 7.03 3.06 10.54
11/1/2020 8:30:00 AM 5.77 42.386 0.211 7.03 2.89 10.53
11/1/2020 8:45:00 AM 5.78 42.404 0.212 7.03 2.71 10.51
11/1/2020 9:00:00 AM 5.82 42.476 0.211 7.03 3.06 10.51
11/1/2020 9:15:00 AM 5.82 42.476 0.212 7.03 2.86 10.53
11/1/2020 9:30:00 AM 5.86 42.548 0.212 7.04 2.84 10.52
11/1/2020 9:45:00 AM 5.89 42.602 0.212 7.04 2.77 10.55
11/1/2020 10:00:00 AM 5.94 42.692 0.212 7.04 2.79 10.55
11/1/2020 10:15:00 AM 5.98 42.764 0.212 7.04 2.82 10.57
11/1/2020 10:30:00 AM 6.02 42.836 0.212 7.05 2.74 10.59
11/1/2020 10:45:00 AM 6.09 42.962 0.212 7.05 2.82 10.6
11/1/2020 11:00:00 AM 6.14 43.052 0.212 7.05 2.94 10.62
11/1/2020 11:15:00 AM 6.22 43.196 0.212 7.05 2.79 10.64
11/1/2020 11:30:00 AM 6.27 43.286 0.212 7.06 2.88 10.69
11/1/2020 11:45:00 AM 6.34 43.412 0.212 7.06 3.02 10.69
11/1/2020 12:00:00 PM 6.41 43.538 0.212 7.07 2.83 10.71
11/1/2020 12:15:00 PM 6.48 43.664 0.211 7.06 2.78 10.66
11/1/2020 12:30:00 PM 6.53 43.754 0.211 7.06 2.78 10.67
11/1/2020 12:45:00 PM 6.54 43.772 0.211 7.05 2.63 10.64
11/1/2020 1:00:00 PM 6.59 43.862 0.211 7.04 2.64 10.6
11/1/2020 1:15:00 PM 6.62 43.916 0.211 7.05 2.58 10.61
11/1/2020 1:30:00 PM 6.65 43.97 0.211 7.05 2.53 10.58
11/1/2020 1:45:00 PM 6.64 43.952 0.211 7.06 2.65 10.63
11/1/2020 2:00:00 PM 6.66 43.988 0.211 7.07 2.49 10.64
11/1/2020 2:15:00 PM 6.67 44.006 0.211 7.08 2.49 10.64
11/1/2020 2:30:00 PM 6.7 44.06 0.211 7.08 2.48 10.61
11/1/2020 2:45:00 PM 6.73 44.114 0.211 7.08 2.51 10.59
11/1/2020 3:00:00 PM 6.79 44.222 0.211 7.07 2.46 10.52
11/1/2020 3:15:00 PM 6.82 44.276 0.211 7.06 2.62 10.5
11/1/2020 3:30:00 PM 6.89 44.402 0.21 7.05 2.58 10.43
11/1/2020 3:45:00 PM 6.89 44.402 0.21 7.05 2.46 10.46
11/1/2020 4:00:00 PM 6.93 44.474 0.209 7.05 2.59 10.42
11/1/2020 4:15:00 PM 6.91 44.438 0.208 7.08 2.83 10.51
11/1/2020 4:30:00 PM 6.94 44.492 0.208 7.08 2.79 10.51
11/1/2020 4:45:00 PM 6.87 44.366 0.207 7.08 2.8 10.5
11/1/2020 5:00:00 PM 6.78 44.204 0.207 7.07 2.74 10.5
11/1/2020 5:15:00 PM 6.78 44.204 0.206 7.05 2.76 10.42
11/1/2020 5:30:00 PM 6.81 44.258 0.206 7.02 3.04 10.34
11/1/2020 5:45:00 PM 6.82 44.276 0.206 7.03 2.75 10.34
11/1/2020 6:00:00 PM 6.81 44.258 0.206 7.03 2.81 10.33
11/1/2020 6:15:00 PM 6.78 44.204 0.207 7.03 2.78 10.33
11/1/2020 6:30:00 PM 6.71 44.078 0.207 7.04 2.73 10.36
11/1/2020 6:45:00 PM 6.61 43.898 0.208 7.07 2.69 10.38
11/1/2020 7:00:00 PM 6.57 43.826 0.209 7.07 2.66 10.37
11/1/2020 7:15:00 PM 6.5 43.7 0.209 7.08 2.72 10.39
11/1/2020 7:30:00 PM 6.52 43.736 0.209 7.07 2.64 10.33
11/1/2020 7:45:00 PM 6.49 43.682 0.21 7.08 2.85 10.36
11/1/2020 8:00:00 PM 6.56 43.808 0.209 7.05 2.54 10.26
11/1/2020 8:15:00 PM 6.58 43.844 0.209 7.03 2.61 10.21
11/1/2020 8:30:00 PM 6.59 43.862 0.209 7.02 2.66 10.18
11/1/2020 8:45:00 PM 6.55 43.79 0.209 7.03 2.53 10.21
11/1/2020 9:00:00 PM 6.53 43.754 0.209 7.03 2.49 10.21
11/1/2020 9:15:00 PM 6.48 43.664 0.209 7.03 2.48 10.24
11/1/2020 9:30:00 PM 6.44 43.592 0.209 7.04 2.37 10.25
11/1/2020 9:45:00 PM 6.39 43.502 0.209 7.04 2.54 10.28
11/1/2020 10:00:00 PM 6.35 43.43 0.208 7.03 2.52 10.26
11/1/2020 10:15:00 PM 6.29 43.322 0.209 7.03 2.56 10.27
11/1/2020 10:30:00 PM 6.25 43.25 0.208 7.03 2.53 10.26
11/1/2020 10:45:00 PM 6.2 43.16 0.208 7.02 2.5 10.27
11/1/2020 11:00:00 PM 6.15 43.07 0.208 7.02 2.52 10.29
11/1/2020 11:15:00 PM 6.12 43.016 0.209 7.02 2.48 10.3
11/1/2020 11:30:00 PM 6.1 42.98 0.208 7.02 2.49 10.3
11/1/2020 11:45:00 PM 6.06 42.908 0.209 7.02 2.54 10.32
11/2/2020 12:00:00 AM 6.03 42.854 0.209 7.03 2.44 10.33
11/2/2020 12:15:00 AM 6 42.8 0.209 7.03 2.5 10.34
11/2/2020 12:30:00 AM 5.98 42.764 0.209 7.03 2.58 10.32
11/2/2020 12:45:00 AM 5.94 42.692 0.209 7.03 2.59 10.36
11/2/2020 1:00:00 AM 5.92 42.656 0.209 7.03 2.5 10.36
11/2/2020 1:15:00 AM 5.91 42.638 0.209 7.03 2.55 10.36
11/2/2020 1:30:00 AM 5.9 42.62 0.21 7.03 2.47 10.36
11/2/2020 1:45:00 AM 5.87 42.566 0.21 7.03 2.7 10.39
11/2/2020 2:00:00 AM 5.87 42.566 0.21 7.03 2.78 10.37
11/2/2020 2:15:00 AM 5.84 42.512 0.21 7.03 2.9 10.4
11/2/2020 2:30:00 AM 5.83 42.494 0.21 7.02 2.75 10.39
11/2/2020 2:45:00 AM 5.81 42.458 0.21 7.02 2.72 10.41
11/2/2020 3:00:00 AM 5.79 42.422 0.21 7.01 2.91 10.4
11/2/2020 3:15:00 AM 5.77 42.386 0.21 7.02 2.61 10.42
11/2/2020 3:30:00 AM 5.75 42.35 0.209 7 2.77 10.39
11/2/2020 3:45:00 AM 5.64 42.152 0.21 7.01 2.89 10.44
11/2/2020 4:00:00 AM 5.5 41.9 0.21 7.01 2.96 10.47
11/2/2020 4:15:00 AM 5.33 41.594 0.21 7 3.06 10.49
11/2/2020 4:30:00 AM 5.24 41.432 0.209 6.98 2.83 10.46
11/2/2020 4:45:00 AM 5.18 41.324 0.209 7.01 2.86 10.56
11/2/2020 5:00:00 AM 5.17 41.306 0.21 7.01 2.88 10.58
11/2/2020 5:15:00 AM 5.17 41.306 0.209 7 3.15 10.57
11/2/2020 5:30:00 AM 5.04 41.072 0.209 7 2.89 10.61
11/2/2020 5:45:00 AM 4.9 40.82 0.209 7 3.06 10.67
11/2/2020 6:00:00 AM 4.64 40.352 0.208 6.99 3 10.69
11/2/2020 6:15:00 AM 4.59 40.262 0.208 6.98 3.07 10.7
11/2/2020 6:30:00 AM 4.56 40.208 0.207 6.98 3.04 10.71
11/2/2020 6:45:00 AM 4.46 40.028 0.209 7 3.13 10.82
11/2/2020 7:00:00 AM 4.31 39.758 0.21 7.04 2.98 10.99
11/2/2020 7:15:00 AM 4.18 39.524 0.209 7.04 3.21 11.02
11/2/2020 7:30:00 AM 4.05 39.29 0.208 7.03 3.19 11.03
11/2/2020 7:45:00 AM 3.85 38.93 0.208 7.05 3.53 11.17
11/2/2020 8:00:00 AM 3.74 38.732 0.208 7.08 5.2 11.27
11/2/2020 8:15:00 AM 3.67 38.606 0.208 7.11 3.51 11.36
11/2/2020 8:30:00 AM 3.64 38.552 0.208 7.14 3.12 11.45
11/2/2020 8:45:00 AM 3.62 38.516 0.208 7.16 3.19 11.56
11/2/2020 9:00:00 AM 3.61 38.498 0.209 7.18 3.4 11.64
11/2/2020 9:15:00 AM 3.64 38.552 0.209 7.19 3.45 11.7
11/2/2020 9:30:00 AM 3.66 38.588 0.209 7.2 3.2 11.79
11/2/2020 9:45:00 AM 3.71 38.678 0.209 7.21 3.23 11.82
11/2/2020 10:00:00 AM 3.71 38.678 0.209 7.22 3.19 11.9
11/2/2020 10:15:00 AM 3.77 38.786 0.209 7.22 3.01 11.95
11/2/2020 10:30:00 AM 3.81 38.858 0.209 7.23 2.95 11.99
11/2/2020 10:45:00 AM 3.86 38.948 0.209 7.24 2.96 12.02
11/2/2020 11:00:00 AM 3.86 38.948 0.208 7.25 2.84 12.07
11/2/2020 11:15:00 AM 4.19 39.542 0.208 7.27 2.53 12.19
11/2/2020 11:30:00 AM 4.3 39.74 0.207 7.28 2.69 12.19
11/2/2020 11:45:00 AM 4.44 39.992 0.207 7.28 2.62 12.2
11/2/2020 12:00:00 PM 4.55 40.19 0.207 7.29 2.62 12.18
11/2/2020 12:15:00 PM 4.63 40.334 0.207 7.28 2.59 12.17
11/2/2020 12:30:00 PM 4.62 40.316 0.207 7.3 2.53 12.15
11/2/2020 12:45:00 PM 4.82 40.676 0.207 7.31 2.53 12.17
11/2/2020 1:00:00 PM 5.03 41.054 0.207 7.33 2.64 12.14
11/2/2020 1:15:00 PM 5.12 41.216 0.207 7.33 2.61 12.13
11/2/2020 1:30:00 PM 5.2 41.36 0.207 7.33 2.67 12.09
11/2/2020 1:45:00 PM 5.22 41.396 0.207 7.33 2.72 12.08
11/2/2020 2:00:00 PM 5.36 41.648 0.207 7.32 2.48 12.06
11/2/2020 2:15:00 PM 5.4 41.72 0.207 7.32 2.64 12.02
11/2/2020 2:30:00 PM 5.39 41.702 0.207 7.32 2.62 12.03
11/2/2020 2:45:00 PM 5.36 41.648 0.207 7.31 2.62 11.99
11/2/2020 3:00:00 PM 5.25 41.45 0.208 7.31 2.61 11.95
11/2/2020 3:15:00 PM 5.23 41.414 0.208 7.31 2.59 11.92
11/2/2020 3:30:00 PM 5.22 41.396 0.208 7.29 2.6 11.86
11/2/2020 3:45:00 PM 5.22 41.396 0.208 7.3 2.65 11.84
11/2/2020 4:00:00 PM 5.24 41.432 0.209 7.3 2.66 11.78
11/2/2020 4:15:00 PM 5.22 41.396 0.209 7.29 2.56 11.74
11/2/2020 4:30:00 PM 5.24 41.432 0.209 7.29 2.61 11.67
11/2/2020 4:45:00 PM 5.22 41.396 0.21 7.29 2.58 11.64
11/2/2020 5:00:00 PM 5.21 41.378 0.21 7.3 2.53 11.6
11/2/2020 5:15:00 PM 5.19 41.342 0.21 7.28 2.53 11.51
11/2/2020 5:30:00 PM 5.2 41.36 0.21 7.27 2.67 11.47
11/2/2020 5:45:00 PM 5.15 41.27 0.211 7.28 2.7 11.51
11/2/2020 6:00:00 PM 5.16 41.288 0.211 7.26 2.82 11.45
11/2/2020 6:15:00 PM 5.12 41.216 0.211 7.26 3.47 11.42
11/2/2020 6:30:00 PM 5.08 41.144 0.211 7.27 3 11.45
11/2/2020 6:45:00 PM 5.08 41.144 0.212 7.25 3.22 11.39
11/2/2020 7:00:00 PM 5.05 41.09 0.212 7.24 3.12 11.37
11/2/2020 7:15:00 PM 5.03 41.054 0.212 7.23 3.25 11.37
11/2/2020 7:30:00 PM 5.01 41.018 0.213 7.24 3.11 11.38
11/2/2020 7:45:00 PM 5.01 41.018 0.213 7.23 3.44 11.34
11/2/2020 8:00:00 PM 4.95 40.91 0.214 7.22 3.37 11.38
11/2/2020 8:15:00 PM 4.96 40.928 0.214 7.21 3.53 11.33
11/2/2020 8:30:00 PM 4.95 40.91 0.214 7.21 3.49 11.31
11/2/2020 8:45:00 PM 4.94 40.892 0.214 7.21 3.8 11.31
11/2/2020 9:00:00 PM 4.92 40.856 0.214 7.2 3.83 11.3
11/2/2020 9:15:00 PM 4.92 40.856 0.214 7.2 3.82 11.29
11/2/2020 9:30:00 PM 4.89 40.802 0.215 7.19 3.85 11.29
11/2/2020 9:45:00 PM 4.92 40.856 0.215 7.18 3.66 11.24
11/2/2020 10:00:00 PM 4.89 40.802 0.215 7.18 3.76 11.25
11/2/2020 10:15:00 PM 4.85 40.73 0.216 7.19 3.72 11.28
11/2/2020 10:30:00 PM 4.9 40.82 0.216 7.17 4.04 11.21
11/2/2020 10:45:00 PM 4.9 40.82 0.216 7.17 3.71 11.19
11/2/2020 11:00:00 PM 4.87 40.766 0.216 7.18 3.63 11.23
11/2/2020 11:15:00 PM 4.86 40.748 0.217 7.18 3.66 11.25
11/2/2020 11:30:00 PM 4.86 40.748 0.217 7.17 3.6 11.21
11/2/2020 11:45:00 PM 4.86 40.748 0.217 7.16 3.67 11.19
11/3/2020 12:00:00 AM 4.83 40.694 0.218 7.17 3.44 11.23
11/3/2020 12:15:00 AM 4.82 40.676 0.218 7.18 3.59 11.23
11/3/2020 12:30:00 AM 4.82 40.676 0.218 7.18 3.52 11.22
11/3/2020 12:45:00 AM 4.83 40.694 0.218 7.18 3.65 11.21
11/3/2020 1:00:00 AM 4.81 40.658 0.219 7.18 3.42 11.2
11/3/2020 1:15:00 AM 4.8 40.64 0.219 7.19 3.46 11.22
11/3/2020 1:30:00 AM 4.79 40.622 0.22 7.19 3.52 11.2
11/3/2020 1:45:00 AM 4.8 40.64 0.22 7.19 3.52 11.2
11/3/2020 2:00:00 AM 4.77 40.586 0.22 7.19 3.41 11.2
11/3/2020 2:15:00 AM 4.76 40.568 0.22 7.17 3.28 11.21
11/3/2020 2:30:00 AM 4.75 40.55 0.221 7.16 3.21 11.22
11/3/2020 2:45:00 AM 4.78 40.604 0.221 7.14 3.29 11.17
11/3/2020 3:00:00 AM 4.77 40.586 0.221 7.16 3.3 11.2
11/3/2020 3:15:00 AM 4.75 40.55 0.222 7.17 3.35 11.2
11/3/2020 3:30:00 AM 4.76 40.568 0.222 7.17 3.38 11.23
11/3/2020 3:45:00 AM 4.78 40.604 0.222 7.17 3.43 11.18
11/3/2020 4:00:00 AM 4.8 40.64 0.222 7.16 3.23 11.16
11/3/2020 4:15:00 AM 4.81 40.658 0.222 7.16 3.31 11.17
11/3/2020 4:30:00 AM 4.84 40.712 0.222 7.16 3.29 11.17
11/3/2020 4:45:00 AM 4.84 40.712 0.223 7.16 3.22 11.15
11/3/2020 5:00:00 AM 4.85 40.73 0.223 7.16 3.4 11.16
11/3/2020 5:15:00 AM 4.88 40.784 0.223 7.16 3.25 11.17
11/3/2020 5:30:00 AM 4.9 40.82 0.223 7.15 3.1 11.12
11/3/2020 5:45:00 AM 4.89 40.802 0.223 7.16 3.24 11.12
11/3/2020 6:00:00 AM 4.93 40.874 0.223 7.16 3.13 11.12
11/3/2020 6:15:00 AM 4.95 40.91 0.223 7.16 3.19 11.09
11/3/2020 6:30:00 AM 4.98 40.964 0.224 7.16 3.16 11.08
11/3/2020 6:45:00 AM 4.99 40.982 0.224 7.16 3.06 11.08
11/3/2020 7:00:00 AM 5.05 41.09 0.223 7.15 3.11 11.05
11/3/2020 7:15:00 AM 5.05 41.09 0.224 7.15 2.97 11.03
11/3/2020 7:30:00 AM 5.06 41.108 0.224 7.14 3.08 11.04
11/3/2020 7:45:00 AM 5.08 41.144 0.224 7.15 2.98 11.05
11/3/2020 8:00:00 AM 5.08 41.144 0.224 7.14 2.71 11.06
11/3/2020 8:15:00 AM 5.09 41.162 0.224 7.15 3.2 11.07
11/3/2020 8:30:00 AM 5.09 41.162 0.224 7.16 3.14 11.09
11/3/2020 8:45:00 AM 5.12 41.216 0.224 7.15 3.18 11.12
11/3/2020 9:00:00 AM 5.18 41.324 0.224 7.16 3.04 11.12
11/3/2020 9:15:00 AM 5.21 41.378 0.224 7.16 3.11 11.13
11/3/2020 9:30:00 AM 5.21 41.378 0.225 7.16 2.98 11.18
11/3/2020 9:45:00 AM 5.28 41.504 0.224 7.15 2.83 11.2
11/3/2020 10:00:00 AM 5.35 41.63 0.224 7.15 2.68 11.23
11/3/2020 10:15:00 AM 5.38 41.684 0.225 7.15 3.01 11.31
11/3/2020 10:30:00 AM 5.44 41.792 0.224 7.16 2.65 11.32
11/3/2020 10:45:00 AM 5.53 41.954 0.224 7.16 2.6 11.33
11/3/2020 11:00:00 AM 5.61 42.098 0.225 7.17 2.66 11.4
11/3/2020 11:15:00 AM 5.72 42.296 0.225 7.17 2.69 11.43
11/3/2020 11:30:00 AM 5.82 42.476 0.224 7.17 2.48 11.42
11/3/2020 11:45:00 AM 5.83 42.494 0.225 7.19 2.52 11.51
11/3/2020 12:00:00 PM 5.92 42.656 0.224 7.19 2.49 11.5
11/3/2020 12:15:00 PM 6.02 42.836 0.225 7.2 2.52 11.56
11/3/2020 12:30:00 PM 6.19 43.142 0.225 7.22 2.45 11.58
11/3/2020 12:45:00 PM 6.33 43.394 0.225 7.22 2.39 11.62
11/3/2020 1:00:00 PM 6.43 43.574 0.225 7.22 2.35 11.59
11/3/2020 1:15:00 PM 6.45 43.61 0.225 7.23 2.4 11.59
11/3/2020 1:30:00 PM 6.49 43.682 0.224 7.22 2.52 11.54
11/3/2020 1:45:00 PM 6.56 43.808 0.224 7.22 2.42 11.59
11/3/2020 2:00:00 PM 6.57 43.826 0.224 7.22 2.33 11.56
11/3/2020 2:15:00 PM 6.59 43.862 0.224 7.22 2.47 11.52
11/3/2020 2:30:00 PM 6.53 43.754 0.224 7.22 2.48 11.5
11/3/2020 2:45:00 PM 6.47 43.646 0.224 7.22 2.53 11.48
11/3/2020 3:00:00 PM 6.49 43.682 0.224 7.21 2.33 11.42
11/3/2020 3:15:00 PM 6.47 43.646 0.224 7.22 2.3 11.47
11/3/2020 3:30:00 PM 6.47 43.646 0.224 7.21 2.35 11.38
11/3/2020 3:45:00 PM 6.45 43.61 0.223 7.19 2.3 11.35
11/3/2020 4:00:00 PM 6.45 43.61 0.223 7.19 2.27 11.27
11/3/2020 4:15:00 PM 6.38 43.484 0.224 7.21 2.34 11.31
11/3/2020 4:30:00 PM 6.41 43.538 0.223 7.18 2.35 11.18
11/3/2020 4:45:00 PM 6.32 43.376 0.224 7.19 3.13 11.16
11/3/2020 5:00:00 PM 6.28 43.304 0.223 7.2 2.29 11.14
11/3/2020 5:15:00 PM 6.25 43.25 0.224 7.19 2.31 11.09
11/3/2020 5:30:00 PM 6.21 43.178 0.224 7.17 2.36 11.02
11/3/2020 5:45:00 PM 6.2 43.16 0.223 7.16 2.31 10.93
11/3/2020 6:00:00 PM 6.12 43.016 0.224 7.17 2.37 10.98
11/3/2020 6:15:00 PM 6.12 43.016 0.223 7.16 2.37 10.88
11/3/2020 6:30:00 PM 6.06 42.908 0.223 7.16 2.33 10.86
11/3/2020 6:45:00 PM 6.01 42.818 0.224 7.16 2.26 10.85
11/3/2020 7:00:00 PM 5.99 42.782 0.223 7.15 2.33 10.83
11/3/2020 7:15:00 PM 5.93 42.674 0.223 7.15 2.36 10.84
11/3/2020 7:30:00 PM 5.89 42.602 0.224 7.15 2.28 10.8
11/3/2020 7:45:00 PM 5.82 42.476 0.224 7.17 2.36 10.83
11/3/2020 8:00:00 PM 5.79 42.422 0.223 7.15 2.29 10.83
11/3/2020 8:15:00 PM 5.72 42.296 0.224 7.14 2.34 10.85
11/3/2020 8:30:00 PM 5.7 42.26 0.223 7.12 2.32 10.8
11/3/2020 8:45:00 PM 5.61 42.098 0.224 7.12 2.49 10.85
11/3/2020 9:00:00 PM 5.57 42.026 0.224 7.12 2.59 10.86
11/3/2020 9:15:00 PM 5.55 41.99 0.223 7.12 2.54 10.84
11/3/2020 9:30:00 PM 5.46 41.828 0.224 7.13 2.51 10.92
11/3/2020 9:45:00 PM 5.46 41.828 0.224 7.12 2.41 10.9
11/3/2020 10:00:00 PM 5.42 41.756 0.224 7.13 2.57 10.88
11/3/2020 10:15:00 PM 5.35 41.63 0.224 7.13 2.9 10.89
11/3/2020 10:30:00 PM 5.31 41.558 0.224 7.12 2.75 10.89
11/3/2020 10:45:00 PM 5.26 41.468 0.224 7.12 2.73 10.92
11/3/2020 11:00:00 PM 5.19 41.342 0.225 7.13 2.75 10.99
11/3/2020 11:15:00 PM 5.18 41.324 0.224 7.13 2.91 10.95
11/3/2020 11:30:00 PM 5.13 41.234 0.225 7.11 2.92 10.94
11/3/2020 11:45:00 PM 5.11 41.198 0.224 7.11 2.96 10.95
11/4/2020 12:00:00 AM 5.07 41.126 0.224 7.1 2.61 10.94
11/4/2020 12:15:00 AM 4.98 40.964 0.225 7.12 2.95 11.04
11/4/2020 12:30:00 AM 4.98 40.964 0.224 7.11 3 11
11/4/2020 12:45:00 AM 4.96 40.928 0.224 7.1 2.99 10.99
11/4/2020 1:00:00 AM 4.88 40.784 0.225 7.11 2.98 11.07
11/4/2020 1:15:00 AM 4.86 40.748 0.225 7.09 3.09 11.04
11/4/2020 1:30:00 AM 4.81 40.658 0.225 7.11 3.05 11.09
11/4/2020 1:45:00 AM 4.81 40.658 0.224 7.09 3.04 11.05
11/4/2020 2:00:00 AM 4.8 40.64 0.224 7.09 3.15 11.03
11/4/2020 2:15:00 AM 4.71 40.478 0.225 7.1 3.12 11.1
11/4/2020 2:30:00 AM 4.66 40.388 0.225 7.11 2.93 11.13
11/4/2020 2:45:00 AM 4.63 40.334 0.224 7.1 3.13 11.16
11/4/2020 3:00:00 AM 4.61 40.298 0.224 7.1 3.07 11.14
11/4/2020 3:15:00 AM 4.53 40.154 0.225 7.1 3.1 11.2
11/4/2020 3:30:00 AM 4.49 40.082 0.225 7.1 2.99 11.2
11/4/2020 3:45:00 AM 4.49 40.082 0.224 7.09 3.05 11.2
11/4/2020 4:00:00 AM 4.44 39.992 0.225 7.1 2.93 11.22
11/4/2020 4:15:00 AM 4.4 39.92 0.225 7.1 3.03 11.25
11/4/2020 4:30:00 AM 4.37 39.866 0.224 7.1 3.29 11.27
11/4/2020 4:45:00 AM 4.34 39.812 0.224 7.09 2.99 11.25
11/4/2020 5:00:00 AM 4.31 39.758 0.224 7.09 2.87 11.26
11/4/2020 5:15:00 AM 4.28 39.704 0.224 7.09 2.85 11.27
11/4/2020 5:30:00 AM 4.25 39.65 0.224 7.09 2.91 11.26
11/4/2020 5:45:00 AM 4.22 39.596 0.224 7.08 2.94 11.27
11/4/2020 6:00:00 AM 4.19 39.542 0.224 7.07 2.85 11.27
11/4/2020 6:15:00 AM 4.16 39.488 0.224 7.07 2.83 11.27
11/4/2020 6:30:00 AM 4.14 39.452 0.224 7.07 2.72 11.27
11/4/2020 6:45:00 AM 4.12 39.416 0.224 7.06 2.86 11.25
11/4/2020 7:00:00 AM 4.1 39.38 0.224 7.06 2.86 11.26
11/4/2020 7:15:00 AM 4.1 39.38 0.224 7.05 2.8 11.24
11/4/2020 7:30:00 AM 4.05 39.29 0.224 7.06 2.88 11.29
11/4/2020 7:45:00 AM 4.09 39.362 0.223 7.06 2.71 11.28
11/4/2020 8:00:00 AM 4.04 39.272 0.224 7.06 2.59 11.36
11/4/2020 8:15:00 AM 4.05 39.29 0.224 7.07 2.62 11.39
11/4/2020 8:30:00 AM 4.13 39.434 0.223 7.06 2.52 11.39
11/4/2020 8:45:00 AM 4.2 39.56 0.223 7.05 2.62 11.41
11/4/2020 9:00:00 AM 4.26 39.668 0.223 7.05 2.55 11.43
11/4/2020 9:15:00 AM 4.33 39.794 0.223 7.05 2.58 11.46
11/4/2020 9:30:00 AM 4.43 39.974 0.222 7.05 2.65 11.47
11/4/2020 9:45:00 AM 4.5 40.1 0.222 7.06 2.77 11.53
11/4/2020 10:00:00 AM 4.57 40.226 0.223 7.07 2.55 11.57
11/4/2020 10:15:00 AM 4.68 40.424 0.222 7.08 2.47 11.61
11/4/2020 10:30:00 AM 4.82 40.676 0.222 7.08 2.54 11.62
11/4/2020 10:45:00 AM 4.96 40.928 0.222 7.08 2.48 11.63
11/4/2020 11:00:00 AM 5.03 41.054 0.223 7.11 2.53 11.75
11/4/2020 11:15:00 AM 5.17 41.306 0.223 7.14 2.38 11.81
11/4/2020 11:30:00 AM 5.32 41.576 0.223 7.16 2.5 11.84
11/4/2020 11:45:00 AM 5.5 41.9 0.223 7.17 2.31 11.85
11/4/2020 12:00:00 PM 5.76 42.368 0.223 7.19 2.3 11.89
11/4/2020 12:15:00 PM 6.19 43.142 0.222 7.16 2.37 11.77
11/4/2020 12:30:00 PM 6.52 43.736 0.221 7.15 2.4 11.72
11/4/2020 12:45:00 PM 6.84 44.312 0.221 7.16 2.36 11.7
11/4/2020 1:00:00 PM 7.14 44.852 0.221 7.16 2.27 11.67
11/4/2020 1:15:00 PM 7.45 45.41 0.22 7.15 2.36 11.64
11/4/2020 1:30:00 PM 7.6 45.68 0.221 7.17 2.32 11.63
11/4/2020 1:45:00 PM 7.79 46.022 0.22 7.18 2.18 11.58
11/4/2020 2:00:00 PM 7.92 46.256 0.22 7.18 2.24 11.56
11/4/2020 2:15:00 PM 7.89 46.202 0.221 7.19 2.29 11.54
11/4/2020 2:30:00 PM 7.86 46.148 0.221 7.2 2.29 11.52
11/4/2020 2:45:00 PM 7.88 46.184 0.221 7.19 2.42 11.42
11/4/2020 3:00:00 PM 7.83 46.094 0.221 7.18 2.29 11.34
11/4/2020 3:15:00 PM 7.72 45.896 0.22 7.16 2.25 11.25
11/4/2020 3:30:00 PM 7.63 45.734 0.22 7.15 2.21 11.15
11/4/2020 3:45:00 PM 7.62 45.716 0.219 7.13 2.23 11.06
11/4/2020 4:00:00 PM 7.54 45.572 0.22 7.13 2.17 11
11/4/2020 4:15:00 PM 7.47 45.446 0.221 7.16 2.17 11.02
11/4/2020 4:30:00 PM 7.45 45.41 0.221 7.18 2.18 10.98
11/4/2020 4:45:00 PM 7.42 45.356 0.222 7.2 2.38 10.96
11/4/2020 5:00:00 PM 7.4 45.32 0.222 7.22 2.23 10.93
11/4/2020 5:15:00 PM 7.4 45.32 0.222 7.23 2.22 10.88
11/4/2020 5:30:00 PM 7.44 45.392 0.221 7.2 2.25 10.73
11/4/2020 5:45:00 PM 7.43 45.374 0.222 7.2 2.19 10.68
11/4/2020 6:00:00 PM 7.42 45.356 0.222 7.2 2.19 10.63
11/4/2020 6:15:00 PM 7.4 45.32 0.222 7.21 2.25 10.61
11/4/2020 6:30:00 PM 7.38 45.284 0.222 7.21 2.22 10.58
11/4/2020 6:45:00 PM 7.36 45.248 0.222 7.21 2.22 10.57
11/4/2020 7:00:00 PM 7.33 45.194 0.223 7.21 2.26 10.55
11/4/2020 7:15:00 PM 7.31 45.158 0.223 7.21 2.3 10.51
11/4/2020 7:30:00 PM 7.26 45.068 0.223 7.21 2.18 10.49
11/4/2020 7:45:00 PM 7.22 44.996 0.223 7.2 2.21 10.46
11/4/2020 8:00:00 PM 7.18 44.924 0.223 7.2 2.18 10.44
11/4/2020 8:15:00 PM 7.13 44.834 0.223 7.19 2.21 10.43
11/4/2020 8:30:00 PM 7.09 44.762 0.222 7.17 2.27 10.41
11/4/2020 8:45:00 PM 7.04 44.672 0.222 7.17 2.21 10.42
11/4/2020 9:00:00 PM 7 44.6 0.222 7.16 2.26 10.4
11/4/2020 9:15:00 PM 6.95 44.51 0.222 7.14 2.25 10.38
11/4/2020 9:30:00 PM 6.9 44.42 0.222 7.14 2.29 10.38
11/4/2020 9:45:00 PM 6.89 44.402 0.221 7.11 2.25 10.33
11/4/2020 10:00:00 PM 6.86 44.348 0.221 7.09 2.29 10.28
11/4/2020 10:15:00 PM 6.79 44.222 0.221 7.1 2.33 10.33
11/4/2020 10:30:00 PM 6.71 44.078 0.222 7.12 2.41 10.39
11/4/2020 10:45:00 PM 6.64 43.952 0.222 7.13 2.35 10.42
11/4/2020 11:00:00 PM 6.6 43.88 0.222 7.11 2.3 10.4
11/4/2020 11:15:00 PM 6.52 43.736 0.222 7.14 2.39 10.47
11/4/2020 11:30:00 PM 6.49 43.682 0.222 7.13 2.32 10.44
11/4/2020 11:45:00 PM 6.43 43.574 0.222 7.13 2.47 10.46
11/5/2020 12:00:00 AM 6.42 43.556 0.222 7.11 2.38 10.42
11/5/2020 12:15:00 AM 6.35 43.43 0.222 7.11 2.35 10.48
11/5/2020 12:30:00 AM 6.35 43.43 0.221 7.09 2.35 10.41
11/5/2020 12:45:00 AM 6.29 43.322 0.222 7.1 2.52 10.46
11/5/2020 1:00:00 AM 6.21 43.178 0.222 7.11 2.52 10.52
11/5/2020 1:15:00 AM 6.18 43.124 0.222 7.11 2.36 10.51
11/5/2020 1:30:00 AM 6.12 43.016 0.222 7.11 2.42 10.54
11/5/2020 1:45:00 AM 6.12 43.016 0.221 7.09 2.44 10.48
11/5/2020 2:00:00 AM 6.07 42.926 0.221 7.08 2.41 10.51
11/5/2020 2:15:00 AM 6.03 42.854 0.221 7.09 2.42 10.52
11/5/2020 2:30:00 AM 5.99 42.782 0.221 7.09 2.33 10.53
11/5/2020 2:45:00 AM 5.91 42.638 0.222 7.11 2.4 10.6
11/5/2020 3:00:00 AM 5.86 42.548 0.222 7.11 2.48 10.62
11/5/2020 3:15:00 AM 5.81 42.458 0.222 7.12 2.41 10.66
11/5/2020 3:30:00 AM 5.76 42.368 0.222 7.12 2.43 10.67
11/5/2020 3:45:00 AM 5.71 42.278 0.222 7.13 2.43 10.69
11/5/2020 4:00:00 AM 5.64 42.152 0.223 7.14 2.4 10.73
11/5/2020 4:15:00 AM 5.59 42.062 0.223 7.14 2.35 10.75
11/5/2020 4:30:00 AM 5.58 42.044 0.222 7.13 2.4 10.71
11/5/2020 4:45:00 AM 5.55 41.99 0.222 7.12 2.39 10.7
11/5/2020 5:00:00 AM 5.52 41.936 0.221 7.11 2.44 10.69
11/5/2020 5:15:00 AM 5.48 41.864 0.222 7.12 2.38 10.69
11/5/2020 5:30:00 AM 5.43 41.774 0.222 7.13 2.39 10.74
11/5/2020 5:45:00 AM 5.41 41.738 0.221 7.12 2.42 10.73
11/5/2020 6:00:00 AM 5.36 41.648 0.222 7.12 2.52 10.74
11/5/2020 6:15:00 AM 5.31 41.558 0.221 7.13 2.5 10.77
11/5/2020 6:30:00 AM 5.25 41.45 0.222 7.14 2.49 10.8
11/5/2020 6:45:00 AM 5.23 41.414 0.222 7.13 2.54 10.79
11/5/2020 7:00:00 AM 5.17 41.306 0.222 7.14 2.52 10.84
11/5/2020 7:15:00 AM 5.13 41.234 0.222 7.15 2.59 10.9
11/5/2020 7:30:00 AM 5.1 41.18 0.222 7.17 2.47 10.93
11/5/2020 7:45:00 AM 5.09 41.162 0.222 7.16 2.69 10.96
11/5/2020 8:00:00 AM 5.08 41.144 0.222 7.16 2.47 11.01
11/5/2020 8:15:00 AM 5.09 41.162 0.222 7.17 3.6 11.06
11/5/2020 8:30:00 AM 5.11 41.198 0.222 7.17 3.01 11.12
11/5/2020 8:45:00 AM 5.18 41.324 0.222 7.17 2.66 11.14
11/5/2020 9:00:00 AM 5.24 41.432 0.222 7.17 2.71 11.19
11/5/2020 9:15:00 AM 5.31 41.558 0.221 7.17 2.71 11.24
11/5/2020 9:30:00 AM 5.41 41.738 0.221 7.18 2.68 11.29
11/5/2020 9:45:00 AM 5.52 41.936 0.221 7.19 2.66 11.33
11/5/2020 10:00:00 AM 5.6 42.08 0.221 7.21 2.71 11.36
11/5/2020 10:15:00 AM 5.69 42.242 0.221 7.22 2.46 11.42
11/5/2020 10:30:00 AM 5.81 42.458 0.221 7.23 2.69 11.48
11/5/2020 10:45:00 AM 5.97 42.746 0.221 7.24 2.55 11.48
11/5/2020 11:00:00 AM 6.13 43.034 0.221 7.25 2.36 11.55
11/5/2020 11:15:00 AM 6.32 43.376 0.221 7.26 2.43 11.56
11/5/2020 11:30:00 AM 6.48 43.664 0.22 7.27 2.5 11.59
11/5/2020 11:45:00 AM 6.68 44.024 0.22 7.27 2.33 11.59
11/5/2020 12:00:00 PM 6.9 44.42 0.22 7.27 2.31 11.6
11/5/2020 12:15:00 PM 7.19 44.942 0.22 7.29 2.33 11.63
11/5/2020 12:30:00 PM 7.48 45.464 0.22 7.3 2.29 11.63
11/5/2020 12:45:00 PM 7.79 46.022 0.219 7.28 2.26 11.52
11/5/2020 1:00:00 PM 8.14 46.652 0.219 7.29 2.26 11.56
11/5/2020 1:15:00 PM 8.5 47.3 0.219 7.3 2.48 11.56
11/5/2020 1:30:00 PM 8.62 47.516 0.219 7.3 2.41 11.58
11/5/2020 1:45:00 PM 8.8 47.84 0.219 7.31 2.41 11.56
11/5/2020 2:00:00 PM 8.89 48.002 0.218 7.31 2.2 11.55
11/5/2020 2:15:00 PM 8.92 48.056 0.218 7.3 2.61 11.49
11/5/2020 2:30:00 PM 8.96 48.128 0.218 7.3 2.25 11.45
11/5/2020 2:45:00 PM 8.98 48.164 0.218 7.3 2.23 11.44
11/5/2020 3:00:00 PM 8.95 48.11 0.218 7.3 2.24 11.4
11/5/2020 3:15:00 PM 8.87 47.966 0.218 7.29 2.18 11.34
11/5/2020 3:30:00 PM 8.78 47.804 0.218 7.29 2.19 11.3
11/5/2020 3:45:00 PM 8.71 47.678 0.218 7.29 2.22 11.18
11/5/2020 4:00:00 PM 8.63 47.534 0.219 7.28 2.23 11.1
11/5/2020 4:15:00 PM 8.56 47.408 0.219 7.28 2.12 11.03
11/5/2020 4:30:00 PM 8.52 47.336 0.219 7.28 2.24 10.92
11/5/2020 4:45:00 PM 8.48 47.264 0.219 7.29 2.29 10.86
11/5/2020 5:00:00 PM 8.44 47.192 0.219 7.29 2.29 10.77
11/5/2020 5:15:00 PM 8.4 47.12 0.219 7.29 2.26 10.68
11/5/2020 5:30:00 PM 8.36 47.048 0.219 7.3 2.06 10.59
11/5/2020 5:45:00 PM 8.33 46.994 0.22 7.31 2.04 10.51
11/5/2020 6:00:00 PM 8.3 46.94 0.22 7.3 2.18 10.43
11/5/2020 6:15:00 PM 8.28 46.904 0.22 7.3 2.08 10.33
11/5/2020 6:30:00 PM 8.25 46.85 0.22 7.29 2.17 10.27
11/5/2020 6:45:00 PM 8.24 46.832 0.22 7.27 2.21 10.18
11/5/2020 7:00:00 PM 8.22 46.796 0.22 7.27 2.13 10.1
11/5/2020 7:15:00 PM 8.2 46.76 0.219 7.25 2.47 10.02
11/5/2020 7:30:00 PM 8.17 46.706 0.22 7.25 2.09 9.97
11/5/2020 7:45:00 PM 8.13 46.634 0.22 7.25 2.09 9.95
11/5/2020 8:00:00 PM 8.11 46.598 0.22 7.25 2.1 9.88
11/5/2020 8:15:00 PM 8.07 46.526 0.22 7.25 2.08 9.86
11/5/2020 8:30:00 PM 8.05 46.49 0.219 7.23 2.04 9.81
11/5/2020 8:45:00 PM 8.02 46.436 0.219 7.23 2.08 9.78
11/5/2020 9:00:00 PM 7.98 46.364 0.219 7.21 2.08 9.76
11/5/2020 9:15:00 PM 7.93 46.274 0.219 7.21 2.2 9.75
11/5/2020 9:30:00 PM 7.89 46.202 0.219 7.2 2.34 9.76
11/5/2020 9:45:00 PM 7.86 46.148 0.219 7.18 2.15 9.74
11/5/2020 10:00:00 PM 7.84 46.112 0.218 7.18 2.11 9.66
11/5/2020 10:15:00 PM 7.8 46.04 0.218 7.16 2.04 9.64
11/5/2020 10:30:00 PM 7.76 45.968 0.218 7.16 2.21 9.62
11/5/2020 10:45:00 PM 7.73 45.914 0.218 7.16 2.11 9.61
11/5/2020 11:00:00 PM 7.7 45.86 0.218 7.15 2.08 9.6
11/5/2020 11:15:00 PM 7.64 45.752 0.218 7.14 2.03 9.62
11/5/2020 11:30:00 PM 7.61 45.698 0.219 7.14 2.16 9.59
11/5/2020 11:45:00 PM 7.58 45.644 0.219 7.13 2.08 9.57
11/6/2020 12:00:00 AM 7.56 45.608 0.218 7.14 2.1 9.57
11/6/2020 12:15:00 AM 7.51 45.518 0.22 7.14 2.16 9.61
11/6/2020 12:30:00 AM 7.45 45.41 0.22 7.16 2.1 9.67
11/6/2020 12:45:00 AM 7.4 45.32 0.221 7.16 2.15 9.75
11/6/2020 1:00:00 AM 7.4 45.32 0.221 7.17 2.17 9.71
11/6/2020 1:15:00 AM 7.4 45.32 0.221 7.17 2.19 9.66
11/6/2020 1:30:00 AM 7.38 45.284 0.221 7.17 2.12 9.67
11/6/2020 1:45:00 AM 7.36 45.248 0.221 7.17 2.21 9.67
11/6/2020 2:00:00 AM 7.35 45.23 0.221 7.16 2.08 9.64
11/6/2020 2:15:00 AM 7.34 45.212 0.221 7.15 2.21 9.55
11/6/2020 2:30:00 AM 7.3 45.14 0.221 7.13 2.19 9.59
11/6/2020 2:45:00 AM 7.26 45.068 0.221 7.13 2.16 9.59
11/6/2020 3:00:00 AM 7.22 44.996 0.221 7.13 2.23 9.6
11/6/2020 3:15:00 AM 7.19 44.942 0.221 7.12 2.17 9.6
11/6/2020 3:30:00 AM 7.16 44.888 0.221 7.11 2.15 9.53
11/6/2020 3:45:00 AM 7.07 44.726 0.222 7.12 2.2 9.62
11/6/2020 4:00:00 AM 7.06 44.708 0.221 7.12 2.22 9.54
11/6/2020 4:15:00 AM 7.02 44.636 0.221 7.12 2.14 9.54
11/6/2020 4:30:00 AM 6.91 44.438 0.222 7.11 2.24 9.65
11/6/2020 4:45:00 AM 6.83 44.294 0.222 7.14 2.31 9.71
11/6/2020 5:00:00 AM 6.81 44.258 0.222 7.13 2.18 9.66
11/6/2020 5:15:00 AM 6.77 44.186 0.222 7.12 2.26 9.67
11/6/2020 5:30:00 AM 6.7 44.06 0.222 7.1 2.23 9.67
11/6/2020 5:45:00 AM 6.67 44.006 0.221 7.09 2.33 9.62
11/6/2020 6:00:00 AM 6.62 43.916 0.221 7.09 2.38 9.63
11/6/2020 6:15:00 AM 6.56 43.808 0.222 7.11 2.25 9.66
11/6/2020 6:30:00 AM 6.49 43.682 0.222 7.1 2.26 9.77
11/6/2020 6:45:00 AM 6.44 43.592 0.223 7.12 2.39 9.79
11/6/2020 7:00:00 AM 6.4 43.52 0.223 7.13 2.28 9.8
11/6/2020 7:15:00 AM 6.36 43.448 0.223 7.13 2.35 9.79
11/6/2020 7:30:00 AM 6.33 43.394 0.222 7.12 2.39 9.77
11/6/2020 7:45:00 AM 6.27 43.286 0.222 7.11 2.32 9.78
11/6/2020 8:00:00 AM 6.23 43.214 0.223 7.11 2.39 9.85
11/6/2020 8:15:00 AM 6.26 43.268 0.222 7.1 2.37 9.81
11/6/2020 8:30:00 AM 6.26 43.268 0.222 7.1 2.59 9.84
11/6/2020 8:45:00 AM 6.26 43.268 0.223 7.12 2.41 9.91
11/6/2020 9:00:00 AM 6.3 43.34 0.222 7.11 2.36 9.9
11/6/2020 9:15:00 AM 6.34 43.412 0.223 7.11 2.41 9.93
11/6/2020 9:30:00 AM 6.44 43.592 0.222 7.1 2.4 9.88
11/6/2020 9:45:00 AM 6.53 43.754 0.221 7.1 2.42 9.92
11/6/2020 10:00:00 AM 6.6 43.88 0.221 7.1 2.34 10.04
11/6/2020 10:15:00 AM 6.8 44.24 0.219 7.08 2.35 9.99
11/6/2020 10:30:00 AM 6.93 44.474 0.219 7.08 2.32 10.1
11/6/2020 10:45:00 AM 7.08 44.744 0.218 7.09 2.29 10.15
11/6/2020 11:00:00 AM 7.18 44.924 0.219 7.09 2.36 10.3
11/6/2020 11:15:00 AM 7.32 45.176 0.219 7.1 2.96 10.43
11/6/2020 11:30:00 AM 7.47 45.446 0.219 7.12 2.45 10.51
11/6/2020 11:45:00 AM 7.66 45.788 0.219 7.12 2.26 10.57
11/6/2020 12:00:00 PM 7.89 46.202 0.218 7.12 2.26 10.59
11/6/2020 12:15:00 PM 8.23 46.814 0.217 7.12 2.29 10.63
11/6/2020 12:30:00 PM 8.57 47.426 0.217 7.12 2.24 10.58
11/6/2020 12:45:00 PM 8.91 48.038 0.217 7.15 2.23 10.72
11/6/2020 1:00:00 PM 9.23 48.614 0.217 7.16 2.18 10.77
11/6/2020 1:15:00 PM 9.58 49.244 0.216 7.17 2.18 10.83
11/6/2020 1:30:00 PM 9.83 49.694 0.216 7.17 2.16 10.85
11/6/2020 1:45:00 PM 10.22 50.396 0.217 7.19 2.17 10.93
11/6/2020 2:00:00 PM 10.54 50.972 0.217 7.21 2.27 10.89
11/6/2020 2:15:00 PM 10.73 51.314 0.217 7.22 2.18 11
11/6/2020 2:30:00 PM 10.89 51.602 0.217 7.24 2.22 10.89
11/6/2020 2:45:00 PM 11.08 51.944 0.218 7.25 2.24 10.94
11/6/2020 3:00:00 PM 11.17 52.106 0.218 7.25 2.27 10.89
11/6/2020 3:15:00 PM 11.2 52.16 0.218 7.25 2.27 10.83
11/6/2020 3:30:00 PM 11.14 52.052 0.218 7.24 3.32 10.8
11/6/2020 3:45:00 PM 11.05 51.89 0.217 7.23 2.31 10.69
11/6/2020 4:00:00 PM 10.92 51.656 0.217 7.23 2.26 10.7
11/6/2020 4:15:00 PM 10.77 51.386 0.217 7.2 2.33 10.55
11/6/2020 4:30:00 PM 10.57 51.026 0.217 7.17 2.74 10.55
11/6/2020 4:45:00 PM 10.32 50.576 0.216 7.11 2.24 10.22
11/6/2020 5:00:00 PM 10.16 50.288 0.215 7.12 2.69 10.02
11/6/2020 5:15:00 PM 9.98 49.964 0.214 7.07 2.38 9.77
11/6/2020 5:30:00 PM 9.83 49.694 0.214 7.05 2.4 9.6
11/6/2020 5:45:00 PM 9.67 49.406 0.216 7.08 2.37 9.76
11/6/2020 6:00:00 PM 9.54 49.172 0.216 7.1 2.29 9.67
11/6/2020 6:15:00 PM 9.4 48.92 0.216 7.09 2.24 9.56
11/6/2020 6:30:00 PM 9.29 48.722 0.216 7.1 2.25 9.48
11/6/2020 6:45:00 PM 9.15 48.47 0.217 7.15 2.18 9.64
11/6/2020 7:00:00 PM 9.08 48.344 0.217 7.13 2.13 9.47
11/6/2020 7:15:00 PM 9 48.2 0.217 7.13 2.19 9.28
11/6/2020 7:30:00 PM 8.94 48.092 0.217 7.12 2.09 9.22
11/6/2020 7:45:00 PM 8.87 47.966 0.217 7.11 2.31 9.15
11/6/2020 8:00:00 PM 8.81 47.858 0.217 7.11 2.5 9.16
11/6/2020 8:15:00 PM 8.74 47.732 0.217 7.12 2.14 9.04
11/6/2020 8:30:00 PM 8.66 47.588 0.218 7.13 2.15 9.05
11/6/2020 8:45:00 PM 8.61 47.498 0.218 7.14 2.36 9.06
11/6/2020 9:00:00 PM 8.56 47.408 0.219 7.17 2.19 9.07
11/6/2020 9:15:00 PM 8.51 47.318 0.219 7.16 2.11 9.04
11/6/2020 9:30:00 PM 8.47 47.246 0.219 7.14 2.08 8.94
11/6/2020 9:45:00 PM 8.44 47.192 0.219 7.14 2.12 8.86
11/6/2020 10:00:00 PM 8.38 47.084 0.219 7.16 2.14 8.87
11/6/2020 10:15:00 PM 8.34 47.012 0.218 7.14 2.12 8.81
11/6/2020 10:30:00 PM 8.27 46.886 0.219 7.16 2.15 8.8
11/6/2020 10:45:00 PM 8.22 46.796 0.219 7.18 2.2 8.86
11/6/2020 11:00:00 PM 8.19 46.742 0.219 7.15 2.08 8.74
11/6/2020 11:15:00 PM 8.13 46.634 0.219 7.14 2.14 8.8
11/6/2020 11:30:00 PM 8.08 46.544 0.219 7.13 2.24 8.81
11/6/2020 11:45:00 PM 8.05 46.49 0.219 7.12 2.13 8.63
11/7/2020 12:00:00 AM 7.98 46.364 0.218 7.1 2.17 8.76
11/7/2020 12:15:00 AM 7.96 46.328 0.218 7.1 2.18 8.65
11/7/2020 12:30:00 AM 7.88 46.184 0.218 7.08 2.21 8.71
11/7/2020 12:45:00 AM 7.83 46.094 0.218 7.08 2.19 8.72
11/7/2020 1:00:00 AM 7.79 46.022 0.218 7.08 2.12 8.61
11/7/2020 1:15:00 AM 7.74 45.932 0.218 7.08 2.15 8.61
11/7/2020 1:30:00 AM 7.7 45.86 0.218 7.07 2.12 8.6
11/7/2020 1:45:00 AM 7.65 45.77 0.218 7.06 2.13 8.61
11/7/2020 2:00:00 AM 7.63 45.734 0.217 7.05 2.17 8.54
11/7/2020 2:15:00 AM 7.65 45.77 0.216 7.02 2.13 8.36
11/7/2020 2:30:00 AM 7.58 45.644 0.216 7.02 2.11 8.34
11/7/2020 2:45:00 AM 7.54 45.572 0.216 7.02 2.18 8.38
11/7/2020 3:00:00 AM 7.47 45.446 0.218 7.03 2.29 8.43
11/7/2020 3:15:00 AM 7.39 45.302 0.218 7.03 2.16 8.52
11/7/2020 3:30:00 AM 7.36 45.248 0.218 7.04 2.26 8.52
11/7/2020 3:45:00 AM 7.3 45.14 0.218 7.03 2.37 8.4
11/7/2020 4:00:00 AM 7.23 45.014 0.218 7.05 2.24 8.51
11/7/2020 4:15:00 AM 7.18 44.924 0.219 7.05 2.48 8.44
11/7/2020 4:30:00 AM 7.15 44.87 0.218 7.04 2.36 8.34
11/7/2020 4:45:00 AM 7.12 44.816 0.218 7.03 2.35 8.38
11/7/2020 5:00:00 AM 7.08 44.744 0.218 7.02 2.31 8.34
11/7/2020 5:15:00 AM 7.03 44.654 0.218 7.01 2.21 8.36
11/7/2020 5:30:00 AM 7.03 44.654 0.218 7.01 2.22 8.24
11/7/2020 5:45:00 AM 6.99 44.582 0.218 7.01 2.17 8.24
11/7/2020 6:00:00 AM 6.98 44.564 0.218 7.01 2.2 8.18
11/7/2020 6:15:00 AM 6.97 44.546 0.217 6.98 2.17 8.13
11/7/2020 6:30:00 AM 6.93 44.474 0.218 6.98 2.16 8.13
11/7/2020 6:45:00 AM 6.91 44.438 0.217 6.98 2.14 8.06
11/7/2020 7:00:00 AM 6.87 44.366 0.216 6.97 2.12 8.01
11/7/2020 7:15:00 AM 6.86 44.348 0.216 6.97 2.23 7.95
11/7/2020 7:30:00 AM 6.85 44.33 0.216 6.97 2.2 7.98
11/7/2020 7:45:00 AM 6.84 44.312 0.216 6.96 2.48 7.94
11/7/2020 8:00:00 AM 6.8 44.24 0.217 6.96 2.22 8
11/7/2020 8:15:00 AM 6.8 44.24 0.216 6.96 2.31 7.93
11/7/2020 8:30:00 AM 6.76 44.168 0.217 6.96 2.16 8.13
11/7/2020 8:45:00 AM 6.81 44.258 0.217 6.95 2.36 8.07
11/7/2020 9:00:00 AM 6.85 44.33 0.216 6.94 2.25 8.13
11/7/2020 9:15:00 AM 6.92 44.456 0.215 6.96 2.17 8.07
11/7/2020 9:30:00 AM 6.96 44.528 0.215 6.95 2.19 8.19
11/7/2020 9:45:00 AM 7.06 44.708 0.215 6.95 2.26 8.21
11/7/2020 10:00:00 AM 7.16 44.888 0.214 6.95 2.13 8.23
11/7/2020 10:15:00 AM 7.23 45.014 0.214 6.95 2.14 8.26
11/7/2020 10:30:00 AM 7.32 45.176 0.214 6.96 2.22 8.4
11/7/2020 10:45:00 AM 7.47 45.446 0.213 6.96 2.21 8.46
11/7/2020 11:00:00 AM 7.58 45.644 0.213 6.95 2.2 8.41
11/7/2020 11:15:00 AM 7.72 45.896 0.212 6.95 2.26 8.45
11/7/2020 11:30:00 AM 7.77 45.986 0.214 6.97 2.39 8.62
11/7/2020 11:45:00 AM 7.92 46.256 0.213 6.98 2.2 8.82
11/7/2020 12:00:00 PM 8.11 46.598 0.214 7 2.25 8.99
11/7/2020 12:15:00 PM 8.35 47.03 0.213 6.99 2.22 8.91
11/7/2020 12:30:00 PM 8.61 47.498 0.214 7.01 2.35 9.22
11/7/2020 12:45:00 PM 8.86 47.948 0.214 7.04 2.13 9.38
11/7/2020 1:00:00 PM 9.07 48.326 0.213 7.05 2.59 9.47
11/7/2020 1:15:00 PM 9.3 48.74 0.214 7.05 2.2 9.71
11/7/2020 1:30:00 PM 9.64 49.352 0.214 7.07 2.3 9.74
11/7/2020 1:45:00 PM 9.97 49.946 0.213 7.08 2.17 9.87
11/7/2020 2:00:00 PM 10.2 50.36 0.213 7.08 2.31 9.71
11/7/2020 2:15:00 PM 10.22 50.396 0.213 7.09 2.29 9.99
11/7/2020 2:30:00 PM 10.37 50.666 0.212 7.09 2.28 9.88
11/7/2020 2:45:00 PM 10.43 50.774 0.212 7.07 2.31 9.88
11/7/2020 3:00:00 PM 10.64 51.152 0.212 7.07 2.45 9.84
11/7/2020 3:15:00 PM 10.76 51.368 0.212 7.06 2.31 9.84
11/7/2020 3:30:00 PM 10.91 51.638 0.211 7.06 2.23 9.78
11/7/2020 3:45:00 PM 10.96 51.728 0.213 7.06 2.24 9.8
11/7/2020 4:00:00 PM 10.97 51.746 0.211 7.04 2.29 9.55
11/7/2020 4:15:00 PM 10.94 51.692 0.208 6.99 2.28 9.26
11/7/2020 4:30:00 PM 10.88 51.584 0.208 6.97 2.1 9.33
11/7/2020 4:45:00 PM 10.81 51.458 0.207 6.96 2.37 8.9
11/7/2020 5:00:00 PM 10.74 51.332 0.207 6.94 2.12 8.99
11/7/2020 5:15:00 PM 10.67 51.206 0.207 6.95 2.49 8.95
11/7/2020 5:30:00 PM 10.57 51.026 0.206 6.94 2.24 8.8
11/7/2020 5:45:00 PM 10.48 50.864 0.207 6.95 2.27 8.81
11/7/2020 6:00:00 PM 10.39 50.702 0.207 6.94 2.25 8.73
11/7/2020 6:15:00 PM 10.28 50.504 0.207 6.94 2.22 8.64
11/7/2020 6:30:00 PM 10.19 50.342 0.207 6.95 2.16 8.59
11/7/2020 6:45:00 PM 10.09 50.162 0.207 6.96 2.19 8.58
11/7/2020 7:00:00 PM 9.98 49.964 0.208 6.94 2.2 8.57
11/7/2020 7:15:00 PM 9.88 49.784 0.207 6.94 2.13 8.49
11/7/2020 7:30:00 PM 9.79 49.622 0.208 6.94 2.13 8.48
11/7/2020 7:45:00 PM 9.7 49.46 0.207 6.93 2.11 8.35
11/7/2020 8:00:00 PM 9.6 49.28 0.207 6.92 2.17 8.35
11/7/2020 8:15:00 PM 9.52 49.136 0.208 6.93 2.04 8.3
11/7/2020 8:30:00 PM 9.43 48.974 0.207 6.91 2.3 8.15
11/7/2020 8:45:00 PM 9.35 48.83 0.207 6.92 2.09 8.11
11/7/2020 9:00:00 PM 9.27 48.686 0.208 6.91 2.13 8
11/7/2020 9:15:00 PM 9.21 48.578 0.209 6.92 2.1 8.04
11/7/2020 9:30:00 PM 9.11 48.398 0.21 6.93 2.14 8.07
11/7/2020 9:45:00 PM 9.03 48.254 0.209 6.93 2.2 7.92
11/7/2020 10:00:00 PM 8.94 48.092 0.209 6.92 2.13 7.94
11/7/2020 10:15:00 PM 8.88 47.984 0.209 6.93 2.18 7.96
11/7/2020 10:30:00 PM 8.83 47.894 0.209 6.94 2.15 7.88
11/7/2020 10:45:00 PM 8.73 47.714 0.209 6.93 2.28 7.85
11/7/2020 11:00:00 PM 8.68 47.624 0.21 6.92 2.13 7.75
11/7/2020 11:15:00 PM 8.62 47.516 0.209 6.92 2.29 7.74
11/7/2020 11:30:00 PM 8.55 47.39 0.21 6.92 2.22 7.72
11/7/2020 11:45:00 PM 8.48 47.264 0.21 6.93 2.23 7.68
11/8/2020 12:00:00 AM 8.44 47.192 0.21 6.92 2.34 7.62
11/8/2020 12:15:00 AM 8.37 47.066 0.21 6.92 2.11 7.52
11/8/2020 12:30:00 AM 8.3 46.94 0.21 6.91 2.19 7.55
11/8/2020 12:45:00 AM 8.26 46.868 0.21 6.91 2.14 7.46
11/8/2020 1:00:00 AM 8.2 46.76 0.21 6.91 2.1 7.43
11/8/2020 1:15:00 AM 8.12 46.616 0.21 6.91 2.24 7.41
11/8/2020 1:30:00 AM 8.06 46.508 0.21 6.91 2.17 7.39
11/8/2020 1:45:00 AM 8.02 46.436 0.21 6.91 2.21 7.39
11/8/2020 2:00:00 AM 7.98 46.364 0.21 6.9 2.13 7.33
11/8/2020 2:15:00 AM 7.94 46.292 0.21 6.89 2.4 7.25
11/8/2020 2:30:00 AM 7.88 46.184 0.21 6.89 2.51 7.26
11/8/2020 2:45:00 AM 7.83 46.094 0.21 6.89 2.26 7.23
11/8/2020 3:00:00 AM 7.77 45.986 0.211 6.89 2.53 7.22
11/8/2020 3:15:00 AM 7.71 45.878 0.211 6.89 2.37 7.2
11/8/2020 3:30:00 AM 7.68 45.824 0.211 6.88 2.53 7.17
11/8/2020 3:45:00 AM 7.63 45.734 0.211 6.89 2.3 7.18
11/8/2020 4:00:00 AM 7.6 45.68 0.211 6.88 2.86 7.1
11/8/2020 4:15:00 AM 7.54 45.572 0.211 6.88 2.27 7.09
11/8/2020 4:30:00 AM 7.5 45.5 0.211 6.87 2.29 7.08
11/8/2020 4:45:00 AM 7.45 45.41 0.211 6.87 2.31 7.05
11/8/2020 5:00:00 AM 7.4 45.32 0.211 6.88 2.25 7.04
11/8/2020 5:15:00 AM 7.36 45.248 0.211 6.87 2.28 7.02
11/8/2020 5:30:00 AM 7.32 45.176 0.212 6.89 2.24 7.03
11/8/2020 5:45:00 AM 7.26 45.068 0.212 6.88 2.2 7.04
11/8/2020 6:00:00 AM 7.21 44.978 0.212 6.87 2.26 7.02
11/8/2020 6:15:00 AM 7.16 44.888 0.212 6.87 2.46 6.94
11/8/2020 6:30:00 AM 7.14 44.852 0.212 6.87 2.27 6.94
11/8/2020 6:45:00 AM 7.11 44.798 0.211 6.87 2.27 6.76
11/8/2020 7:00:00 AM 7.04 44.672 0.211 6.86 2.57 6.78
11/8/2020 7:15:00 AM 7.03 44.654 0.211 6.87 2.24 6.78
11/8/2020 7:30:00 AM 7.02 44.636 0.211 6.85 2.33 6.69
11/8/2020 7:45:00 AM 6.99 44.582 0.211 6.85 2.32 6.74
11/8/2020 8:00:00 AM 6.98 44.564 0.211 6.85 2.5 6.74
11/8/2020 8:15:00 AM 6.96 44.528 0.21 6.83 2.36 6.68
11/8/2020 8:30:00 AM 6.95 44.51 0.21 6.85 2.36 6.7
11/8/2020 8:45:00 AM 6.93 44.474 0.21 6.87 2.37 6.69
11/8/2020 9:00:00 AM 6.95 44.51 0.21 6.86 2.75 6.68
11/8/2020 9:15:00 AM 6.99 44.582 0.209 6.86 2.33 6.66
11/8/2020 9:30:00 AM 7.06 44.708 0.207 6.85 2.64 6.52
11/8/2020 9:45:00 AM 7.12 44.816 0.209 6.86 2.34 6.67
11/8/2020 10:00:00 AM 7.19 44.942 0.208 6.86 2.35 6.73
11/8/2020 10:15:00 AM 7.24 45.032 0.208 6.86 2.35 6.81
11/8/2020 10:30:00 AM 7.28 45.104 0.208 6.87 2.64 6.96
11/8/2020 10:45:00 AM 7.35 45.23 0.208 6.88 3.18 7.16
11/8/2020 11:00:00 AM 7.45 45.41 0.207 6.87 2.45 7.09
11/8/2020 11:15:00 AM 7.57 45.626 0.207 6.86 2.37 7.18
11/8/2020 11:30:00 AM 7.66 45.788 0.207 6.87 2.51 7.11
11/8/2020 11:45:00 AM 7.77 45.986 0.207 6.88 2.75 7.35
11/8/2020 12:00:00 PM 7.91 46.238 0.206 6.89 2.41 7.34
11/8/2020 12:15:00 PM 8.03 46.454 0.206 6.88 2.43 7.27
11/8/2020 12:30:00 PM 8.25 46.85 0.206 6.88 2.43 7.58
11/8/2020 12:45:00 PM 8.44 47.192 0.205 6.88 2.33 7.65
11/8/2020 1:00:00 PM 8.64 47.552 0.205 6.88 2.5 7.57
11/8/2020 1:15:00 PM 8.83 47.894 0.205 6.88 2.32 7.59
11/8/2020 1:30:00 PM 9 48.2 0.205 6.88 2.29 7.73
11/8/2020 1:45:00 PM 9.13 48.434 0.205 6.89 2.33 7.87
11/8/2020 2:00:00 PM 9.29 48.722 0.205 6.9 2.29 7.96
11/8/2020 2:15:00 PM 9.41 48.938 0.204 6.92 2.25 7.88
11/8/2020 2:30:00 PM 9.45 49.01 0.204 6.92 2.28 7.8
11/8/2020 2:45:00 PM 9.49 49.082 0.204 6.91 2.21 7.72
11/8/2020 3:00:00 PM 9.5 49.1 0.204 6.9 2.31 7.66
11/8/2020 3:15:00 PM 9.63 49.334 0.203 6.9 4.55 7.4
11/8/2020 3:30:00 PM 9.61 49.298 0.204 6.9 2.37 7.35
11/8/2020 3:45:00 PM 9.66 49.388 0.203 6.9 2.55 7.38
11/8/2020 4:00:00 PM 9.66 49.388 0.204 6.9 2.33 7.38
11/8/2020 4:15:00 PM 9.73 49.514 0.203 6.9 2.56 7.31
11/8/2020 4:30:00 PM 9.71 49.478 0.204 6.89 2.24 7.27
11/8/2020 4:45:00 PM 9.75 49.55 0.203 6.89 2.26 7.16
11/8/2020 5:00:00 PM 9.8 49.64 0.204 6.89 2.24 7.08
11/8/2020 5:15:00 PM 9.78 49.604 0.204 6.88 2.24 7.09
11/8/2020 5:30:00 PM 9.86 49.748 0.205 6.85 2.5 6.8
11/8/2020 5:45:00 PM 9.83 49.694 0.205 6.86 2.25 6.77
11/8/2020 6:00:00 PM 9.86 49.748 0.204 6.85 2.17 6.7
11/8/2020 6:15:00 PM 9.85 49.73 0.205 6.85 2.13 6.66
11/8/2020 6:30:00 PM 9.82 49.676 0.205 6.84 2.17 6.53
11/8/2020 6:45:00 PM 9.81 49.658 0.205 6.83 2.15 6.51
11/8/2020 7:00:00 PM 9.79 49.622 0.205 6.83 2.32 6.38
11/8/2020 7:15:00 PM 9.77 49.586 0.204 6.82 2.13 6.32
11/8/2020 7:30:00 PM 9.73 49.514 0.204 6.81 2.18 6.14
11/8/2020 7:45:00 PM 9.7 49.46 0.202 6.81 2.36 6.39
11/8/2020 8:00:00 PM 9.65 49.37 0.2 6.81 2.2 6.55
11/8/2020 8:15:00 PM 9.6 49.28 0.204 6.83 2.29 6.99
11/8/2020 8:30:00 PM 9.56 49.208 0.204 6.85 2.31 7.13
11/8/2020 8:45:00 PM 9.52 49.136 0.211 6.86 2.52 6.92
11/8/2020 9:00:00 PM 9.48 49.064 0.21 6.86 2.45 6.7
11/8/2020 9:15:00 PM 9.43 48.974 0.208 6.86 2.22 6.5
11/8/2020 9:30:00 PM 9.37 48.866 0.205 6.85 2.18 6.79
11/8/2020 9:45:00 PM 9.29 48.722 0.203 6.85 2.28 6.84
11/8/2020 10:00:00 PM 9.24 48.632 0.203 6.83 2.18 6.88
11/8/2020 10:15:00 PM 9.18 48.524 0.203 6.83 2.24 6.95
11/8/2020 10:30:00 PM 9.11 48.398 0.202 6.83 2.23 6.83
11/8/2020 10:45:00 PM 9.05 48.29 0.201 6.83 2.22 6.78
11/8/2020 11:00:00 PM 8.99 48.182 0.201 6.81 2.51 6.86
11/8/2020 11:15:00 PM 8.94 48.092 0.202 6.82 2.26 6.85
11/8/2020 11:30:00 PM 8.87 47.966 0.203 6.82 2.23 6.81
11/8/2020 11:45:00 PM 8.81 47.858 0.202 6.82 2.24 6.84
11/9/2020 12:00:00 AM 8.76 47.768 0.202 6.82 2.29 6.8
11/9/2020 12:15:00 AM 8.69 47.642 0.202 6.82 2.27 6.75
11/9/2020 12:30:00 AM 8.63 47.534 0.202 6.8 2.29 6.73
11/9/2020 12:45:00 AM 8.59 47.462 0.203 6.81 2.46 6.73
11/9/2020 1:00:00 AM 8.54 47.372 0.202 6.81 2.22 6.62
11/9/2020 1:15:00 AM 8.49 47.282 0.202 6.79 2.24 6.58
11/9/2020 1:30:00 AM 8.43 47.174 0.202 6.79 2.22 6.51
11/9/2020 1:45:00 AM 8.38 47.084 0.201 6.78 2.28 6.48
11/9/2020 2:00:00 AM 8.33 46.994 0.202 6.78 2.36 6.38
11/9/2020 2:15:00 AM 8.29 46.922 0.201 6.78 2.31 6.43
11/9/2020 2:30:00 AM 8.26 46.868 0.201 6.75 2.4 6.3
11/9/2020 2:45:00 AM 8.19 46.742 0.2 6.76 2.39 6.28
11/9/2020 3:00:00 AM 8.16 46.688 0.201 6.76 2.4 6.27
11/9/2020 3:15:00 AM 8.13 46.634 0.201 6.76 2.24 6.19
11/9/2020 3:30:00 AM 8.09 46.562 0.201 6.76 2.28 6.2
11/9/2020 3:45:00 AM 8.03 46.454 0.2 6.76 2.24 6.23
11/9/2020 4:00:00 AM 7.99 46.382 0.2 6.75 2.34 6.17
11/9/2020 4:15:00 AM 7.96 46.328 0.2 6.75 2.36 6.16
11/9/2020 4:30:00 AM 7.94 46.292 0.2 6.74 2.25 6.08
11/9/2020 4:45:00 AM 7.91 46.238 0.2 6.74 2.26 6.06
11/9/2020 5:00:00 AM 7.87 46.166 0.2 6.73 2.36 5.98
11/9/2020 5:15:00 AM 7.83 46.094 0.199 6.72 2.28 5.97
11/9/2020 5:30:00 AM 7.8 46.04 0.199 6.72 2.45 5.94
11/9/2020 5:45:00 AM 7.76 45.968 0.199 6.71 2.32 5.87
11/9/2020 6:00:00 AM 7.7 45.86 0.199 6.71 2.39 5.86
11/9/2020 6:15:00 AM 7.68 45.824 0.199 6.7 2.27 5.81
11/9/2020 6:30:00 AM 7.63 45.734 0.199 6.7 2.25 5.83
11/9/2020 6:45:00 AM 7.61 45.698 0.199 6.7 2.57 5.78
11/9/2020 7:00:00 AM 7.6 45.68 0.199 6.69 2.32 5.72
11/9/2020 7:15:00 AM 7.55 45.59 0.199 6.69 2.57 5.73
11/9/2020 7:30:00 AM 7.52 45.536 0.198 6.69 2.33 5.72
11/9/2020 7:45:00 AM 7.49 45.482 0.198 6.68 2.25 5.72
11/9/2020 8:00:00 AM 7.49 45.482 0.198 6.68 2.32 5.7
11/9/2020 8:15:00 AM 7.47 45.446 0.198 6.68 2.57 5.7
11/9/2020 8:30:00 AM 7.46 45.428 0.198 6.67 2.29 5.72
11/9/2020 8:45:00 AM 7.45 45.41 0.198 6.68 2.27 5.71
11/9/2020 9:00:00 AM 7.44 45.392 0.198 6.68 2.28 5.76
11/9/2020 9:15:00 AM 7.45 45.41 0.197 6.67 2.27 5.79
11/9/2020 9:30:00 AM 7.49 45.482 0.197 6.67 2.37 5.79
11/9/2020 9:45:00 AM 7.57 45.626 0.197 6.68 2.28 5.79
11/9/2020 10:00:00 AM 7.61 45.698 0.196 6.68 2.15 5.84
11/9/2020 10:15:00 AM 7.69 45.842 0.196 6.68 2.19 5.87
11/9/2020 10:30:00 AM 7.75 45.95 0.196 6.68 2.22 6.04
11/9/2020 10:45:00 AM 7.85 46.13 0.196 6.69 2.19 6.14
11/9/2020 11:00:00 AM 7.95 46.31 0.195 6.69 2.24 6.19
11/9/2020 11:15:00 AM 8.01 46.418 0.196 6.69 2.22 6.25
11/9/2020 11:30:00 AM 8.12 46.616 0.195 6.69 2.25 6.38
11/9/2020 11:45:00 AM 8.21 46.778 0.195 6.7 2.27 6.45
11/9/2020 12:00:00 PM 8.35 47.03 0.194 6.71 2.24 6.44
11/9/2020 12:15:00 PM 8.51 47.318 0.195 6.71 2.27 6.68
11/9/2020 12:30:00 PM 8.73 47.714 0.194 6.73 3.03 6.82
11/9/2020 12:45:00 PM 8.86 47.948 0.195 6.74 2.24 6.93
11/9/2020 1:00:00 PM 9.09 48.362 0.195 6.75 2.22 7.09
11/9/2020 1:15:00 PM 9.23 48.614 0.195 6.76 2.21 7.4
11/9/2020 1:30:00 PM 9.4 48.92 0.196 6.78 2.3 7.53
11/9/2020 1:45:00 PM 9.56 49.208 0.196 6.78 2.22 7.67
11/9/2020 2:00:00 PM 9.71 49.478 0.196 6.79 2.26 7.73
11/9/2020 2:15:00 PM 9.71 49.478 0.196 6.78 2.39 7.82
11/9/2020 2:30:00 PM 9.84 49.712 0.195 6.79 2.24 7.55
11/9/2020 2:45:00 PM 9.86 49.748 0.195 6.78 2.15 7.49
11/9/2020 3:00:00 PM 9.85 49.73 0.196 6.77 2.16 7.49
11/9/2020 3:15:00 PM 9.9 49.82 0.196 6.79 2.21 7.33
11/9/2020 3:30:00 PM 9.92 49.856 0.196 6.79 2.23 7.31
11/9/2020 3:45:00 PM 9.98 49.964 0.196 6.8 2.2 7.25
11/9/2020 4:00:00 PM 10 50 0.196 6.79 2.2 7.25
11/9/2020 4:15:00 PM 10.03 50.054 0.196 6.79 2.5 7.21
11/9/2020 4:30:00 PM 10.05 50.09 0.196 6.79 2.32 7.01
11/9/2020 4:45:00 PM 10.08 50.144 0.197 6.79 2.48 6.94
11/9/2020 5:00:00 PM 10.05 50.09 0.197 6.79 2.28 6.93
11/9/2020 5:15:00 PM 10.11 50.198 0.197 6.78 2.16 6.85
11/9/2020 5:30:00 PM 10.09 50.162 0.197 6.77 2.24 6.76
11/9/2020 5:45:00 PM 10.1 50.18 0.197 6.77 2.29 6.68
11/9/2020 6:00:00 PM 10.1 50.18 0.197 6.77 2.27 6.71
11/9/2020 6:15:00 PM 10.08 50.144 0.197 6.76 2.43 6.62
11/9/2020 6:30:00 PM 10.08 50.144 0.197 6.77 2.31 6.59
11/9/2020 6:45:00 PM 10.06 50.108 0.197 6.76 2.25 6.53
11/9/2020 7:00:00 PM 10.03 50.054 0.197 6.76 2.31 6.51
11/9/2020 7:15:00 PM 10 50 0.197 6.75 2.32 6.58
11/9/2020 7:30:00 PM 9.95 49.91 0.2 6.76 2.31 6.65
11/9/2020 7:45:00 PM 9.9 49.82 0.196 6.76 2.27 6.82
11/9/2020 8:00:00 PM 9.86 49.748 0.196 6.76 2.33 6.79
11/9/2020 8:15:00 PM 9.82 49.676 0.199 6.76 2.38 6.51
11/9/2020 8:30:00 PM 9.77 49.586 0.196 6.76 2.5 6.59
11/9/2020 8:45:00 PM 9.74 49.532 0.197 6.74 2.4 6.35
11/9/2020 9:00:00 PM 9.69 49.442 0.197 6.75 2.31 6.28
11/9/2020 9:15:00 PM 9.68 49.424 0.199 6.75 2.38 5.99
11/9/2020 9:30:00 PM 9.63 49.334 0.197 6.75 3.41 6.03
11/9/2020 9:45:00 PM 9.62 49.316 0.199 6.74 2.46 5.79
11/9/2020 10:00:00 PM 9.56 49.208 0.197 6.74 2.36 5.71
11/9/2020 10:15:00 PM 9.51 49.118 0.196 6.73 2.59 5.82
11/9/2020 10:30:00 PM 9.47 49.046 0.195 6.72 2.27 5.92
11/9/2020 10:45:00 PM 9.42 48.956 0.195 6.72 2.74 5.85
11/9/2020 11:00:00 PM 9.38 48.884 0.195 6.71 2.3 5.81
11/9/2020 11:15:00 PM 9.32 48.776 0.195 6.72 2.49 5.84
11/9/2020 11:30:00 PM 9.23 48.614 0.194 6.72 2.26 5.96
11/9/2020 11:45:00 PM 9.21 48.578 0.194 6.71 3.03 5.94
11/10/2020 12:00:00 AM 9.16 48.488 0.194 6.71 2.42 5.94
11/10/2020 12:15:00 AM 9.13 48.434 0.194 6.71 2.44 5.88
11/10/2020 12:30:00 AM 9.08 48.344 0.193 6.71 2.32 5.83
11/10/2020 12:45:00 AM 9.05 48.29 0.194 6.72 2.33 5.86
11/10/2020 1:00:00 AM 9 48.2 0.194 6.72 2.31 5.79
11/10/2020 1:15:00 AM 8.96 48.128 0.194 6.71 2.36 5.79
11/10/2020 1:30:00 AM 8.91 48.038 0.194 6.71 2.36 5.78
11/10/2020 1:45:00 AM 8.87 47.966 0.194 6.71 2.48 5.76
11/10/2020 2:00:00 AM 8.83 47.894 0.193 6.71 2.38 5.74
11/10/2020 2:15:00 AM 8.8 47.84 0.194 6.7 2.37 5.72
11/10/2020 2:30:00 AM 8.75 47.75 0.193 6.71 2.42 5.71
11/10/2020 2:45:00 AM 8.72 47.696 0.193 6.7 2.47 5.71
11/10/2020 3:00:00 AM 8.68 47.624 0.193 6.7 2.48 5.66
11/10/2020 3:15:00 AM 8.63 47.534 0.193 6.7 2.43 5.67
11/10/2020 3:30:00 AM 8.59 47.462 0.193 6.7 2.35 5.63
11/10/2020 3:45:00 AM 8.56 47.408 0.193 6.69 2.29 5.65
11/10/2020 4:00:00 AM 8.53 47.354 0.193 6.69 2.34 5.59
11/10/2020 4:15:00 AM 8.49 47.282 0.193 6.69 2.69 5.63
11/10/2020 4:30:00 AM 8.46 47.228 0.193 6.69 2.54 5.63
11/10/2020 4:45:00 AM 8.42 47.156 0.193 6.69 2.45 5.62
11/10/2020 5:00:00 AM 8.37 47.066 0.193 6.69 2.4 5.64
11/10/2020 5:15:00 AM 8.35 47.03 0.193 6.69 2.43 5.61
11/10/2020 5:30:00 AM 8.32 46.976 0.193 6.69 2.49 5.57
11/10/2020 5:45:00 AM 8.29 46.922 0.193 6.69 2.43 5.58
11/10/2020 6:00:00 AM 8.26 46.868 0.193 6.69 3.69 5.6
11/10/2020 6:15:00 AM 8.25 46.85 0.193 6.69 2.65 5.56
11/10/2020 6:30:00 AM 8.22 46.796 0.193 6.69 2.56 5.54
11/10/2020 6:45:00 AM 8.19 46.742 0.193 6.69 2.41 5.53
11/10/2020 7:00:00 AM 8.18 46.724 0.194 6.68 2.49 5.47
11/10/2020 7:15:00 AM 8.15 46.67 0.194 6.68 2.54 5.46
11/10/2020 7:30:00 AM 8.14 46.652 0.194 6.68 2.91 5.44
11/10/2020 7:45:00 AM 8.13 46.634 0.194 6.69 2.39 5.46
11/10/2020 8:00:00 AM 8.13 46.634 0.194 6.68 2.5 5.46
11/10/2020 8:15:00 AM 8.14 46.652 0.194 6.68 2.55 5.43
11/10/2020 8:30:00 AM 8.15 46.67 0.194 6.68 2.57 5.45
11/10/2020 8:45:00 AM 8.13 46.634 0.194 6.69 2.55 5.51
11/10/2020 9:00:00 AM 8.14 46.652 0.194 6.69 2.55 5.52
11/10/2020 9:15:00 AM 8.15 46.67 0.194 6.68 2.46 5.54
11/10/2020 9:30:00 AM 8.18 46.724 0.194 6.68 2.46 5.51
11/10/2020 9:45:00 AM 8.19 46.742 0.194 6.68 2.62 5.5
11/10/2020 10:00:00 AM 8.3 46.94 0.192 6.69 2.51 5.55
11/10/2020 10:15:00 AM 8.43 47.174 0.191 6.7 2.34 5.64
11/10/2020 10:30:00 AM 8.46 47.228 0.192 6.7 2.48 5.83
11/10/2020 10:45:00 AM 8.51 47.318 0.194 6.71 2.86 5.94
11/10/2020 11:00:00 AM 8.58 47.444 0.193 6.72 2.44 5.99
11/10/2020 11:15:00 AM 8.64 47.552 0.193 6.72 2.65 6.18
11/10/2020 11:30:00 AM 8.71 47.678 0.194 6.73 2.49 6.36
11/10/2020 11:45:00 AM 8.81 47.858 0.194 6.75 5.96 6.45
11/10/2020 12:00:00 PM 8.89 48.002 0.195 6.75 2.71 6.58
11/10/2020 12:15:00 PM 9.05 48.29 0.195 6.76 2.55 6.75
11/10/2020 12:30:00 PM 9.27 48.686 0.195 6.77 2.62 6.85
11/10/2020 12:45:00 PM 9.42 48.956 0.195 6.78 2.63 6.97
11/10/2020 1:00:00 PM 9.61 49.298 0.196 6.79 2.48 7.06
11/10/2020 1:15:00 PM 9.79 49.622 0.196 6.79 2.51 7.22
11/10/2020 1:30:00 PM 9.94 49.892 0.196 6.79 2.59 7.21
11/10/2020 1:45:00 PM 10.09 50.162 0.196 6.81 2.58 7.22
11/10/2020 2:00:00 PM 10.22 50.396 0.196 6.82 2.77 7.33
11/10/2020 2:15:00 PM 10.27 50.486 0.196 6.81 2.73 7.23
11/10/2020 2:30:00 PM 10.37 50.666 0.196 6.82 2.58 7.34
11/10/2020 2:45:00 PM 10.39 50.702 0.196 6.82 2.55 7.27
11/10/2020 3:00:00 PM 10.38 50.684 0.196 6.79 2.36 6.93
11/10/2020 3:15:00 PM 10.39 50.702 0.196 6.8 2.39 6.8
11/10/2020 3:30:00 PM 10.44 50.792 0.196 6.8 2.42 6.68
11/10/2020 3:45:00 PM 10.42 50.756 0.197 6.79 2.39 6.5
11/10/2020 4:00:00 PM 10.43 50.774 0.197 6.79 2.34 6.48
11/10/2020 4:15:00 PM 10.47 50.846 0.197 6.8 2.39 6.39
11/10/2020 4:30:00 PM 10.49 50.882 0.197 6.8 2.42 6.34
11/10/2020 4:45:00 PM 10.54 50.972 0.197 6.81 4.53 6.25
11/10/2020 5:00:00 PM 10.52 50.936 0.198 6.81 2.45 6.36
11/10/2020 5:15:00 PM 10.58 51.044 0.198 6.82 2.46 6.27
11/10/2020 5:30:00 PM 10.58 51.044 0.198 6.82 2.5 6.28
11/10/2020 5:45:00 PM 10.56 51.008 0.2 6.82 2.38 6.23
11/10/2020 6:00:00 PM 10.59 51.062 0.199 6.82 2.44 6.24
11/10/2020 6:15:00 PM 10.6 51.08 0.199 6.82 2.54 6.32
11/10/2020 6:30:00 PM 10.6 51.08 0.2 6.82 2.48 6.25
11/10/2020 6:45:00 PM 10.57 51.026 0.2 6.82 2.66 6.11
11/10/2020 7:00:00 PM 10.59 51.062 0.2 6.82 2.58 6.01
11/10/2020 7:15:00 PM 10.59 51.062 0.2 6.82 2.47 5.93
11/10/2020 7:30:00 PM 10.6 51.08 0.199 6.81 2.43 5.83
11/10/2020 7:45:00 PM 10.57 51.026 0.2 6.8 2.46 5.61
11/10/2020 8:00:00 PM 10.56 51.008 0.2 6.81 2.92 5.72
11/10/2020 8:15:00 PM 10.53 50.954 0.2 6.8 2.61 5.69
11/10/2020 8:30:00 PM 10.53 50.954 0.2 6.8 2.63 5.75
11/10/2020 8:45:00 PM 10.5 50.9 0.2 6.8 2.59 6.03
11/10/2020 9:00:00 PM 10.5 50.9 0.198 6.81 2.61 6.36
11/10/2020 9:15:00 PM 10.47 50.846 0.196 6.81 2.69 6.74
11/10/2020 9:30:00 PM 10.43 50.774 0.198 6.81 2.82 6.51
11/10/2020 9:45:00 PM 10.4 50.72 0.198 6.8 2.84 6.44
11/10/2020 10:00:00 PM 10.37 50.666 0.198 6.81 2.77 6.43
11/10/2020 10:15:00 PM 10.34 50.612 0.199 6.81 3.74 6.22
11/10/2020 10:30:00 PM 10.31 50.558 0.198 6.81 2.81 6.21
11/10/2020 10:45:00 PM 10.27 50.486 0.2 6.78 2.9 5.87
11/10/2020 11:00:00 PM 10.24 50.432 0.201 6.8 2.65 5.73
11/10/2020 11:15:00 PM 10.2 50.36 0.196 6.8 2.75 5.74
11/10/2020 11:30:00 PM 10.15 50.27 0.195 6.78 3.36 5.9
11/10/2020 11:45:00 PM 10.11 50.198 0.194 6.78 2.65 5.92
11/11/2020 12:00:00 AM 10.07 50.126 0.193 6.77 2.78 5.8
11/11/2020 12:15:00 AM 10.06 50.108 0.2 6.77 2.68 5.41
11/11/2020 12:30:00 AM 10 50 0.192 6.76 2.53 5.61
11/11/2020 12:45:00 AM 9.99 49.982 0.196 6.77 2.58 5.54
11/11/2020 1:00:00 AM 9.96 49.928 0.2 6.76 2.54 5.45
11/11/2020 1:15:00 AM 9.94 49.892 0.197 6.77 2.66 5.2
11/11/2020 1:30:00 AM 9.88 49.784 0.196 6.76 2.7 5.37
11/11/2020 1:45:00 AM 9.84 49.712 0.193 6.76 2.54 5.46
11/11/2020 2:00:00 AM 9.81 49.658 0.192 6.74 5.72 5.37
11/11/2020 2:15:00 AM 9.77 49.586 0.192 6.75 2.93 5.45
11/11/2020 2:30:00 AM 9.75 49.55 0.192 6.76 3.06 5.45
11/11/2020 2:45:00 AM 9.72 49.496 0.191 6.75 2.92 5.41
11/11/2020 3:00:00 AM 9.69 49.442 0.191 6.75 2.68 5.39
11/11/2020 3:15:00 AM 9.66 49.388 0.191 6.75 2.67 5.42
11/11/2020 3:30:00 AM 9.63 49.334 0.191 6.76 2.65 5.43
11/11/2020 3:45:00 AM 9.61 49.298 0.191 6.76 2.62 5.4
11/11/2020 4:00:00 AM 9.58 49.244 0.192 6.76 2.68 5.44
11/11/2020 4:15:00 AM 9.56 49.208 0.192 6.76 2.72 5.41
11/11/2020 4:30:00 AM 9.53 49.154 0.191 6.76 2.86 5.39
11/11/2020 4:45:00 AM 9.52 49.136 0.191 6.76 2.64 5.33
11/11/2020 5:00:00 AM 9.48 49.064 0.191 6.76 2.6 5.31
11/11/2020 5:15:00 AM 9.47 49.046 0.192 6.76 2.63 5.28
11/11/2020 5:30:00 AM 9.45 49.01 0.191 6.76 2.68 5.25
11/11/2020 5:45:00 AM 9.43 48.974 0.192 6.76 2.66 5.22
11/11/2020 6:00:00 AM 9.42 48.956 0.192 6.77 2.91 5.2
11/11/2020 6:15:00 AM 9.4 48.92 0.192 6.77 2.75 5.21
11/11/2020 6:30:00 AM 9.38 48.884 0.192 6.76 2.73 5.2
11/11/2020 6:45:00 AM 9.38 48.884 0.192 6.77 2.92 5.11
11/11/2020 7:00:00 AM 9.38 48.884 0.192 6.77 2.82 5.11
11/11/2020 7:15:00 AM 9.38 48.884 0.193 6.77 2.71 5.09
11/11/2020 7:30:00 AM 9.39 48.902 0.193 6.77 2.81 5.07
11/11/2020 7:45:00 AM 9.39 48.902 0.193 6.78 2.87 5.04
11/11/2020 8:00:00 AM 9.4 48.92 0.193 6.78 2.78 5
11/11/2020 8:15:00 AM 9.41 48.938 0.193 6.77 2.86 5.01
11/11/2020 8:30:00 AM 9.42 48.956 0.194 6.78 2.99 4.97
11/11/2020 8:45:00 AM 9.43 48.974 0.194 6.78 2.91 4.96
11/11/2020 9:00:00 AM 9.44 48.992 0.194 6.78 3.16 4.87
11/11/2020 9:15:00 AM 9.45 49.01 0.195 6.78 2.91 4.89
11/11/2020 9:30:00 AM 9.46 49.028 0.195 6.79 2.93 4.86
11/11/2020 9:45:00 AM 9.48 49.064 0.195 6.78 2.92 4.87
11/11/2020 10:00:00 AM 9.52 49.136 0.192 6.79 3.24 4.88
11/11/2020 10:15:00 AM 9.5 49.1 0.197 6.8 2.91 4.74
11/11/2020 10:30:00 AM 9.51 49.118 0.196 6.8 2.97 4.7
11/11/2020 10:45:00 AM 9.53 49.154 0.198 6.81 2.99 4.54
11/11/2020 11:00:00 AM 9.58 49.244 0.196 6.82 3.23 4.54
11/11/2020 11:15:00 AM 10.11 50.198 0.18 6.89 4.42 6.22
11/11/2020 11:30:00 AM 10.2 50.36 0.177 7 4.07 7.44
11/11/2020 11:45:00 AM 10.33 50.594 0.177 7.01 5.04 7.56
11/11/2020 12:00:00 PM 10.36 50.648 0.18 7.08 5.37 8.15
11/11/2020 12:15:00 PM 10.26 50.468 0.186 7.12 5.51 8.53
11/11/2020 12:30:00 PM 9.98 49.964 0.203 7.21 4.63 9.09
11/11/2020 12:45:00 PM 9.81 49.658 0.21 7.36 5.16 9.62
11/11/2020 1:00:00 PM 9.81 49.658 0.205 7.46 9.2 9.91
11/11/2020 1:15:00 PM 9.84 49.712 0.2 7.51 15.79 10.02
11/11/2020 1:30:00 PM 9.82 49.676 0.199 7.61 22.21 10.22
11/11/2020 1:45:00 PM 9.84 49.712 0.197 7.65 15.84 10.27
11/11/2020 2:00:00 PM 9.89 49.802 0.198 7.65 15.33 10.25
11/11/2020 2:15:00 PM 9.93 49.874 0.198 7.65 15.07 10.25
11/11/2020 2:30:00 PM 9.99 49.982 0.197 7.64 17 10.22
11/11/2020 2:45:00 PM 10.09 50.162 0.193 7.63 15.34 10.17
11/11/2020 3:00:00 PM 10.23 50.414 0.184 7.61 22.7 10.12
11/11/2020 3:15:00 PM 10.38 50.684 0.173 7.59 26.79 10.07
11/11/2020 3:30:00 PM 10.49 50.882 0.165 7.58 27.64 10.05
11/11/2020 3:45:00 PM 10.57 51.026 0.16 7.56 25.44 10.03
11/11/2020 4:00:00 PM 10.62 51.116 0.159 7.53 24.53 10.02
11/11/2020 4:15:00 PM 10.65 51.17 0.159 7.53 23.19 10.02
11/11/2020 4:30:00 PM 10.66 51.188 0.16 7.54 27.83 10.01
11/11/2020 4:45:00 PM 10.65 51.17 0.16 7.54 23.19 10.01
11/11/2020 5:00:00 PM 10.65 51.17 0.161 7.52 23.86 10.02
11/11/2020 5:15:00 PM 10.65 51.17 0.159 7.54 26.72 10.03
11/11/2020 5:30:00 PM 10.65 51.17 0.156 7.54 29.75 10.01
11/11/2020 5:45:00 PM 10.65 51.17 0.152 7.52 33.71 10.03
11/11/2020 6:00:00 PM 10.64 51.152 0.15 7.51 45.16 10.02
11/11/2020 6:15:00 PM 10.63 51.134 0.15 7.49 51.17 10.03
11/11/2020 6:30:00 PM 10.59 51.062 0.152 7.5 53.18 10.04
11/11/2020 6:45:00 PM 10.55 50.99 0.157 7.51 45.35 10.04
11/11/2020 7:00:00 PM 10.51 50.918 0.163 7.52 25.98 10.05
11/11/2020 7:15:00 PM 10.49 50.882 0.169 7.54 30.14 10.06
11/11/2020 7:30:00 PM 10.49 50.882 0.174 7.55 48.08 10.06
11/11/2020 7:45:00 PM 10.5 50.9 0.177 7.55 26.89 10.06
11/11/2020 8:00:00 PM 10.53 50.954 0.177 7.55 25.9 10.05
11/11/2020 8:15:00 PM 10.55 50.99 0.175 7.56 26.13 10.06
11/11/2020 8:30:00 PM 10.58 51.044 0.172 7.57 25.47 10.05
11/11/2020 8:45:00 PM 10.58 51.044 0.169 7.57 29.94 10.07
11/11/2020 9:00:00 PM 10.58 51.044 0.167 7.56 26.21 10.07
11/11/2020 9:15:00 PM 10.57 51.026 0.167 7.57 24.97 10.08
11/11/2020 9:30:00 PM 10.57 51.026 0.168 7.58 26.95 10.08
11/11/2020 9:45:00 PM 10.57 51.026 0.169 7.59 23.96 10.08
11/11/2020 10:00:00 PM 10.57 51.026 0.171 7.59 29.05 10.08
11/11/2020 10:15:00 PM 10.58 51.044 0.173 7.6 21.24 10.08
11/11/2020 10:30:00 PM 10.6 51.08 0.174 7.6 16.5 10.08
11/11/2020 10:45:00 PM 10.62 51.116 0.176 7.61 18.23 10.08
11/11/2020 11:00:00 PM 10.63 51.134 0.177 7.61 16.84 10.08
11/11/2020 11:15:00 PM 10.65 51.17 0.177 7.61 15.8 10.07
11/11/2020 11:30:00 PM 10.67 51.206 0.177 7.61 15.43 10.06
11/11/2020 11:45:00 PM 10.68 51.224 0.177 7.61 15.98 10.07
11/12/2020 12:00:00 AM 10.69 51.242 0.175 7.61 15.98 10.05
11/12/2020 12:15:00 AM 10.69 51.242 0.174 7.61 17.31 10.05
11/12/2020 12:30:00 AM 10.69 51.242 0.172 7.59 15.21 10.04
11/12/2020 12:45:00 AM 10.68 51.224 0.171 7.6 16.25 10.04
11/12/2020 1:00:00 AM 10.67 51.206 0.169 7.59 15.17 10.04
11/12/2020 1:15:00 AM 10.66 51.188 0.168 7.59 15.21 10.04
11/12/2020 1:30:00 AM 10.64 51.152 0.166 7.58 15.41 10.04
11/12/2020 1:45:00 AM 10.61 51.098 0.165 7.57 15.29 10.04
11/12/2020 2:00:00 AM 10.59 51.062 0.165 7.57 14.28 10.05
11/12/2020 2:15:00 AM 10.56 51.008 0.164 7.57 14.4 10.04
11/12/2020 2:30:00 AM 10.53 50.954 0.164 7.56 13.81 10.05
11/12/2020 2:45:00 AM 10.49 50.882 0.164 7.56 13.32 10.05
11/12/2020 3:00:00 AM 10.45 50.81 0.164 7.56 13.55 10.07
11/12/2020 3:15:00 AM 10.41 50.738 0.165 7.56 11.88 10.06
11/12/2020 3:30:00 AM 10.37 50.666 0.165 7.56 12.28 10.08
11/12/2020 3:45:00 AM 10.33 50.594 0.165 7.55 12.62 10.09
11/12/2020 4:00:00 AM 10.29 50.522 0.166 7.56 11.96 10.11
11/12/2020 4:15:00 AM 10.24 50.432 0.166 7.56 12.12 10.12
11/12/2020 4:30:00 AM 10.2 50.36 0.166 7.56 10.94 10.13
11/12/2020 4:45:00 AM 10.16 50.288 0.166 7.56 11.54 10.15
11/12/2020 5:00:00 AM 10.12 50.216 0.166 7.55 11.24 10.17
11/12/2020 5:15:00 AM 10.08 50.144 0.166 7.55 10.85 10.18
11/12/2020 5:30:00 AM 10.04 50.072 0.166 7.55 10.52 10.18
11/12/2020 5:45:00 AM 10 50 0.165 7.55 10.85 10.18
11/12/2020 6:00:00 AM 9.96 49.928 0.165 7.54 10.64 10.21
11/12/2020 6:15:00 AM 9.92 49.856 0.165 7.53 10.29 10.22
11/12/2020 6:30:00 AM 9.88 49.784 0.164 7.54 10.73 10.22
11/12/2020 6:45:00 AM 9.84 49.712 0.164 7.54 11 10.22
11/12/2020 7:00:00 AM 9.8 49.64 0.164 7.54 10.26 10.22
11/12/2020 7:15:00 AM 9.76 49.568 0.163 7.53 10.19 10.23
11/12/2020 7:30:00 AM 9.71 49.478 0.163 7.53 10.22 10.25
11/12/2020 7:45:00 AM 9.67 49.406 0.163 7.52 9.4 10.27
11/12/2020 8:00:00 AM 9.63 49.334 0.162 7.52 9.83 10.29
11/12/2020 8:15:00 AM 9.61 49.298 0.162 7.53 9.63 10.32
11/12/2020 8:30:00 AM 9.58 49.244 0.162 7.52 9.93 10.35
11/12/2020 8:45:00 AM 9.55 49.19 0.162 7.53 8.86 10.37
11/12/2020 9:00:00 AM 9.51 49.118 0.161 7.53 8.9 10.39
11/12/2020 9:15:00 AM 9.49 49.082 0.161 7.53 9.06 10.41
11/12/2020 9:30:00 AM 9.46 49.028 0.161 7.54 8.89 10.44
11/12/2020 9:45:00 AM 9.43 48.974 0.161 7.53 8.68 10.47
11/12/2020 10:00:00 AM 9.41 48.938 0.161 7.53 8.41 10.49
11/12/2020 10:15:00 AM 9.39 48.902 0.161 7.54 8.58 10.51
11/12/2020 10:30:00 AM 9.37 48.866 0.161 7.55 8.23 10.53
11/12/2020 10:45:00 AM 9.35 48.83 0.161 7.55 8.3 10.55
11/12/2020 11:00:00 AM 9.33 48.794 0.161 7.56 7.94 10.58
11/12/2020 11:15:00 AM 9.32 48.776 0.161 7.56 7.87 10.6
11/12/2020 11:30:00 AM 9.31 48.758 0.161 7.57 8.19 10.62
11/12/2020 11:45:00 AM 9.3 48.74 0.161 7.57 7.97 10.64
11/12/2020 12:00:00 PM 9.29 48.722 0.161 7.58 7.52 10.67
11/12/2020 12:15:00 PM 9.29 48.722 0.161 7.58 7.67 10.69
11/12/2020 12:30:00 PM 9.29 48.722 0.161 7.59 7.71 10.73
11/12/2020 12:45:00 PM 9.3 48.74 0.161 7.6 7.31 10.75
11/12/2020 1:00:00 PM 9.3 48.74 0.161 7.6 7.22 10.77
11/12/2020 1:15:00 PM 9.3 48.74 0.161 7.61 7.22 10.78
11/12/2020 1:30:00 PM 9.31 48.758 0.161 7.62 7.23 10.79
11/12/2020 1:45:00 PM 9.31 48.758 0.161 7.64 7.34 10.82
11/12/2020 2:00:00 PM 9.32 48.776 0.161 7.65 7.42 10.84
11/12/2020 2:15:00 PM 9.31 48.758 0.162 7.63 6.98 10.84
11/12/2020 2:30:00 PM 9.3 48.74 0.162 7.64 6.7 10.85
11/12/2020 2:45:00 PM 9.29 48.722 0.162 7.64 6.51 10.84
11/12/2020 3:00:00 PM 9.28 48.704 0.162 7.65 6.63 10.83
11/12/2020 3:15:00 PM 9.27 48.686 0.162 7.64 7.01 10.83
11/12/2020 3:30:00 PM 9.25 48.65 0.162 7.64 6.68 10.81
11/12/2020 3:45:00 PM 9.22 48.596 0.162 7.63 6.66 10.79
11/12/2020 4:00:00 PM 9.19 48.542 0.162 7.64 6.53 10.76
11/12/2020 4:15:00 PM 9.15 48.47 0.163 7.63 6.58 10.74
11/12/2020 4:30:00 PM 9.11 48.398 0.163 7.62 6.45 10.72
11/12/2020 4:45:00 PM 9.06 48.308 0.163 7.62 6.4 10.69
11/12/2020 5:00:00 PM 9 48.2 0.163 7.62 6.61 10.68
11/12/2020 5:15:00 PM 8.94 48.092 0.163 7.6 6.66 10.65
11/12/2020 5:30:00 PM 8.87 47.966 0.163 7.6 6.09 10.63
11/12/2020 5:45:00 PM 8.8 47.84 0.164 7.58 6.15 10.62
11/12/2020 6:00:00 PM 8.73 47.714 0.164 7.58 6.02 10.64
11/12/2020 6:15:00 PM 8.66 47.588 0.164 7.58 6.07 10.64
11/12/2020 6:30:00 PM 8.59 47.462 0.164 7.58 5.82 10.63
11/12/2020 6:45:00 PM 8.52 47.336 0.164 7.57 5.98 10.63
11/12/2020 7:00:00 PM 8.45 47.21 0.164 7.57 5.82 10.62
11/12/2020 7:15:00 PM 8.37 47.066 0.165 7.56 6.31 10.63
11/12/2020 7:30:00 PM 8.29 46.922 0.165 7.56 5.97 10.65
11/12/2020 7:45:00 PM 8.22 46.796 0.165 7.55 6.02 10.65
11/12/2020 8:00:00 PM 8.14 46.652 0.165 7.55 5.58 10.67
11/12/2020 8:15:00 PM 8.07 46.526 0.165 7.54 6.02 10.68
11/12/2020 8:30:00 PM 7.99 46.382 0.165 7.54 5.95 10.69
11/12/2020 8:45:00 PM 7.92 46.256 0.166 7.54 5.65 10.69
11/12/2020 9:00:00 PM 7.85 46.13 0.166 7.54 5.93 10.71
11/12/2020 9:15:00 PM 7.78 46.004 0.166 7.52 5.77 10.71
11/12/2020 9:30:00 PM 7.71 45.878 0.166 7.52 5.59 10.74
11/12/2020 9:45:00 PM 7.65 45.77 0.166 7.52 5.54 10.74
11/12/2020 10:00:00 PM 7.58 45.644 0.166 7.51 5.49 10.75
11/12/2020 10:15:00 PM 7.51 45.518 0.166 7.51 5.41 10.8
11/12/2020 10:30:00 PM 7.45 45.41 0.167 7.51 5.55 10.82
11/12/2020 10:45:00 PM 7.38 45.284 0.167 7.51 5.48 10.82
11/12/2020 11:00:00 PM 7.32 45.176 0.167 7.51 5.36 10.85
11/12/2020 11:15:00 PM 7.26 45.068 0.167 7.5 5.35 10.85
11/12/2020 11:30:00 PM 7.2 44.96 0.167 7.49 5.66 10.84
11/12/2020 11:45:00 PM 7.14 44.852 0.167 7.49 5.35 10.85
11/13/2020 12:00:00 AM 7.08 44.744 0.168 7.5 5.5 10.91
11/13/2020 12:15:00 AM 7.02 44.636 0.168 7.49 5.12 10.93
11/13/2020 12:30:00 AM 6.96 44.528 0.168 7.5 5.11 10.95
11/13/2020 12:45:00 AM 6.91 44.438 0.168 7.5 5.17 10.96
11/13/2020 1:00:00 AM 6.85 44.33 0.168 7.5 5.07 10.98
11/13/2020 1:15:00 AM 6.79 44.222 0.168 7.5 5.38 11
11/13/2020 1:30:00 AM 6.74 44.132 0.168 7.48 4.95 11.01
11/13/2020 1:45:00 AM 6.68 44.024 0.169 7.49 5.07 11.02
11/13/2020 2:00:00 AM 6.62 43.916 0.169 7.5 4.95 11.03
11/13/2020 2:15:00 AM 6.57 43.826 0.169 7.49 4.81 11.04
11/13/2020 2:30:00 AM 6.51 43.718 0.169 7.48 4.83 11.08
11/13/2020 2:45:00 AM 6.46 43.628 0.169 7.49 4.82 11.09
11/13/2020 3:00:00 AM 6.41 43.538 0.169 7.49 5.14 11.09
11/13/2020 3:15:00 AM 6.35 43.43 0.169 7.5 4.84 11.11
11/13/2020 3:30:00 AM 6.31 43.358 0.169 7.47 5.03 11.07
11/13/2020 3:45:00 AM 6.25 43.25 0.17 7.49 4.83 11.15
11/13/2020 4:00:00 AM 6.2 43.16 0.17 7.48 4.9 11.15
11/13/2020 4:15:00 AM 6.16 43.088 0.17 7.47 4.73 11.12
11/13/2020 4:30:00 AM 6.1 42.98 0.17 7.49 5.3 11.2
11/13/2020 4:45:00 AM 6.1 42.98 0.17 7.47 4.85 11.14
11/13/2020 5:00:00 AM 6.08 42.944 0.17 7.47 4.65 11.16
11/13/2020 5:15:00 AM 6.06 42.908 0.17 7.46 4.7 11.14
11/13/2020 5:30:00 AM 6.04 42.872 0.17 7.48 4.49 11.16
11/13/2020 5:45:00 AM 6.02 42.836 0.17 7.48 4.54 11.2
11/13/2020 6:00:00 AM 6.01 42.818 0.17 7.47 4.88 11.18
11/13/2020 6:15:00 AM 6 42.8 0.171 7.48 4.71 11.18
11/13/2020 6:30:00 AM 5.99 42.782 0.171 7.49 4.7 11.19
11/13/2020 6:45:00 AM 5.98 42.764 0.171 7.49 4.4 11.2
11/13/2020 7:00:00 AM 5.97 42.746 0.171 7.49 4.61 11.22
11/13/2020 7:15:00 AM 5.96 42.728 0.171 7.5 4.43 11.22
11/13/2020 7:30:00 AM 5.96 42.728 0.171 7.5 4.34 11.21
11/13/2020 7:45:00 AM 5.96 42.728 0.171 7.51 4.22 11.24
11/13/2020 8:00:00 AM 5.98 42.764 0.171 7.51 4.4 11.26
11/13/2020 8:15:00 AM 6.01 42.818 0.171 7.52 4.05 11.29
11/13/2020 8:30:00 AM 6.03 42.854 0.171 7.52 4.28 11.3
11/13/2020 8:45:00 AM 6.04 42.872 0.172 7.52 3.94 11.33
11/13/2020 9:00:00 AM 6.05 42.89 0.172 7.52 3.86 11.38
11/13/2020 9:15:00 AM 6.09 42.962 0.172 7.52 3.84 11.37
11/13/2020 9:30:00 AM 6.14 43.052 0.172 7.53 3.63 11.41
11/13/2020 9:45:00 AM 6.18 43.124 0.172 7.53 3.78 11.44
11/13/2020 10:00:00 AM 6.23 43.214 0.172 7.55 3.91 11.49